<?xml version="1.0" encoding="UTF-8" standalone="no" ?>
<gpx xmlns="http://www.topografix.com/GPX/1/1" xmlns:xsi="http://www.w3.org/2001/XMLSchema-instance" xsi:schemaLocation="http://www.topografix.com/GPX/1/1 http://www.topografix.com/GPX/1/1/gpx.xsd" version="1.1" creator="VisuGPX - https://www.visugpx.com">
  <metadata>
    <name>Sortie 09/11/2017</name>
    <desc><![CDATA[Sortie du jeudi 9 novembre 2017 Pornichet et environs ]]></desc>
  </metadata>
  <trk>
    <name><![CDATA[Sortie 09/11/2017_1]]></name>
    <trkseg>
      <trkpt lat="47.25516" lon="-2.3183">
        <ele>18.9</ele>
        <time>2017-11-09T08:36:14Z</time>
      </trkpt>
      <trkpt lat="47.25516" lon="-2.3183">
        <ele>67</ele>
        <time>2017-11-09T08:36:15Z</time>
      </trkpt>
      <trkpt lat="47.25497" lon="-2.31823">
        <ele>65</ele>
        <time>2017-11-09T08:40:52Z</time>
      </trkpt>
      <trkpt lat="47.25471" lon="-2.31836">
        <ele>64</ele>
        <time>2017-11-09T08:41:00Z</time>
      </trkpt>
      <trkpt lat="47.25455" lon="-2.31826">
        <ele>63</ele>
        <time>2017-11-09T08:41:05Z</time>
      </trkpt>
      <trkpt lat="47.25447" lon="-2.31795">
        <ele>62</ele>
        <time>2017-11-09T08:41:12Z</time>
      </trkpt>
      <trkpt lat="47.25436" lon="-2.31756">
        <ele>62</ele>
        <time>2017-11-09T08:41:19Z</time>
      </trkpt>
      <trkpt lat="47.25427" lon="-2.31728">
        <ele>64</ele>
        <time>2017-11-09T08:41:24Z</time>
      </trkpt>
      <trkpt lat="47.25413" lon="-2.31692">
        <ele>63</ele>
        <time>2017-11-09T08:41:31Z</time>
      </trkpt>
      <trkpt lat="47.25403" lon="-2.31666">
        <ele>63</ele>
        <time>2017-11-09T08:41:37Z</time>
      </trkpt>
      <trkpt lat="47.25386" lon="-2.31631">
        <ele>65</ele>
        <time>2017-11-09T08:41:44Z</time>
      </trkpt>
      <trkpt lat="47.25372" lon="-2.31608">
        <ele>66</ele>
        <time>2017-11-09T08:41:49Z</time>
      </trkpt>
      <trkpt lat="47.25357" lon="-2.31583">
        <ele>67</ele>
        <time>2017-11-09T08:41:55Z</time>
      </trkpt>
      <trkpt lat="47.25342" lon="-2.31558">
        <ele>67</ele>
        <time>2017-11-09T08:42:01Z</time>
      </trkpt>
      <trkpt lat="47.25335" lon="-2.31531">
        <ele>67</ele>
        <time>2017-11-09T08:42:06Z</time>
      </trkpt>
      <trkpt lat="47.25326" lon="-2.31494">
        <ele>68</ele>
        <time>2017-11-09T08:42:12Z</time>
      </trkpt>
      <trkpt lat="47.25322" lon="-2.31454">
        <ele>67</ele>
        <time>2017-11-09T08:42:18Z</time>
      </trkpt>
      <trkpt lat="47.25322" lon="-2.31413">
        <ele>66</ele>
        <time>2017-11-09T08:42:24Z</time>
      </trkpt>
      <trkpt lat="47.25334" lon="-2.31365">
        <ele>67</ele>
        <time>2017-11-09T08:42:30Z</time>
      </trkpt>
      <trkpt lat="47.25339" lon="-2.31316">
        <ele>67</ele>
        <time>2017-11-09T08:42:35Z</time>
      </trkpt>
      <trkpt lat="47.25346" lon="-2.3125">
        <ele>66</ele>
        <time>2017-11-09T08:42:41Z</time>
      </trkpt>
      <trkpt lat="47.25344" lon="-2.31189">
        <ele>66</ele>
        <time>2017-11-09T08:42:46Z</time>
      </trkpt>
      <trkpt lat="47.25331" lon="-2.31146">
        <ele>64</ele>
        <time>2017-11-09T08:42:51Z</time>
      </trkpt>
      <trkpt lat="47.25323" lon="-2.31101">
        <ele>64</ele>
        <time>2017-11-09T08:42:57Z</time>
      </trkpt>
      <trkpt lat="47.25317" lon="-2.31053">
        <ele>63</ele>
        <time>2017-11-09T08:43:03Z</time>
      </trkpt>
      <trkpt lat="47.25308" lon="-2.31015">
        <ele>62</ele>
        <time>2017-11-09T08:43:08Z</time>
      </trkpt>
      <trkpt lat="47.25299" lon="-2.30977">
        <ele>62</ele>
        <time>2017-11-09T08:43:13Z</time>
      </trkpt>
      <trkpt lat="47.25287" lon="-2.30938">
        <ele>63</ele>
        <time>2017-11-09T08:43:19Z</time>
      </trkpt>
      <trkpt lat="47.25282" lon="-2.30919">
        <ele>64</ele>
        <time>2017-11-09T08:43:22Z</time>
      </trkpt>
      <trkpt lat="47.25277" lon="-2.30903">
        <ele>65</ele>
        <time>2017-11-09T08:43:25Z</time>
      </trkpt>
      <trkpt lat="47.25271" lon="-2.30884">
        <ele>65</ele>
        <time>2017-11-09T08:43:29Z</time>
      </trkpt>
      <trkpt lat="47.25262" lon="-2.30852">
        <ele>66</ele>
        <time>2017-11-09T08:43:36Z</time>
      </trkpt>
      <trkpt lat="47.25254" lon="-2.30824">
        <ele>66</ele>
        <time>2017-11-09T08:43:42Z</time>
      </trkpt>
      <trkpt lat="47.2525" lon="-2.30804">
        <ele>66</ele>
        <time>2017-11-09T08:43:46Z</time>
      </trkpt>
      <trkpt lat="47.25248" lon="-2.30774">
        <ele>67</ele>
        <time>2017-11-09T08:43:52Z</time>
      </trkpt>
      <trkpt lat="47.25245" lon="-2.30738">
        <ele>68</ele>
        <time>2017-11-09T08:43:59Z</time>
      </trkpt>
      <trkpt lat="47.25241" lon="-2.30709">
        <ele>68</ele>
        <time>2017-11-09T08:44:05Z</time>
      </trkpt>
      <trkpt lat="47.25225" lon="-2.30684">
        <ele>70</ele>
        <time>2017-11-09T08:44:13Z</time>
      </trkpt>
      <trkpt lat="47.25212" lon="-2.30659">
        <ele>70</ele>
        <time>2017-11-09T08:44:20Z</time>
      </trkpt>
      <trkpt lat="47.25197" lon="-2.30624">
        <ele>72</ele>
        <time>2017-11-09T08:44:27Z</time>
      </trkpt>
      <trkpt lat="47.25186" lon="-2.30599">
        <ele>73</ele>
        <time>2017-11-09T08:44:32Z</time>
      </trkpt>
      <trkpt lat="47.25175" lon="-2.30569">
        <ele>74</ele>
        <time>2017-11-09T08:44:38Z</time>
      </trkpt>
      <trkpt lat="47.25169" lon="-2.30542">
        <ele>74</ele>
        <time>2017-11-09T08:44:43Z</time>
      </trkpt>
      <trkpt lat="47.25159" lon="-2.3051">
        <ele>75</ele>
        <time>2017-11-09T08:44:49Z</time>
      </trkpt>
      <trkpt lat="47.25147" lon="-2.30478">
        <ele>74</ele>
        <time>2017-11-09T08:44:55Z</time>
      </trkpt>
      <trkpt lat="47.25135" lon="-2.30453">
        <ele>76</ele>
        <time>2017-11-09T08:45:00Z</time>
      </trkpt>
      <trkpt lat="47.25125" lon="-2.30428">
        <ele>76</ele>
        <time>2017-11-09T08:45:05Z</time>
      </trkpt>
      <trkpt lat="47.25115" lon="-2.30403">
        <ele>77</ele>
        <time>2017-11-09T08:45:10Z</time>
      </trkpt>
      <trkpt lat="47.25107" lon="-2.30374">
        <ele>78</ele>
        <time>2017-11-09T08:45:16Z</time>
      </trkpt>
      <trkpt lat="47.251" lon="-2.30339">
        <ele>76</ele>
        <time>2017-11-09T08:45:22Z</time>
      </trkpt>
      <trkpt lat="47.25089" lon="-2.30305">
        <ele>76</ele>
        <time>2017-11-09T08:45:28Z</time>
      </trkpt>
      <trkpt lat="47.25077" lon="-2.3028">
        <ele>77</ele>
        <time>2017-11-09T08:45:33Z</time>
      </trkpt>
      <trkpt lat="47.25061" lon="-2.30241">
        <ele>78</ele>
        <time>2017-11-09T08:45:40Z</time>
      </trkpt>
      <trkpt lat="47.25059" lon="-2.30204">
        <ele>77</ele>
        <time>2017-11-09T08:45:46Z</time>
      </trkpt>
      <trkpt lat="47.25061" lon="-2.30178">
        <ele>77</ele>
        <time>2017-11-09T08:45:50Z</time>
      </trkpt>
      <trkpt lat="47.25063" lon="-2.3016">
        <ele>77</ele>
        <time>2017-11-09T08:45:53Z</time>
      </trkpt>
      <trkpt lat="47.25071" lon="-2.30135">
        <ele>78</ele>
        <time>2017-11-09T08:45:59Z</time>
      </trkpt>
      <trkpt lat="47.25093" lon="-2.30132">
        <ele>78</ele>
        <time>2017-11-09T08:46:06Z</time>
      </trkpt>
      <trkpt lat="47.25117" lon="-2.30127">
        <ele>78</ele>
        <time>2017-11-09T08:46:12Z</time>
      </trkpt>
      <trkpt lat="47.25155" lon="-2.30123">
        <ele>77</ele>
        <time>2017-11-09T08:46:19Z</time>
      </trkpt>
      <trkpt lat="47.25178" lon="-2.30122">
        <ele>76</ele>
        <time>2017-11-09T08:46:24Z</time>
      </trkpt>
      <trkpt lat="47.25201" lon="-2.30153">
        <ele>74</ele>
        <time>2017-11-09T08:46:30Z</time>
      </trkpt>
      <trkpt lat="47.25229" lon="-2.30174">
        <ele>75</ele>
        <time>2017-11-09T08:46:36Z</time>
      </trkpt>
      <trkpt lat="47.25258" lon="-2.30188">
        <ele>74</ele>
        <time>2017-11-09T08:46:42Z</time>
      </trkpt>
      <trkpt lat="47.25283" lon="-2.30199">
        <ele>73</ele>
        <time>2017-11-09T08:46:47Z</time>
      </trkpt>
      <trkpt lat="47.253" lon="-2.30208">
        <ele>73</ele>
        <time>2017-11-09T08:46:53Z</time>
      </trkpt>
      <trkpt lat="47.25319" lon="-2.30207">
        <ele>72</ele>
        <time>2017-11-09T08:47:01Z</time>
      </trkpt>
      <trkpt lat="47.25339" lon="-2.3021">
        <ele>72</ele>
        <time>2017-11-09T08:47:06Z</time>
      </trkpt>
      <trkpt lat="47.25361" lon="-2.30211">
        <ele>71</ele>
        <time>2017-11-09T08:47:12Z</time>
      </trkpt>
      <trkpt lat="47.25388" lon="-2.30218">
        <ele>70</ele>
        <time>2017-11-09T08:47:18Z</time>
      </trkpt>
      <trkpt lat="47.25414" lon="-2.30228">
        <ele>70</ele>
        <time>2017-11-09T08:47:23Z</time>
      </trkpt>
      <trkpt lat="47.25444" lon="-2.30236">
        <ele>68</ele>
        <time>2017-11-09T08:47:28Z</time>
      </trkpt>
      <trkpt lat="47.2547" lon="-2.30245">
        <ele>68</ele>
        <time>2017-11-09T08:47:33Z</time>
      </trkpt>
      <trkpt lat="47.25486" lon="-2.30218">
        <ele>67</ele>
        <time>2017-11-09T08:47:39Z</time>
      </trkpt>
      <trkpt lat="47.25497" lon="-2.30203">
        <ele>65</ele>
        <time>2017-11-09T08:47:42Z</time>
      </trkpt>
      <trkpt lat="47.25521" lon="-2.30196">
        <ele>64</ele>
        <time>2017-11-09T08:47:49Z</time>
      </trkpt>
      <trkpt lat="47.25543" lon="-2.30186">
        <ele>63</ele>
        <time>2017-11-09T08:47:54Z</time>
      </trkpt>
      <trkpt lat="47.25563" lon="-2.30182">
        <ele>63</ele>
        <time>2017-11-09T08:48:00Z</time>
      </trkpt>
      <trkpt lat="47.25563" lon="-2.30182">
        <ele>63</ele>
        <time>2017-11-09T08:48:07Z</time>
      </trkpt>
      <trkpt lat="47.25563" lon="-2.30182">
        <ele>24.3</ele>
        <time>2017-11-09T08:48:07Z</time>
      </trkpt>
      <trkpt lat="47.25563" lon="-2.30182">
        <ele>24.3</ele>
        <time>2017-11-09T08:48:19Z</time>
      </trkpt>
      <trkpt lat="47.25581" lon="-2.30194">
        <ele>62</ele>
        <time>2017-11-09T08:48:19Z</time>
      </trkpt>
      <trkpt lat="47.25607" lon="-2.30216">
        <ele>62</ele>
        <time>2017-11-09T08:48:25Z</time>
      </trkpt>
      <trkpt lat="47.25621" lon="-2.30247">
        <ele>63</ele>
        <time>2017-11-09T08:48:30Z</time>
      </trkpt>
      <trkpt lat="47.25627" lon="-2.30285">
        <ele>65</ele>
        <time>2017-11-09T08:48:35Z</time>
      </trkpt>
      <trkpt lat="47.25631" lon="-2.30321">
        <ele>66</ele>
        <time>2017-11-09T08:48:40Z</time>
      </trkpt>
      <trkpt lat="47.25635" lon="-2.30342">
        <ele>66</ele>
        <time>2017-11-09T08:48:44Z</time>
      </trkpt>
      <trkpt lat="47.25654" lon="-2.30322">
        <ele>66</ele>
        <time>2017-11-09T08:48:51Z</time>
      </trkpt>
      <trkpt lat="47.25666" lon="-2.30277">
        <ele>66</ele>
        <time>2017-11-09T08:48:58Z</time>
      </trkpt>
      <trkpt lat="47.25683" lon="-2.30243">
        <ele>67</ele>
        <time>2017-11-09T08:49:04Z</time>
      </trkpt>
      <trkpt lat="47.2569" lon="-2.30223">
        <ele>68</ele>
        <time>2017-11-09T08:49:07Z</time>
      </trkpt>
      <trkpt lat="47.25709" lon="-2.30207">
        <ele>69</ele>
        <time>2017-11-09T08:49:11Z</time>
      </trkpt>
      <trkpt lat="47.25737" lon="-2.30207">
        <ele>67</ele>
        <time>2017-11-09T08:49:16Z</time>
      </trkpt>
      <trkpt lat="47.25753" lon="-2.30215">
        <ele>66</ele>
        <time>2017-11-09T08:49:19Z</time>
      </trkpt>
      <trkpt lat="47.25771" lon="-2.30224">
        <ele>66</ele>
        <time>2017-11-09T08:49:22Z</time>
      </trkpt>
      <trkpt lat="47.25819" lon="-2.30247">
        <ele>65</ele>
        <time>2017-11-09T08:49:30Z</time>
      </trkpt>
      <trkpt lat="47.25848" lon="-2.30265">
        <ele>66</ele>
        <time>2017-11-09T08:49:36Z</time>
      </trkpt>
      <trkpt lat="47.25873" lon="-2.30268">
        <ele>67</ele>
        <time>2017-11-09T08:49:42Z</time>
      </trkpt>
      <trkpt lat="47.25888" lon="-2.30229">
        <ele>68</ele>
        <time>2017-11-09T08:49:49Z</time>
      </trkpt>
      <trkpt lat="47.25886" lon="-2.30194">
        <ele>67</ele>
        <time>2017-11-09T08:49:55Z</time>
      </trkpt>
      <trkpt lat="47.25903" lon="-2.30171">
        <ele>67</ele>
        <time>2017-11-09T08:50:00Z</time>
      </trkpt>
      <trkpt lat="47.25928" lon="-2.30162">
        <ele>67</ele>
        <time>2017-11-09T08:50:05Z</time>
      </trkpt>
      <trkpt lat="47.2596" lon="-2.30148">
        <ele>65</ele>
        <time>2017-11-09T08:50:11Z</time>
      </trkpt>
      <trkpt lat="47.25978" lon="-2.30131">
        <ele>64</ele>
        <time>2017-11-09T08:50:18Z</time>
      </trkpt>
      <trkpt lat="47.25998" lon="-2.30129">
        <ele>63</ele>
        <time>2017-11-09T08:50:25Z</time>
      </trkpt>
      <trkpt lat="47.26015" lon="-2.3013">
        <ele>63</ele>
        <time>2017-11-09T08:50:31Z</time>
      </trkpt>
      <trkpt lat="47.26044" lon="-2.30131">
        <ele>63</ele>
        <time>2017-11-09T08:50:40Z</time>
      </trkpt>
      <trkpt lat="47.26066" lon="-2.30142">
        <ele>62</ele>
        <time>2017-11-09T08:50:46Z</time>
      </trkpt>
      <trkpt lat="47.26082" lon="-2.30146">
        <ele>61</ele>
        <time>2017-11-09T08:50:54Z</time>
      </trkpt>
      <trkpt lat="47.26107" lon="-2.30157">
        <ele>61</ele>
        <time>2017-11-09T08:51:04Z</time>
      </trkpt>
      <trkpt lat="47.26128" lon="-2.30153">
        <ele>63</ele>
        <time>2017-11-09T08:51:09Z</time>
      </trkpt>
      <trkpt lat="47.26148" lon="-2.30149">
        <ele>65</ele>
        <time>2017-11-09T08:51:15Z</time>
      </trkpt>
      <trkpt lat="47.26167" lon="-2.30154">
        <ele>67</ele>
        <time>2017-11-09T08:51:24Z</time>
      </trkpt>
      <trkpt lat="47.26186" lon="-2.30149">
        <ele>69</ele>
        <time>2017-11-09T08:51:30Z</time>
      </trkpt>
      <trkpt lat="47.26206" lon="-2.30142">
        <ele>70</ele>
        <time>2017-11-09T08:51:35Z</time>
      </trkpt>
      <trkpt lat="47.26224" lon="-2.30137">
        <ele>71</ele>
        <time>2017-11-09T08:51:40Z</time>
      </trkpt>
      <trkpt lat="47.26237" lon="-2.30133">
        <ele>71</ele>
        <time>2017-11-09T08:51:44Z</time>
      </trkpt>
      <trkpt lat="47.26242" lon="-2.30131">
        <ele>72</ele>
        <time>2017-11-09T08:51:46Z</time>
      </trkpt>
      <trkpt lat="47.26242" lon="-2.30131">
        <ele>31</ele>
        <time>2017-11-09T08:51:51Z</time>
      </trkpt>
      <trkpt lat="47.26242" lon="-2.30131">
        <ele>31</ele>
        <time>2017-11-09T08:52:17Z</time>
      </trkpt>
      <trkpt lat="47.26254" lon="-2.3015">
        <ele>73</ele>
        <time>2017-11-09T08:52:17Z</time>
      </trkpt>
      <trkpt lat="47.26266" lon="-2.30172">
        <ele>71</ele>
        <time>2017-11-09T08:52:22Z</time>
      </trkpt>
      <trkpt lat="47.26273" lon="-2.30208">
        <ele>71</ele>
        <time>2017-11-09T08:52:27Z</time>
      </trkpt>
      <trkpt lat="47.2628" lon="-2.30247">
        <ele>73</ele>
        <time>2017-11-09T08:52:32Z</time>
      </trkpt>
      <trkpt lat="47.26289" lon="-2.30291">
        <ele>74</ele>
        <time>2017-11-09T08:52:38Z</time>
      </trkpt>
      <trkpt lat="47.26296" lon="-2.30314">
        <ele>74</ele>
        <time>2017-11-09T08:52:41Z</time>
      </trkpt>
      <trkpt lat="47.26306" lon="-2.30351">
        <ele>74</ele>
        <time>2017-11-09T08:52:47Z</time>
      </trkpt>
      <trkpt lat="47.26309" lon="-2.30386">
        <ele>74</ele>
        <time>2017-11-09T08:52:52Z</time>
      </trkpt>
      <trkpt lat="47.26317" lon="-2.30427">
        <ele>73</ele>
        <time>2017-11-09T08:52:59Z</time>
      </trkpt>
      <trkpt lat="47.26324" lon="-2.30462">
        <ele>73</ele>
        <time>2017-11-09T08:53:05Z</time>
      </trkpt>
      <trkpt lat="47.26328" lon="-2.3048">
        <ele>73</ele>
        <time>2017-11-09T08:53:08Z</time>
      </trkpt>
      <trkpt lat="47.26331" lon="-2.305">
        <ele>73</ele>
        <time>2017-11-09T08:53:11Z</time>
      </trkpt>
      <trkpt lat="47.26342" lon="-2.30546">
        <ele>73</ele>
        <time>2017-11-09T08:53:18Z</time>
      </trkpt>
      <trkpt lat="47.26346" lon="-2.30572">
        <ele>73</ele>
        <time>2017-11-09T08:53:24Z</time>
      </trkpt>
      <trkpt lat="47.26358" lon="-2.30608">
        <ele>72</ele>
        <time>2017-11-09T08:53:32Z</time>
      </trkpt>
      <trkpt lat="47.26382" lon="-2.30644">
        <ele>70</ele>
        <time>2017-11-09T08:53:40Z</time>
      </trkpt>
      <trkpt lat="47.26399" lon="-2.30666">
        <ele>70</ele>
        <time>2017-11-09T08:53:46Z</time>
      </trkpt>
      <trkpt lat="47.26418" lon="-2.30686">
        <ele>70</ele>
        <time>2017-11-09T08:53:52Z</time>
      </trkpt>
      <trkpt lat="47.26431" lon="-2.3071">
        <ele>70</ele>
        <time>2017-11-09T08:53:57Z</time>
      </trkpt>
      <trkpt lat="47.26445" lon="-2.30735">
        <ele>68</ele>
        <time>2017-11-09T08:54:03Z</time>
      </trkpt>
      <trkpt lat="47.26461" lon="-2.30788">
        <ele>67</ele>
        <time>2017-11-09T08:54:10Z</time>
      </trkpt>
      <trkpt lat="47.26476" lon="-2.30829">
        <ele>66</ele>
        <time>2017-11-09T08:54:17Z</time>
      </trkpt>
      <trkpt lat="47.26495" lon="-2.3085">
        <ele>64</ele>
        <time>2017-11-09T08:54:25Z</time>
      </trkpt>
      <trkpt lat="47.26517" lon="-2.30864">
        <ele>63</ele>
        <time>2017-11-09T08:54:34Z</time>
      </trkpt>
      <trkpt lat="47.26536" lon="-2.30848">
        <ele>63</ele>
        <time>2017-11-09T08:54:42Z</time>
      </trkpt>
      <trkpt lat="47.26551" lon="-2.30834">
        <ele>62</ele>
        <time>2017-11-09T08:54:49Z</time>
      </trkpt>
      <trkpt lat="47.26575" lon="-2.30808">
        <ele>61</ele>
        <time>2017-11-09T08:54:58Z</time>
      </trkpt>
      <trkpt lat="47.26589" lon="-2.30788">
        <ele>61</ele>
        <time>2017-11-09T08:55:04Z</time>
      </trkpt>
      <trkpt lat="47.26607" lon="-2.30768">
        <ele>61</ele>
        <time>2017-11-09T08:55:11Z</time>
      </trkpt>
      <trkpt lat="47.26616" lon="-2.30745">
        <ele>60</ele>
        <time>2017-11-09T08:55:18Z</time>
      </trkpt>
      <trkpt lat="47.26623" lon="-2.30733">
        <ele>60</ele>
        <time>2017-11-09T08:55:22Z</time>
      </trkpt>
      <trkpt lat="47.26641" lon="-2.30704">
        <ele>60</ele>
        <time>2017-11-09T08:55:30Z</time>
      </trkpt>
      <trkpt lat="47.26659" lon="-2.30706">
        <ele>60</ele>
        <time>2017-11-09T08:55:37Z</time>
      </trkpt>
      <trkpt lat="47.26675" lon="-2.30732">
        <ele>60</ele>
        <time>2017-11-09T08:55:43Z</time>
      </trkpt>
      <trkpt lat="47.26691" lon="-2.30759">
        <ele>61</ele>
        <time>2017-11-09T08:55:49Z</time>
      </trkpt>
      <trkpt lat="47.26706" lon="-2.30798">
        <ele>65</ele>
        <time>2017-11-09T08:55:56Z</time>
      </trkpt>
      <trkpt lat="47.26719" lon="-2.30825">
        <ele>67</ele>
        <time>2017-11-09T08:56:02Z</time>
      </trkpt>
      <trkpt lat="47.26726" lon="-2.30838">
        <ele>67</ele>
        <time>2017-11-09T08:56:05Z</time>
      </trkpt>
      <trkpt lat="47.26744" lon="-2.30857">
        <ele>66</ele>
        <time>2017-11-09T08:56:12Z</time>
      </trkpt>
      <trkpt lat="47.26769" lon="-2.3084">
        <ele>70</ele>
        <time>2017-11-09T08:56:20Z</time>
      </trkpt>
      <trkpt lat="47.26781" lon="-2.3083">
        <ele>70</ele>
        <time>2017-11-09T08:56:24Z</time>
      </trkpt>
      <trkpt lat="47.268" lon="-2.30809">
        <ele>71</ele>
        <time>2017-11-09T08:56:31Z</time>
      </trkpt>
      <trkpt lat="47.26809" lon="-2.30798">
        <ele>72</ele>
        <time>2017-11-09T08:56:37Z</time>
      </trkpt>
      <trkpt lat="47.26821" lon="-2.3079">
        <ele>74</ele>
        <time>2017-11-09T08:56:43Z</time>
      </trkpt>
      <trkpt lat="47.26823" lon="-2.30788">
        <ele>74</ele>
        <time>2017-11-09T08:56:45Z</time>
      </trkpt>
      <trkpt lat="47.26823" lon="-2.30788">
        <ele>29.4</ele>
        <time>2017-11-09T08:56:51Z</time>
      </trkpt>
      <trkpt lat="47.26823" lon="-2.30788">
        <ele>29.4</ele>
        <time>2017-11-09T08:57:22Z</time>
      </trkpt>
      <trkpt lat="47.26848" lon="-2.30741">
        <ele>76</ele>
        <time>2017-11-09T08:57:28Z</time>
      </trkpt>
      <trkpt lat="47.26862" lon="-2.30707">
        <ele>76</ele>
        <time>2017-11-09T08:57:35Z</time>
      </trkpt>
      <trkpt lat="47.26876" lon="-2.3068">
        <ele>76</ele>
        <time>2017-11-09T08:57:40Z</time>
      </trkpt>
      <trkpt lat="47.26897" lon="-2.30655">
        <ele>76</ele>
        <time>2017-11-09T08:57:46Z</time>
      </trkpt>
      <trkpt lat="47.26919" lon="-2.30636">
        <ele>76</ele>
        <time>2017-11-09T08:57:51Z</time>
      </trkpt>
      <trkpt lat="47.26947" lon="-2.30627">
        <ele>76</ele>
        <time>2017-11-09T08:57:56Z</time>
      </trkpt>
      <trkpt lat="47.2697" lon="-2.30617">
        <ele>75</ele>
        <time>2017-11-09T08:58:00Z</time>
      </trkpt>
      <trkpt lat="47.27002" lon="-2.30595">
        <ele>72</ele>
        <time>2017-11-09T08:58:06Z</time>
      </trkpt>
      <trkpt lat="47.27018" lon="-2.30551">
        <ele>72</ele>
        <time>2017-11-09T08:58:12Z</time>
      </trkpt>
      <trkpt lat="47.2703" lon="-2.30499">
        <ele>73</ele>
        <time>2017-11-09T08:58:18Z</time>
      </trkpt>
      <trkpt lat="47.27049" lon="-2.30473">
        <ele>73</ele>
        <time>2017-11-09T08:58:28Z</time>
      </trkpt>
      <trkpt lat="47.27102" lon="-2.30492">
        <ele>68</ele>
        <time>2017-11-09T08:58:39Z</time>
      </trkpt>
      <trkpt lat="47.27128" lon="-2.305">
        <ele>68</ele>
        <time>2017-11-09T08:58:45Z</time>
      </trkpt>
      <trkpt lat="47.27152" lon="-2.30513">
        <ele>66</ele>
        <time>2017-11-09T08:58:50Z</time>
      </trkpt>
      <trkpt lat="47.27175" lon="-2.3053">
        <ele>66</ele>
        <time>2017-11-09T08:58:56Z</time>
      </trkpt>
      <trkpt lat="47.27192" lon="-2.30537">
        <ele>66</ele>
        <time>2017-11-09T08:59:03Z</time>
      </trkpt>
      <trkpt lat="47.27204" lon="-2.3054">
        <ele>65</ele>
        <time>2017-11-09T08:59:08Z</time>
      </trkpt>
      <trkpt lat="47.27235" lon="-2.30542">
        <ele>64</ele>
        <time>2017-11-09T08:59:18Z</time>
      </trkpt>
      <trkpt lat="47.27256" lon="-2.3054">
        <ele>63</ele>
        <time>2017-11-09T08:59:24Z</time>
      </trkpt>
      <trkpt lat="47.27278" lon="-2.30534">
        <ele>63</ele>
        <time>2017-11-09T08:59:30Z</time>
      </trkpt>
      <trkpt lat="47.27297" lon="-2.30524">
        <ele>62</ele>
        <time>2017-11-09T08:59:36Z</time>
      </trkpt>
      <trkpt lat="47.27315" lon="-2.30518">
        <ele>62</ele>
        <time>2017-11-09T08:59:43Z</time>
      </trkpt>
      <trkpt lat="47.27335" lon="-2.30514">
        <ele>63</ele>
        <time>2017-11-09T08:59:51Z</time>
      </trkpt>
      <trkpt lat="47.27348" lon="-2.30508">
        <ele>63</ele>
        <time>2017-11-09T08:59:59Z</time>
      </trkpt>
      <trkpt lat="47.27384" lon="-2.30479">
        <ele>60</ele>
        <time>2017-11-09T09:00:11Z</time>
      </trkpt>
      <trkpt lat="47.27397" lon="-2.30469">
        <ele>59</ele>
        <time>2017-11-09T09:00:17Z</time>
      </trkpt>
      <trkpt lat="47.27406" lon="-2.30463">
        <ele>59</ele>
        <time>2017-11-09T09:00:23Z</time>
      </trkpt>
      <trkpt lat="47.27406" lon="-2.30463">
        <ele>19.8</ele>
        <time>2017-11-09T09:00:29Z</time>
      </trkpt>
      <trkpt lat="47.27406" lon="-2.30463">
        <ele>19.8</ele>
        <time>2017-11-09T09:00:33Z</time>
      </trkpt>
      <trkpt lat="47.27414" lon="-2.3046">
        <ele>59</ele>
        <time>2017-11-09T09:00:33Z</time>
      </trkpt>
      <trkpt lat="47.27414" lon="-2.3046">
        <ele>59</ele>
        <time>2017-11-09T09:00:40Z</time>
      </trkpt>
      <trkpt lat="47.27414" lon="-2.3046">
        <ele>20</ele>
        <time>2017-11-09T09:00:40Z</time>
      </trkpt>
      <trkpt lat="47.27414" lon="-2.3046">
        <ele>20</ele>
        <time>2017-11-09T09:00:53Z</time>
      </trkpt>
      <trkpt lat="47.27433" lon="-2.30448">
        <ele>58</ele>
        <time>2017-11-09T09:00:53Z</time>
      </trkpt>
      <trkpt lat="47.27456" lon="-2.30444">
        <ele>59</ele>
        <time>2017-11-09T09:01:00Z</time>
      </trkpt>
      <trkpt lat="47.27485" lon="-2.30438">
        <ele>61</ele>
        <time>2017-11-09T09:01:06Z</time>
      </trkpt>
      <trkpt lat="47.275" lon="-2.30405">
        <ele>64</ele>
        <time>2017-11-09T09:01:13Z</time>
      </trkpt>
      <trkpt lat="47.27494" lon="-2.30366">
        <ele>63</ele>
        <time>2017-11-09T09:01:19Z</time>
      </trkpt>
      <trkpt lat="47.27488" lon="-2.30333">
        <ele>64</ele>
        <time>2017-11-09T09:01:25Z</time>
      </trkpt>
      <trkpt lat="47.27484" lon="-2.30308">
        <ele>65</ele>
        <time>2017-11-09T09:01:30Z</time>
      </trkpt>
      <trkpt lat="47.27476" lon="-2.30265">
        <ele>66</ele>
        <time>2017-11-09T09:01:37Z</time>
      </trkpt>
      <trkpt lat="47.2747" lon="-2.30234">
        <ele>65</ele>
        <time>2017-11-09T09:01:43Z</time>
      </trkpt>
      <trkpt lat="47.27458" lon="-2.30216">
        <ele>67</ele>
        <time>2017-11-09T09:01:51Z</time>
      </trkpt>
      <trkpt lat="47.27425" lon="-2.30235">
        <ele>68</ele>
        <time>2017-11-09T09:02:00Z</time>
      </trkpt>
      <trkpt lat="47.27401" lon="-2.30248">
        <ele>69</ele>
        <time>2017-11-09T09:02:06Z</time>
      </trkpt>
      <trkpt lat="47.27375" lon="-2.30255">
        <ele>70</ele>
        <time>2017-11-09T09:02:11Z</time>
      </trkpt>
      <trkpt lat="47.27349" lon="-2.30259">
        <ele>70</ele>
        <time>2017-11-09T09:02:17Z</time>
      </trkpt>
      <trkpt lat="47.27321" lon="-2.30261">
        <ele>70</ele>
        <time>2017-11-09T09:02:23Z</time>
      </trkpt>
      <trkpt lat="47.27295" lon="-2.30264">
        <ele>68</ele>
        <time>2017-11-09T09:02:28Z</time>
      </trkpt>
      <trkpt lat="47.27279" lon="-2.30264">
        <ele>68</ele>
        <time>2017-11-09T09:02:31Z</time>
      </trkpt>
      <trkpt lat="47.27247" lon="-2.3027">
        <ele>68</ele>
        <time>2017-11-09T09:02:38Z</time>
      </trkpt>
      <trkpt lat="47.2723" lon="-2.30267">
        <ele>67</ele>
        <time>2017-11-09T09:02:45Z</time>
      </trkpt>
      <trkpt lat="47.27215" lon="-2.30267">
        <ele>66</ele>
        <time>2017-11-09T09:02:50Z</time>
      </trkpt>
      <trkpt lat="47.27195" lon="-2.3027">
        <ele>65</ele>
        <time>2017-11-09T09:02:57Z</time>
      </trkpt>
      <trkpt lat="47.27176" lon="-2.3026">
        <ele>65</ele>
        <time>2017-11-09T09:03:07Z</time>
      </trkpt>
      <trkpt lat="47.27147" lon="-2.30267">
        <ele>64</ele>
        <time>2017-11-09T09:03:12Z</time>
      </trkpt>
      <trkpt lat="47.27118" lon="-2.3028">
        <ele>63</ele>
        <time>2017-11-09T09:03:18Z</time>
      </trkpt>
      <trkpt lat="47.27102" lon="-2.30294">
        <ele>62</ele>
        <time>2017-11-09T09:03:23Z</time>
      </trkpt>
      <trkpt lat="47.27089" lon="-2.30308">
        <ele>61</ele>
        <time>2017-11-09T09:03:29Z</time>
      </trkpt>
      <trkpt lat="47.27081" lon="-2.3031">
        <ele>60</ele>
        <time>2017-11-09T09:03:32Z</time>
      </trkpt>
      <trkpt lat="47.27081" lon="-2.3031">
        <ele>27.1</ele>
        <time>2017-11-09T09:03:37Z</time>
      </trkpt>
      <trkpt lat="47.27081" lon="-2.3031">
        <ele>27.1</ele>
        <time>2017-11-09T09:03:53Z</time>
      </trkpt>
      <trkpt lat="47.27075" lon="-2.30292">
        <ele>64</ele>
        <time>2017-11-09T09:03:53Z</time>
      </trkpt>
      <trkpt lat="47.27094" lon="-2.3026">
        <ele>63</ele>
        <time>2017-11-09T09:04:04Z</time>
      </trkpt>
      <trkpt lat="47.27113" lon="-2.3025">
        <ele>62</ele>
        <time>2017-11-09T09:04:11Z</time>
      </trkpt>
      <trkpt lat="47.27132" lon="-2.30237">
        <ele>61</ele>
        <time>2017-11-09T09:04:18Z</time>
      </trkpt>
      <trkpt lat="47.27148" lon="-2.30211">
        <ele>59</ele>
        <time>2017-11-09T09:04:28Z</time>
      </trkpt>
      <trkpt lat="47.2715" lon="-2.30167">
        <ele>57</ele>
        <time>2017-11-09T09:04:36Z</time>
      </trkpt>
      <trkpt lat="47.27143" lon="-2.30134">
        <ele>54</ele>
        <time>2017-11-09T09:04:44Z</time>
      </trkpt>
      <trkpt lat="47.27117" lon="-2.30114">
        <ele>63</ele>
        <time>2017-11-09T09:04:51Z</time>
      </trkpt>
      <trkpt lat="47.27098" lon="-2.30102">
        <ele>65</ele>
        <time>2017-11-09T09:04:56Z</time>
      </trkpt>
      <trkpt lat="47.27072" lon="-2.30076">
        <ele>66</ele>
        <time>2017-11-09T09:05:03Z</time>
      </trkpt>
      <trkpt lat="47.27049" lon="-2.30066">
        <ele>69</ele>
        <time>2017-11-09T09:05:08Z</time>
      </trkpt>
      <trkpt lat="47.27026" lon="-2.30065">
        <ele>69</ele>
        <time>2017-11-09T09:05:15Z</time>
      </trkpt>
      <trkpt lat="47.27014" lon="-2.30048">
        <ele>69</ele>
        <time>2017-11-09T09:05:27Z</time>
      </trkpt>
      <trkpt lat="47.27016" lon="-2.30041">
        <ele>70</ele>
        <time>2017-11-09T09:05:31Z</time>
      </trkpt>
      <trkpt lat="47.27016" lon="-2.30041">
        <ele>31.7</ele>
        <time>2017-11-09T09:05:39Z</time>
      </trkpt>
      <trkpt lat="47.27016" lon="-2.30041">
        <ele>31.7</ele>
        <time>2017-11-09T09:05:53Z</time>
      </trkpt>
      <trkpt lat="47.27025" lon="-2.30013">
        <ele>71</ele>
        <time>2017-11-09T09:05:53Z</time>
      </trkpt>
      <trkpt lat="47.27044" lon="-2.29972">
        <ele>70</ele>
        <time>2017-11-09T09:06:00Z</time>
      </trkpt>
      <trkpt lat="47.2706" lon="-2.29934">
        <ele>71</ele>
        <time>2017-11-09T09:06:06Z</time>
      </trkpt>
      <trkpt lat="47.27081" lon="-2.29909">
        <ele>71</ele>
        <time>2017-11-09T09:06:11Z</time>
      </trkpt>
      <trkpt lat="47.27098" lon="-2.29877">
        <ele>72</ele>
        <time>2017-11-09T09:06:16Z</time>
      </trkpt>
      <trkpt lat="47.27106" lon="-2.29841">
        <ele>74</ele>
        <time>2017-11-09T09:06:21Z</time>
      </trkpt>
      <trkpt lat="47.27109" lon="-2.29822">
        <ele>75</ele>
        <time>2017-11-09T09:06:24Z</time>
      </trkpt>
      <trkpt lat="47.27112" lon="-2.2978">
        <ele>75</ele>
        <time>2017-11-09T09:06:30Z</time>
      </trkpt>
      <trkpt lat="47.27114" lon="-2.29757">
        <ele>75</ele>
        <time>2017-11-09T09:06:33Z</time>
      </trkpt>
      <trkpt lat="47.27115" lon="-2.29735">
        <ele>75</ele>
        <time>2017-11-09T09:06:36Z</time>
      </trkpt>
      <trkpt lat="47.27117" lon="-2.297">
        <ele>76</ele>
        <time>2017-11-09T09:06:41Z</time>
      </trkpt>
      <trkpt lat="47.27115" lon="-2.29665">
        <ele>76</ele>
        <time>2017-11-09T09:06:47Z</time>
      </trkpt>
      <trkpt lat="47.27122" lon="-2.29644">
        <ele>75</ele>
        <time>2017-11-09T09:06:54Z</time>
      </trkpt>
      <trkpt lat="47.27158" lon="-2.29636">
        <ele>75</ele>
        <time>2017-11-09T09:07:02Z</time>
      </trkpt>
      <trkpt lat="47.27187" lon="-2.29614">
        <ele>75</ele>
        <time>2017-11-09T09:07:08Z</time>
      </trkpt>
      <trkpt lat="47.27213" lon="-2.2959">
        <ele>74</ele>
        <time>2017-11-09T09:07:14Z</time>
      </trkpt>
      <trkpt lat="47.27237" lon="-2.29573">
        <ele>75</ele>
        <time>2017-11-09T09:07:19Z</time>
      </trkpt>
      <trkpt lat="47.27243" lon="-2.29546">
        <ele>75</ele>
        <time>2017-11-09T09:07:23Z</time>
      </trkpt>
      <trkpt lat="47.27243" lon="-2.29517">
        <ele>73</ele>
        <time>2017-11-09T09:07:28Z</time>
      </trkpt>
      <trkpt lat="47.27235" lon="-2.29491">
        <ele>71</ele>
        <time>2017-11-09T09:07:34Z</time>
      </trkpt>
      <trkpt lat="47.27216" lon="-2.29448">
        <ele>71</ele>
        <time>2017-11-09T09:07:41Z</time>
      </trkpt>
      <trkpt lat="47.27207" lon="-2.29422">
        <ele>72</ele>
        <time>2017-11-09T09:07:45Z</time>
      </trkpt>
      <trkpt lat="47.27191" lon="-2.29375">
        <ele>72</ele>
        <time>2017-11-09T09:07:52Z</time>
      </trkpt>
      <trkpt lat="47.27173" lon="-2.29346">
        <ele>71</ele>
        <time>2017-11-09T09:07:57Z</time>
      </trkpt>
      <trkpt lat="47.27162" lon="-2.29331">
        <ele>70</ele>
        <time>2017-11-09T09:08:00Z</time>
      </trkpt>
      <trkpt lat="47.27158" lon="-2.29297">
        <ele>70</ele>
        <time>2017-11-09T09:08:06Z</time>
      </trkpt>
      <trkpt lat="47.27171" lon="-2.29259">
        <ele>70</ele>
        <time>2017-11-09T09:08:11Z</time>
      </trkpt>
      <trkpt lat="47.27174" lon="-2.29237">
        <ele>70</ele>
        <time>2017-11-09T09:08:14Z</time>
      </trkpt>
      <trkpt lat="47.27166" lon="-2.29218">
        <ele>70</ele>
        <time>2017-11-09T09:08:17Z</time>
      </trkpt>
      <trkpt lat="47.27151" lon="-2.29187">
        <ele>70</ele>
        <time>2017-11-09T09:08:22Z</time>
      </trkpt>
      <trkpt lat="47.27147" lon="-2.29176">
        <ele>70</ele>
        <time>2017-11-09T09:08:26Z</time>
      </trkpt>
      <trkpt lat="47.27147" lon="-2.29176">
        <ele>29</ele>
        <time>2017-11-09T09:08:31Z</time>
      </trkpt>
      <trkpt lat="47.27147" lon="-2.29176">
        <ele>29</ele>
        <time>2017-11-09T09:09:59Z</time>
      </trkpt>
      <trkpt lat="47.27127" lon="-2.29174">
        <ele>69</ele>
        <time>2017-11-09T09:09:59Z</time>
      </trkpt>
      <trkpt lat="47.27123" lon="-2.29157">
        <ele>67</ele>
        <time>2017-11-09T09:10:05Z</time>
      </trkpt>
      <trkpt lat="47.27132" lon="-2.29136">
        <ele>66</ele>
        <time>2017-11-09T09:10:11Z</time>
      </trkpt>
      <trkpt lat="47.27141" lon="-2.29115">
        <ele>66</ele>
        <time>2017-11-09T09:10:16Z</time>
      </trkpt>
      <trkpt lat="47.27154" lon="-2.29105">
        <ele>65</ele>
        <time>2017-11-09T09:10:21Z</time>
      </trkpt>
      <trkpt lat="47.27178" lon="-2.29111">
        <ele>65</ele>
        <time>2017-11-09T09:10:27Z</time>
      </trkpt>
      <trkpt lat="47.27208" lon="-2.29091">
        <ele>68</ele>
        <time>2017-11-09T09:10:32Z</time>
      </trkpt>
      <trkpt lat="47.27237" lon="-2.29061">
        <ele>68</ele>
        <time>2017-11-09T09:10:38Z</time>
      </trkpt>
      <trkpt lat="47.27258" lon="-2.29032">
        <ele>68</ele>
        <time>2017-11-09T09:10:44Z</time>
      </trkpt>
      <trkpt lat="47.27278" lon="-2.28986">
        <ele>67</ele>
        <time>2017-11-09T09:10:51Z</time>
      </trkpt>
      <trkpt lat="47.27296" lon="-2.28956">
        <ele>67</ele>
        <time>2017-11-09T09:10:58Z</time>
      </trkpt>
      <trkpt lat="47.27328" lon="-2.28948">
        <ele>67</ele>
        <time>2017-11-09T09:11:05Z</time>
      </trkpt>
      <trkpt lat="47.27338" lon="-2.28925">
        <ele>68</ele>
        <time>2017-11-09T09:11:10Z</time>
      </trkpt>
      <trkpt lat="47.27347" lon="-2.28886">
        <ele>69</ele>
        <time>2017-11-09T09:11:15Z</time>
      </trkpt>
      <trkpt lat="47.27352" lon="-2.28863">
        <ele>69</ele>
        <time>2017-11-09T09:11:18Z</time>
      </trkpt>
      <trkpt lat="47.27361" lon="-2.28842">
        <ele>71</ele>
        <time>2017-11-09T09:11:21Z</time>
      </trkpt>
      <trkpt lat="47.27372" lon="-2.28804">
        <ele>69</ele>
        <time>2017-11-09T09:11:27Z</time>
      </trkpt>
      <trkpt lat="47.27385" lon="-2.28774">
        <ele>70</ele>
        <time>2017-11-09T09:11:32Z</time>
      </trkpt>
      <trkpt lat="47.274" lon="-2.28736">
        <ele>71</ele>
        <time>2017-11-09T09:11:38Z</time>
      </trkpt>
      <trkpt lat="47.27413" lon="-2.28706">
        <ele>70</ele>
        <time>2017-11-09T09:11:43Z</time>
      </trkpt>
      <trkpt lat="47.27435" lon="-2.2867">
        <ele>70</ele>
        <time>2017-11-09T09:11:49Z</time>
      </trkpt>
      <trkpt lat="47.27444" lon="-2.2865">
        <ele>69</ele>
        <time>2017-11-09T09:11:52Z</time>
      </trkpt>
      <trkpt lat="47.2746" lon="-2.28618">
        <ele>69</ele>
        <time>2017-11-09T09:11:57Z</time>
      </trkpt>
      <trkpt lat="47.27477" lon="-2.28609">
        <ele>70</ele>
        <time>2017-11-09T09:12:02Z</time>
      </trkpt>
      <trkpt lat="47.27495" lon="-2.28645">
        <ele>70</ele>
        <time>2017-11-09T09:12:08Z</time>
      </trkpt>
      <trkpt lat="47.27513" lon="-2.28682">
        <ele>69</ele>
        <time>2017-11-09T09:12:14Z</time>
      </trkpt>
      <trkpt lat="47.2754" lon="-2.28705">
        <ele>68</ele>
        <time>2017-11-09T09:12:20Z</time>
      </trkpt>
      <trkpt lat="47.27564" lon="-2.28718">
        <ele>69</ele>
        <time>2017-11-09T09:12:25Z</time>
      </trkpt>
      <trkpt lat="47.27585" lon="-2.28732">
        <ele>67</ele>
        <time>2017-11-09T09:12:29Z</time>
      </trkpt>
      <trkpt lat="47.27612" lon="-2.28741">
        <ele>67</ele>
        <time>2017-11-09T09:12:34Z</time>
      </trkpt>
      <trkpt lat="47.27639" lon="-2.2875">
        <ele>66</ele>
        <time>2017-11-09T09:12:40Z</time>
      </trkpt>
      <trkpt lat="47.27658" lon="-2.28761">
        <ele>65</ele>
        <time>2017-11-09T09:12:45Z</time>
      </trkpt>
      <trkpt lat="47.27674" lon="-2.28798">
        <ele>63</ele>
        <time>2017-11-09T09:12:50Z</time>
      </trkpt>
      <trkpt lat="47.27704" lon="-2.2881">
        <ele>60</ele>
        <time>2017-11-09T09:12:57Z</time>
      </trkpt>
      <trkpt lat="47.27738" lon="-2.28798">
        <ele>59</ele>
        <time>2017-11-09T09:13:03Z</time>
      </trkpt>
      <trkpt lat="47.27775" lon="-2.28796">
        <ele>59</ele>
        <time>2017-11-09T09:13:08Z</time>
      </trkpt>
      <trkpt lat="47.27813" lon="-2.28799">
        <ele>57</ele>
        <time>2017-11-09T09:13:14Z</time>
      </trkpt>
      <trkpt lat="47.27838" lon="-2.28815">
        <ele>56</ele>
        <time>2017-11-09T09:13:20Z</time>
      </trkpt>
      <trkpt lat="47.27856" lon="-2.28801">
        <ele>58</ele>
        <time>2017-11-09T09:13:26Z</time>
      </trkpt>
      <trkpt lat="47.27875" lon="-2.28774">
        <ele>63</ele>
        <time>2017-11-09T09:13:32Z</time>
      </trkpt>
      <trkpt lat="47.27909" lon="-2.28762">
        <ele>63</ele>
        <time>2017-11-09T09:13:38Z</time>
      </trkpt>
      <trkpt lat="47.27938" lon="-2.28752">
        <ele>65</ele>
        <time>2017-11-09T09:13:43Z</time>
      </trkpt>
      <trkpt lat="47.27963" lon="-2.28745">
        <ele>66</ele>
        <time>2017-11-09T09:13:48Z</time>
      </trkpt>
      <trkpt lat="47.27995" lon="-2.28747">
        <ele>66</ele>
        <time>2017-11-09T09:13:54Z</time>
      </trkpt>
      <trkpt lat="47.28022" lon="-2.28751">
        <ele>67</ele>
        <time>2017-11-09T09:13:59Z</time>
      </trkpt>
      <trkpt lat="47.28054" lon="-2.28756">
        <ele>67</ele>
        <time>2017-11-09T09:14:05Z</time>
      </trkpt>
      <trkpt lat="47.28088" lon="-2.28766">
        <ele>67</ele>
        <time>2017-11-09T09:14:11Z</time>
      </trkpt>
      <trkpt lat="47.28122" lon="-2.28782">
        <ele>65</ele>
        <time>2017-11-09T09:14:18Z</time>
      </trkpt>
      <trkpt lat="47.28143" lon="-2.28804">
        <ele>67</ele>
        <time>2017-11-09T09:14:23Z</time>
      </trkpt>
      <trkpt lat="47.28163" lon="-2.28828">
        <ele>69</ele>
        <time>2017-11-09T09:14:28Z</time>
      </trkpt>
      <trkpt lat="47.28185" lon="-2.28847">
        <ele>70</ele>
        <time>2017-11-09T09:14:33Z</time>
      </trkpt>
      <trkpt lat="47.28214" lon="-2.28868">
        <ele>71</ele>
        <time>2017-11-09T09:14:39Z</time>
      </trkpt>
      <trkpt lat="47.28233" lon="-2.28833">
        <ele>73</ele>
        <time>2017-11-09T09:14:45Z</time>
      </trkpt>
      <trkpt lat="47.28238" lon="-2.28809">
        <ele>73</ele>
        <time>2017-11-09T09:14:48Z</time>
      </trkpt>
      <trkpt lat="47.28243" lon="-2.28784">
        <ele>74</ele>
        <time>2017-11-09T09:14:51Z</time>
      </trkpt>
      <trkpt lat="47.28248" lon="-2.28759">
        <ele>74</ele>
        <time>2017-11-09T09:14:54Z</time>
      </trkpt>
      <trkpt lat="47.28257" lon="-2.28704">
        <ele>75</ele>
        <time>2017-11-09T09:15:00Z</time>
      </trkpt>
      <trkpt lat="47.28264" lon="-2.2866">
        <ele>74</ele>
        <time>2017-11-09T09:15:05Z</time>
      </trkpt>
      <trkpt lat="47.28275" lon="-2.28605">
        <ele>75</ele>
        <time>2017-11-09T09:15:11Z</time>
      </trkpt>
      <trkpt lat="47.28285" lon="-2.28558">
        <ele>75</ele>
        <time>2017-11-09T09:15:16Z</time>
      </trkpt>
      <trkpt lat="47.28294" lon="-2.28507">
        <ele>77</ele>
        <time>2017-11-09T09:15:22Z</time>
      </trkpt>
      <trkpt lat="47.28299" lon="-2.28465">
        <ele>77</ele>
        <time>2017-11-09T09:15:27Z</time>
      </trkpt>
      <trkpt lat="47.28304" lon="-2.28441">
        <ele>77</ele>
        <time>2017-11-09T09:15:30Z</time>
      </trkpt>
      <trkpt lat="47.28312" lon="-2.28418">
        <ele>77</ele>
        <time>2017-11-09T09:15:33Z</time>
      </trkpt>
      <trkpt lat="47.28319" lon="-2.28394">
        <ele>77</ele>
        <time>2017-11-09T09:15:36Z</time>
      </trkpt>
      <trkpt lat="47.28323" lon="-2.28361">
        <ele>78</ele>
        <time>2017-11-09T09:15:40Z</time>
      </trkpt>
      <trkpt lat="47.28326" lon="-2.28324">
        <ele>78</ele>
        <time>2017-11-09T09:15:45Z</time>
      </trkpt>
      <trkpt lat="47.28324" lon="-2.28299">
        <ele>76</ele>
        <time>2017-11-09T09:15:49Z</time>
      </trkpt>
      <trkpt lat="47.28325" lon="-2.28253">
        <ele>74</ele>
        <time>2017-11-09T09:15:55Z</time>
      </trkpt>
      <trkpt lat="47.28326" lon="-2.28197">
        <ele>72</ele>
        <time>2017-11-09T09:16:01Z</time>
      </trkpt>
      <trkpt lat="47.28326" lon="-2.28147">
        <ele>71</ele>
        <time>2017-11-09T09:16:06Z</time>
      </trkpt>
      <trkpt lat="47.28326" lon="-2.28092">
        <ele>70</ele>
        <time>2017-11-09T09:16:13Z</time>
      </trkpt>
      <trkpt lat="47.28339" lon="-2.28102">
        <ele>69</ele>
        <time>2017-11-09T09:16:24Z</time>
      </trkpt>
      <trkpt lat="47.28365" lon="-2.28077">
        <ele>69</ele>
        <time>2017-11-09T09:16:35Z</time>
      </trkpt>
      <trkpt lat="47.2839" lon="-2.2807">
        <ele>68</ele>
        <time>2017-11-09T09:17:29Z</time>
      </trkpt>
      <trkpt lat="47.28408" lon="-2.28075">
        <ele>67</ele>
        <time>2017-11-09T09:17:36Z</time>
      </trkpt>
      <trkpt lat="47.28413" lon="-2.28078">
        <ele>67</ele>
        <time>2017-11-09T09:17:39Z</time>
      </trkpt>
      <trkpt lat="47.28413" lon="-2.28078">
        <ele>25.3</ele>
        <time>2017-11-09T09:17:46Z</time>
      </trkpt>
      <trkpt lat="47.28413" lon="-2.28078">
        <ele>25.3</ele>
        <time>2017-11-09T09:17:51Z</time>
      </trkpt>
      <trkpt lat="47.28423" lon="-2.28084">
        <ele>67</ele>
        <time>2017-11-09T09:17:51Z</time>
      </trkpt>
      <trkpt lat="47.28444" lon="-2.28084">
        <ele>67</ele>
        <time>2017-11-09T09:18:00Z</time>
      </trkpt>
      <trkpt lat="47.28459" lon="-2.28089">
        <ele>66</ele>
        <time>2017-11-09T09:18:07Z</time>
      </trkpt>
      <trkpt lat="47.28477" lon="-2.28082">
        <ele>65</ele>
        <time>2017-11-09T09:18:14Z</time>
      </trkpt>
      <trkpt lat="47.28478" lon="-2.28062">
        <ele>64</ele>
        <time>2017-11-09T09:18:22Z</time>
      </trkpt>
      <trkpt lat="47.28495" lon="-2.28038">
        <ele>65</ele>
        <time>2017-11-09T09:18:33Z</time>
      </trkpt>
      <trkpt lat="47.28521" lon="-2.28047">
        <ele>66</ele>
        <time>2017-11-09T09:18:41Z</time>
      </trkpt>
      <trkpt lat="47.28542" lon="-2.28049">
        <ele>63</ele>
        <time>2017-11-09T09:18:48Z</time>
      </trkpt>
      <trkpt lat="47.28557" lon="-2.28048">
        <ele>62</ele>
        <time>2017-11-09T09:18:53Z</time>
      </trkpt>
      <trkpt lat="47.28577" lon="-2.28034">
        <ele>60</ele>
        <time>2017-11-09T09:19:01Z</time>
      </trkpt>
      <trkpt lat="47.28591" lon="-2.28013">
        <ele>59</ele>
        <time>2017-11-09T09:19:06Z</time>
      </trkpt>
      <trkpt lat="47.28608" lon="-2.27977">
        <ele>59</ele>
        <time>2017-11-09T09:19:11Z</time>
      </trkpt>
      <trkpt lat="47.28618" lon="-2.27955">
        <ele>58</ele>
        <time>2017-11-09T09:19:16Z</time>
      </trkpt>
      <trkpt lat="47.28628" lon="-2.27919">
        <ele>60</ele>
        <time>2017-11-09T09:19:49Z</time>
      </trkpt>
      <trkpt lat="47.28632" lon="-2.27893">
        <ele>60</ele>
        <time>2017-11-09T09:19:54Z</time>
      </trkpt>
      <trkpt lat="47.28641" lon="-2.27843">
        <ele>61</ele>
        <time>2017-11-09T09:20:00Z</time>
      </trkpt>
      <trkpt lat="47.28651" lon="-2.27795">
        <ele>61</ele>
        <time>2017-11-09T09:20:06Z</time>
      </trkpt>
      <trkpt lat="47.28658" lon="-2.2777">
        <ele>61</ele>
        <time>2017-11-09T09:20:09Z</time>
      </trkpt>
      <trkpt lat="47.28679" lon="-2.27725">
        <ele>59</ele>
        <time>2017-11-09T09:20:15Z</time>
      </trkpt>
      <trkpt lat="47.28698" lon="-2.27691">
        <ele>59</ele>
        <time>2017-11-09T09:20:19Z</time>
      </trkpt>
      <trkpt lat="47.28725" lon="-2.27643">
        <ele>59</ele>
        <time>2017-11-09T09:20:26Z</time>
      </trkpt>
      <trkpt lat="47.28746" lon="-2.2761">
        <ele>60</ele>
        <time>2017-11-09T09:20:31Z</time>
      </trkpt>
      <trkpt lat="47.28773" lon="-2.27576">
        <ele>60</ele>
        <time>2017-11-09T09:20:37Z</time>
      </trkpt>
      <trkpt lat="47.28797" lon="-2.27543">
        <ele>61</ele>
        <time>2017-11-09T09:20:42Z</time>
      </trkpt>
      <trkpt lat="47.28827" lon="-2.27529">
        <ele>60</ele>
        <time>2017-11-09T09:20:48Z</time>
      </trkpt>
      <trkpt lat="47.28865" lon="-2.27526">
        <ele>59</ele>
        <time>2017-11-09T09:20:54Z</time>
      </trkpt>
      <trkpt lat="47.28898" lon="-2.2752">
        <ele>60</ele>
        <time>2017-11-09T09:20:59Z</time>
      </trkpt>
      <trkpt lat="47.28932" lon="-2.27517">
        <ele>58</ele>
        <time>2017-11-09T09:21:04Z</time>
      </trkpt>
      <trkpt lat="47.28966" lon="-2.27517">
        <ele>59</ele>
        <time>2017-11-09T09:21:09Z</time>
      </trkpt>
      <trkpt lat="47.29004" lon="-2.27517">
        <ele>58</ele>
        <time>2017-11-09T09:21:15Z</time>
      </trkpt>
      <trkpt lat="47.29036" lon="-2.27519">
        <ele>60</ele>
        <time>2017-11-09T09:21:21Z</time>
      </trkpt>
      <trkpt lat="47.29075" lon="-2.27524">
        <ele>60</ele>
        <time>2017-11-09T09:21:26Z</time>
      </trkpt>
      <trkpt lat="47.29101" lon="-2.27528">
        <ele>59</ele>
        <time>2017-11-09T09:21:30Z</time>
      </trkpt>
      <trkpt lat="47.29132" lon="-2.27529">
        <ele>59</ele>
        <time>2017-11-09T09:21:36Z</time>
      </trkpt>
      <trkpt lat="47.2917" lon="-2.27528">
        <ele>59</ele>
        <time>2017-11-09T09:21:42Z</time>
      </trkpt>
      <trkpt lat="47.29203" lon="-2.27529">
        <ele>60</ele>
        <time>2017-11-09T09:21:48Z</time>
      </trkpt>
      <trkpt lat="47.29218" lon="-2.2753">
        <ele>60</ele>
        <time>2017-11-09T09:21:51Z</time>
      </trkpt>
      <trkpt lat="47.2924" lon="-2.2753">
        <ele>60</ele>
        <time>2017-11-09T09:21:56Z</time>
      </trkpt>
      <trkpt lat="47.29259" lon="-2.27524">
        <ele>61</ele>
        <time>2017-11-09T09:22:01Z</time>
      </trkpt>
      <trkpt lat="47.29286" lon="-2.27521">
        <ele>61</ele>
        <time>2017-11-09T09:22:08Z</time>
      </trkpt>
      <trkpt lat="47.29323" lon="-2.27535">
        <ele>61</ele>
        <time>2017-11-09T09:22:15Z</time>
      </trkpt>
      <trkpt lat="47.29351" lon="-2.27532">
        <ele>61</ele>
        <time>2017-11-09T09:22:20Z</time>
      </trkpt>
      <trkpt lat="47.29385" lon="-2.27522">
        <ele>60</ele>
        <time>2017-11-09T09:22:26Z</time>
      </trkpt>
      <trkpt lat="47.29422" lon="-2.27513">
        <ele>60</ele>
        <time>2017-11-09T09:22:32Z</time>
      </trkpt>
      <trkpt lat="47.29456" lon="-2.27515">
        <ele>61</ele>
        <time>2017-11-09T09:22:37Z</time>
      </trkpt>
      <trkpt lat="47.29487" lon="-2.27522">
        <ele>60</ele>
        <time>2017-11-09T09:22:42Z</time>
      </trkpt>
      <trkpt lat="47.29521" lon="-2.27532">
        <ele>60</ele>
        <time>2017-11-09T09:22:48Z</time>
      </trkpt>
      <trkpt lat="47.29551" lon="-2.27545">
        <ele>59</ele>
        <time>2017-11-09T09:22:53Z</time>
      </trkpt>
      <trkpt lat="47.29594" lon="-2.27567">
        <ele>59</ele>
        <time>2017-11-09T09:22:59Z</time>
      </trkpt>
      <trkpt lat="47.29625" lon="-2.27584">
        <ele>58</ele>
        <time>2017-11-09T09:23:04Z</time>
      </trkpt>
      <trkpt lat="47.2967" lon="-2.27613">
        <ele>58</ele>
        <time>2017-11-09T09:23:11Z</time>
      </trkpt>
      <trkpt lat="47.29706" lon="-2.27619">
        <ele>55</ele>
        <time>2017-11-09T09:23:16Z</time>
      </trkpt>
      <trkpt lat="47.29726" lon="-2.27614">
        <ele>54</ele>
        <time>2017-11-09T09:23:19Z</time>
      </trkpt>
      <trkpt lat="47.29763" lon="-2.27599">
        <ele>54</ele>
        <time>2017-11-09T09:23:25Z</time>
      </trkpt>
      <trkpt lat="47.29795" lon="-2.27592">
        <ele>55</ele>
        <time>2017-11-09T09:23:31Z</time>
      </trkpt>
      <trkpt lat="47.29812" lon="-2.27598">
        <ele>54</ele>
        <time>2017-11-09T09:23:34Z</time>
      </trkpt>
      <trkpt lat="47.29828" lon="-2.27609">
        <ele>53</ele>
        <time>2017-11-09T09:23:37Z</time>
      </trkpt>
      <trkpt lat="47.29848" lon="-2.2762">
        <ele>53</ele>
        <time>2017-11-09T09:23:41Z</time>
      </trkpt>
      <trkpt lat="47.29865" lon="-2.27621">
        <ele>53</ele>
        <time>2017-11-09T09:23:44Z</time>
      </trkpt>
      <trkpt lat="47.29899" lon="-2.27606">
        <ele>53</ele>
        <time>2017-11-09T09:23:50Z</time>
      </trkpt>
      <trkpt lat="47.2993" lon="-2.27595">
        <ele>53</ele>
        <time>2017-11-09T09:23:55Z</time>
      </trkpt>
      <trkpt lat="47.29962" lon="-2.27612">
        <ele>52</ele>
        <time>2017-11-09T09:24:02Z</time>
      </trkpt>
      <trkpt lat="47.29959" lon="-2.2766">
        <ele>52</ele>
        <time>2017-11-09T09:24:09Z</time>
      </trkpt>
      <trkpt lat="47.29955" lon="-2.27698">
        <ele>52</ele>
        <time>2017-11-09T09:24:14Z</time>
      </trkpt>
      <trkpt lat="47.29953" lon="-2.27721">
        <ele>52</ele>
        <time>2017-11-09T09:24:17Z</time>
      </trkpt>
      <trkpt lat="47.2995" lon="-2.27761">
        <ele>52</ele>
        <time>2017-11-09T09:24:22Z</time>
      </trkpt>
      <trkpt lat="47.29947" lon="-2.2781">
        <ele>53</ele>
        <time>2017-11-09T09:24:28Z</time>
      </trkpt>
      <trkpt lat="47.29941" lon="-2.27862">
        <ele>53</ele>
        <time>2017-11-09T09:24:35Z</time>
      </trkpt>
      <trkpt lat="47.29937" lon="-2.27901">
        <ele>53</ele>
        <time>2017-11-09T09:24:40Z</time>
      </trkpt>
      <trkpt lat="47.29935" lon="-2.2794">
        <ele>54</ele>
        <time>2017-11-09T09:24:45Z</time>
      </trkpt>
      <trkpt lat="47.29932" lon="-2.27979">
        <ele>53</ele>
        <time>2017-11-09T09:24:50Z</time>
      </trkpt>
      <trkpt lat="47.29942" lon="-2.28029">
        <ele>53</ele>
        <time>2017-11-09T09:24:56Z</time>
      </trkpt>
      <trkpt lat="47.29974" lon="-2.2804">
        <ele>53</ele>
        <time>2017-11-09T09:25:03Z</time>
      </trkpt>
      <trkpt lat="47.30006" lon="-2.28026">
        <ele>54</ele>
        <time>2017-11-09T09:25:09Z</time>
      </trkpt>
      <trkpt lat="47.30044" lon="-2.28">
        <ele>54</ele>
        <time>2017-11-09T09:25:15Z</time>
      </trkpt>
      <trkpt lat="47.30076" lon="-2.27977">
        <ele>53</ele>
        <time>2017-11-09T09:25:20Z</time>
      </trkpt>
      <trkpt lat="47.30112" lon="-2.27945">
        <ele>53</ele>
        <time>2017-11-09T09:25:26Z</time>
      </trkpt>
      <trkpt lat="47.30146" lon="-2.27924">
        <ele>54</ele>
        <time>2017-11-09T09:25:31Z</time>
      </trkpt>
      <trkpt lat="47.30181" lon="-2.27917">
        <ele>53</ele>
        <time>2017-11-09T09:25:37Z</time>
      </trkpt>
      <trkpt lat="47.30223" lon="-2.27914">
        <ele>52</ele>
        <time>2017-11-09T09:25:43Z</time>
      </trkpt>
      <trkpt lat="47.30257" lon="-2.27912">
        <ele>51</ele>
        <time>2017-11-09T09:25:48Z</time>
      </trkpt>
      <trkpt lat="47.30277" lon="-2.27911">
        <ele>51</ele>
        <time>2017-11-09T09:25:51Z</time>
      </trkpt>
      <trkpt lat="47.30318" lon="-2.27905">
        <ele>49</ele>
        <time>2017-11-09T09:25:57Z</time>
      </trkpt>
      <trkpt lat="47.30347" lon="-2.27898">
        <ele>50</ele>
        <time>2017-11-09T09:26:02Z</time>
      </trkpt>
      <trkpt lat="47.30376" lon="-2.27892">
        <ele>49</ele>
        <time>2017-11-09T09:26:06Z</time>
      </trkpt>
      <trkpt lat="47.30409" lon="-2.27894">
        <ele>48</ele>
        <time>2017-11-09T09:26:12Z</time>
      </trkpt>
      <trkpt lat="47.30436" lon="-2.27895">
        <ele>48</ele>
        <time>2017-11-09T09:26:18Z</time>
      </trkpt>
      <trkpt lat="47.30467" lon="-2.27913">
        <ele>48</ele>
        <time>2017-11-09T09:26:23Z</time>
      </trkpt>
      <trkpt lat="47.30498" lon="-2.27923">
        <ele>49</ele>
        <time>2017-11-09T09:26:28Z</time>
      </trkpt>
      <trkpt lat="47.30515" lon="-2.27927">
        <ele>47</ele>
        <time>2017-11-09T09:26:32Z</time>
      </trkpt>
      <trkpt lat="47.30525" lon="-2.27955">
        <ele>47</ele>
        <time>2017-11-09T09:26:37Z</time>
      </trkpt>
      <trkpt lat="47.30536" lon="-2.27993">
        <ele>46</ele>
        <time>2017-11-09T09:26:42Z</time>
      </trkpt>
      <trkpt lat="47.30563" lon="-2.2803">
        <ele>46</ele>
        <time>2017-11-09T09:26:48Z</time>
      </trkpt>
      <trkpt lat="47.30597" lon="-2.28043">
        <ele>45</ele>
        <time>2017-11-09T09:26:54Z</time>
      </trkpt>
      <trkpt lat="47.30629" lon="-2.28067">
        <ele>44</ele>
        <time>2017-11-09T09:26:59Z</time>
      </trkpt>
      <trkpt lat="47.30656" lon="-2.28097">
        <ele>44</ele>
        <time>2017-11-09T09:27:04Z</time>
      </trkpt>
      <trkpt lat="47.30685" lon="-2.28127">
        <ele>44</ele>
        <time>2017-11-09T09:27:10Z</time>
      </trkpt>
      <trkpt lat="47.30714" lon="-2.28161">
        <ele>44</ele>
        <time>2017-11-09T09:27:16Z</time>
      </trkpt>
      <trkpt lat="47.30741" lon="-2.28202">
        <ele>44</ele>
        <time>2017-11-09T09:27:22Z</time>
      </trkpt>
      <trkpt lat="47.30765" lon="-2.28234">
        <ele>44</ele>
        <time>2017-11-09T09:27:27Z</time>
      </trkpt>
      <trkpt lat="47.30799" lon="-2.28256">
        <ele>44</ele>
        <time>2017-11-09T09:27:33Z</time>
      </trkpt>
      <trkpt lat="47.30825" lon="-2.28253">
        <ele>44</ele>
        <time>2017-11-09T09:27:38Z</time>
      </trkpt>
      <trkpt lat="47.30858" lon="-2.28234">
        <ele>44</ele>
        <time>2017-11-09T09:27:44Z</time>
      </trkpt>
      <trkpt lat="47.30884" lon="-2.28205">
        <ele>44</ele>
        <time>2017-11-09T09:27:49Z</time>
      </trkpt>
      <trkpt lat="47.30908" lon="-2.28171">
        <ele>46</ele>
        <time>2017-11-09T09:27:54Z</time>
      </trkpt>
      <trkpt lat="47.30921" lon="-2.28151">
        <ele>45</ele>
        <time>2017-11-09T09:27:57Z</time>
      </trkpt>
      <trkpt lat="47.30953" lon="-2.28104">
        <ele>45</ele>
        <time>2017-11-09T09:28:04Z</time>
      </trkpt>
      <trkpt lat="47.30977" lon="-2.28079">
        <ele>45</ele>
        <time>2017-11-09T09:28:09Z</time>
      </trkpt>
      <trkpt lat="47.30998" lon="-2.28063">
        <ele>44</ele>
        <time>2017-11-09T09:28:13Z</time>
      </trkpt>
      <trkpt lat="47.31019" lon="-2.28046">
        <ele>44</ele>
        <time>2017-11-09T09:28:17Z</time>
      </trkpt>
      <trkpt lat="47.31049" lon="-2.28014">
        <ele>44</ele>
        <time>2017-11-09T09:28:23Z</time>
      </trkpt>
      <trkpt lat="47.31071" lon="-2.2798">
        <ele>44</ele>
        <time>2017-11-09T09:28:28Z</time>
      </trkpt>
      <trkpt lat="47.31094" lon="-2.2794">
        <ele>44</ele>
        <time>2017-11-09T09:28:34Z</time>
      </trkpt>
      <trkpt lat="47.31112" lon="-2.27905">
        <ele>43</ele>
        <time>2017-11-09T09:28:39Z</time>
      </trkpt>
      <trkpt lat="47.3114" lon="-2.27864">
        <ele>43</ele>
        <time>2017-11-09T09:28:45Z</time>
      </trkpt>
      <trkpt lat="47.31148" lon="-2.27816">
        <ele>42</ele>
        <time>2017-11-09T09:28:50Z</time>
      </trkpt>
      <trkpt lat="47.31143" lon="-2.27777">
        <ele>43</ele>
        <time>2017-11-09T09:28:55Z</time>
      </trkpt>
      <trkpt lat="47.31138" lon="-2.27755">
        <ele>42</ele>
        <time>2017-11-09T09:28:59Z</time>
      </trkpt>
      <trkpt lat="47.31152" lon="-2.27741">
        <ele>42</ele>
        <time>2017-11-09T09:29:05Z</time>
      </trkpt>
      <trkpt lat="47.31187" lon="-2.27726">
        <ele>42</ele>
        <time>2017-11-09T09:29:11Z</time>
      </trkpt>
      <trkpt lat="47.31208" lon="-2.27731">
        <ele>42</ele>
        <time>2017-11-09T09:29:15Z</time>
      </trkpt>
      <trkpt lat="47.31226" lon="-2.27765">
        <ele>42</ele>
        <time>2017-11-09T09:29:21Z</time>
      </trkpt>
      <trkpt lat="47.31256" lon="-2.27773">
        <ele>41</ele>
        <time>2017-11-09T09:29:26Z</time>
      </trkpt>
      <trkpt lat="47.31287" lon="-2.2777">
        <ele>41</ele>
        <time>2017-11-09T09:29:31Z</time>
      </trkpt>
      <trkpt lat="47.31321" lon="-2.27766">
        <ele>40</ele>
        <time>2017-11-09T09:29:37Z</time>
      </trkpt>
      <trkpt lat="47.31354" lon="-2.27761">
        <ele>41</ele>
        <time>2017-11-09T09:29:42Z</time>
      </trkpt>
      <trkpt lat="47.31384" lon="-2.27751">
        <ele>41</ele>
        <time>2017-11-09T09:29:47Z</time>
      </trkpt>
      <trkpt lat="47.31426" lon="-2.27731">
        <ele>42</ele>
        <time>2017-11-09T09:29:54Z</time>
      </trkpt>
      <trkpt lat="47.31453" lon="-2.2771">
        <ele>43</ele>
        <time>2017-11-09T09:29:59Z</time>
      </trkpt>
      <trkpt lat="47.31483" lon="-2.27676">
        <ele>46</ele>
        <time>2017-11-09T09:30:05Z</time>
      </trkpt>
      <trkpt lat="47.31501" lon="-2.27639">
        <ele>46</ele>
        <time>2017-11-09T09:30:10Z</time>
      </trkpt>
      <trkpt lat="47.315" lon="-2.27586">
        <ele>45</ele>
        <time>2017-11-09T09:30:16Z</time>
      </trkpt>
      <trkpt lat="47.31482" lon="-2.27543">
        <ele>45</ele>
        <time>2017-11-09T09:30:21Z</time>
      </trkpt>
      <trkpt lat="47.31465" lon="-2.27501">
        <ele>44</ele>
        <time>2017-11-09T09:30:26Z</time>
      </trkpt>
      <trkpt lat="47.31453" lon="-2.27456">
        <ele>43</ele>
        <time>2017-11-09T09:30:31Z</time>
      </trkpt>
      <trkpt lat="47.31425" lon="-2.27425">
        <ele>43</ele>
        <time>2017-11-09T09:30:37Z</time>
      </trkpt>
      <trkpt lat="47.31399" lon="-2.27401">
        <ele>42</ele>
        <time>2017-11-09T09:30:42Z</time>
      </trkpt>
      <trkpt lat="47.31363" lon="-2.27354">
        <ele>41</ele>
        <time>2017-11-09T09:30:49Z</time>
      </trkpt>
      <trkpt lat="47.3133" lon="-2.27309">
        <ele>42</ele>
        <time>2017-11-09T09:30:56Z</time>
      </trkpt>
      <trkpt lat="47.31308" lon="-2.27272">
        <ele>43</ele>
        <time>2017-11-09T09:31:02Z</time>
      </trkpt>
      <trkpt lat="47.31296" lon="-2.27224">
        <ele>45</ele>
        <time>2017-11-09T09:31:08Z</time>
      </trkpt>
      <trkpt lat="47.31287" lon="-2.2718">
        <ele>47</ele>
        <time>2017-11-09T09:31:13Z</time>
      </trkpt>
      <trkpt lat="47.31282" lon="-2.27154">
        <ele>47</ele>
        <time>2017-11-09T09:31:16Z</time>
      </trkpt>
      <trkpt lat="47.31273" lon="-2.27119">
        <ele>48</ele>
        <time>2017-11-09T09:31:22Z</time>
      </trkpt>
      <trkpt lat="47.31269" lon="-2.27114">
        <ele>48</ele>
        <time>2017-11-09T09:31:27Z</time>
      </trkpt>
      <trkpt lat="47.31269" lon="-2.27114">
        <ele>7</ele>
        <time>2017-11-09T09:31:32Z</time>
      </trkpt>
      <trkpt lat="47.31269" lon="-2.27114">
        <ele>7</ele>
        <time>2017-11-09T09:31:39Z</time>
      </trkpt>
      <trkpt lat="47.31271" lon="-2.27108">
        <ele>49</ele>
        <time>2017-11-09T09:31:39Z</time>
      </trkpt>
      <trkpt lat="47.31335" lon="-2.27072">
        <ele>50</ele>
        <time>2017-11-09T09:31:56Z</time>
      </trkpt>
      <trkpt lat="47.31363" lon="-2.27063">
        <ele>50</ele>
        <time>2017-11-09T09:32:01Z</time>
      </trkpt>
      <trkpt lat="47.3138" lon="-2.27056">
        <ele>50</ele>
        <time>2017-11-09T09:32:04Z</time>
      </trkpt>
      <trkpt lat="47.31404" lon="-2.27043">
        <ele>50</ele>
        <time>2017-11-09T09:32:08Z</time>
      </trkpt>
      <trkpt lat="47.31434" lon="-2.2702">
        <ele>51</ele>
        <time>2017-11-09T09:32:13Z</time>
      </trkpt>
      <trkpt lat="47.31463" lon="-2.26998">
        <ele>51</ele>
        <time>2017-11-09T09:32:18Z</time>
      </trkpt>
      <trkpt lat="47.3149" lon="-2.26977">
        <ele>51</ele>
        <time>2017-11-09T09:32:25Z</time>
      </trkpt>
      <trkpt lat="47.31506" lon="-2.26938">
        <ele>51</ele>
        <time>2017-11-09T09:32:31Z</time>
      </trkpt>
      <trkpt lat="47.31519" lon="-2.26897">
        <ele>49</ele>
        <time>2017-11-09T09:32:36Z</time>
      </trkpt>
      <trkpt lat="47.31532" lon="-2.26851">
        <ele>48</ele>
        <time>2017-11-09T09:32:43Z</time>
      </trkpt>
      <trkpt lat="47.31545" lon="-2.26815">
        <ele>47</ele>
        <time>2017-11-09T09:32:48Z</time>
      </trkpt>
      <trkpt lat="47.31555" lon="-2.26792">
        <ele>47</ele>
        <time>2017-11-09T09:32:51Z</time>
      </trkpt>
      <trkpt lat="47.31572" lon="-2.26758">
        <ele>46</ele>
        <time>2017-11-09T09:32:57Z</time>
      </trkpt>
      <trkpt lat="47.31597" lon="-2.26757">
        <ele>45</ele>
        <time>2017-11-09T09:33:02Z</time>
      </trkpt>
      <trkpt lat="47.3163" lon="-2.26749">
        <ele>47</ele>
        <time>2017-11-09T09:33:09Z</time>
      </trkpt>
      <trkpt lat="47.31648" lon="-2.26733">
        <ele>48</ele>
        <time>2017-11-09T09:33:14Z</time>
      </trkpt>
      <trkpt lat="47.31672" lon="-2.26726">
        <ele>48</ele>
        <time>2017-11-09T09:33:19Z</time>
      </trkpt>
      <trkpt lat="47.31695" lon="-2.26722">
        <ele>48</ele>
        <time>2017-11-09T09:33:25Z</time>
      </trkpt>
      <trkpt lat="47.3172" lon="-2.2672">
        <ele>48</ele>
        <time>2017-11-09T09:33:31Z</time>
      </trkpt>
      <trkpt lat="47.3175" lon="-2.26712">
        <ele>48</ele>
        <time>2017-11-09T09:33:37Z</time>
      </trkpt>
      <trkpt lat="47.31773" lon="-2.26704">
        <ele>49</ele>
        <time>2017-11-09T09:33:42Z</time>
      </trkpt>
      <trkpt lat="47.31804" lon="-2.26696">
        <ele>51</ele>
        <time>2017-11-09T09:33:49Z</time>
      </trkpt>
      <trkpt lat="47.31824" lon="-2.26726">
        <ele>50</ele>
        <time>2017-11-09T09:33:56Z</time>
      </trkpt>
      <trkpt lat="47.31846" lon="-2.26739">
        <ele>51</ele>
        <time>2017-11-09T09:34:01Z</time>
      </trkpt>
      <trkpt lat="47.31866" lon="-2.26728">
        <ele>52</ele>
        <time>2017-11-09T09:34:06Z</time>
      </trkpt>
      <trkpt lat="47.31893" lon="-2.26706">
        <ele>52</ele>
        <time>2017-11-09T09:34:12Z</time>
      </trkpt>
      <trkpt lat="47.31906" lon="-2.26693">
        <ele>52</ele>
        <time>2017-11-09T09:34:15Z</time>
      </trkpt>
      <trkpt lat="47.31934" lon="-2.26668">
        <ele>52</ele>
        <time>2017-11-09T09:34:21Z</time>
      </trkpt>
      <trkpt lat="47.31973" lon="-2.26641">
        <ele>52</ele>
        <time>2017-11-09T09:34:27Z</time>
      </trkpt>
      <trkpt lat="47.31994" lon="-2.26625">
        <ele>52</ele>
        <time>2017-11-09T09:34:30Z</time>
      </trkpt>
      <trkpt lat="47.32018" lon="-2.26613">
        <ele>52</ele>
        <time>2017-11-09T09:34:33Z</time>
      </trkpt>
      <trkpt lat="47.32051" lon="-2.26594">
        <ele>54</ele>
        <time>2017-11-09T09:34:38Z</time>
      </trkpt>
      <trkpt lat="47.32082" lon="-2.26583">
        <ele>53</ele>
        <time>2017-11-09T09:34:44Z</time>
      </trkpt>
      <trkpt lat="47.32111" lon="-2.26585">
        <ele>50</ele>
        <time>2017-11-09T09:34:49Z</time>
      </trkpt>
      <trkpt lat="47.32129" lon="-2.26591">
        <ele>49</ele>
        <time>2017-11-09T09:34:52Z</time>
      </trkpt>
      <trkpt lat="47.32163" lon="-2.26604">
        <ele>50</ele>
        <time>2017-11-09T09:34:58Z</time>
      </trkpt>
      <trkpt lat="47.32205" lon="-2.26607">
        <ele>49</ele>
        <time>2017-11-09T09:35:05Z</time>
      </trkpt>
      <trkpt lat="47.32247" lon="-2.26606">
        <ele>48</ele>
        <time>2017-11-09T09:35:11Z</time>
      </trkpt>
      <trkpt lat="47.32289" lon="-2.26595">
        <ele>48</ele>
        <time>2017-11-09T09:35:17Z</time>
      </trkpt>
      <trkpt lat="47.32324" lon="-2.26558">
        <ele>49</ele>
        <time>2017-11-09T09:35:23Z</time>
      </trkpt>
      <trkpt lat="47.32359" lon="-2.26531">
        <ele>49</ele>
        <time>2017-11-09T09:35:29Z</time>
      </trkpt>
      <trkpt lat="47.32391" lon="-2.26524">
        <ele>49</ele>
        <time>2017-11-09T09:35:34Z</time>
      </trkpt>
      <trkpt lat="47.32423" lon="-2.26515">
        <ele>48</ele>
        <time>2017-11-09T09:35:39Z</time>
      </trkpt>
      <trkpt lat="47.32467" lon="-2.26498">
        <ele>48</ele>
        <time>2017-11-09T09:35:46Z</time>
      </trkpt>
      <trkpt lat="47.325" lon="-2.26483">
        <ele>48</ele>
        <time>2017-11-09T09:35:51Z</time>
      </trkpt>
      <trkpt lat="47.32532" lon="-2.26469">
        <ele>48</ele>
        <time>2017-11-09T09:35:56Z</time>
      </trkpt>
      <trkpt lat="47.32561" lon="-2.26454">
        <ele>47</ele>
        <time>2017-11-09T09:36:01Z</time>
      </trkpt>
      <trkpt lat="47.32595" lon="-2.26441">
        <ele>47</ele>
        <time>2017-11-09T09:36:07Z</time>
      </trkpt>
      <trkpt lat="47.32617" lon="-2.26437">
        <ele>47</ele>
        <time>2017-11-09T09:36:14Z</time>
      </trkpt>
      <trkpt lat="47.32617" lon="-2.26437">
        <ele>47</ele>
        <time>2017-11-09T09:36:21Z</time>
      </trkpt>
      <trkpt lat="47.32617" lon="-2.26437">
        <ele>1.8</ele>
        <time>2017-11-09T09:36:21Z</time>
      </trkpt>
      <trkpt lat="47.32617" lon="-2.26437">
        <ele>1.8</ele>
        <time>2017-11-09T09:36:41Z</time>
      </trkpt>
      <trkpt lat="47.32634" lon="-2.26437">
        <ele>48</ele>
        <time>2017-11-09T09:36:41Z</time>
      </trkpt>
      <trkpt lat="47.32623" lon="-2.26455">
        <ele>47</ele>
        <time>2017-11-09T09:36:51Z</time>
      </trkpt>
      <trkpt lat="47.32613" lon="-2.26477">
        <ele>46</ele>
        <time>2017-11-09T09:36:59Z</time>
      </trkpt>
      <trkpt lat="47.32596" lon="-2.26522">
        <ele>45</ele>
        <time>2017-11-09T09:37:09Z</time>
      </trkpt>
      <trkpt lat="47.32584" lon="-2.26551">
        <ele>44</ele>
        <time>2017-11-09T09:37:16Z</time>
      </trkpt>
      <trkpt lat="47.32574" lon="-2.26579">
        <ele>42</ele>
        <time>2017-11-09T09:37:23Z</time>
      </trkpt>
      <trkpt lat="47.32557" lon="-2.26623">
        <ele>43</ele>
        <time>2017-11-09T09:37:30Z</time>
      </trkpt>
      <trkpt lat="47.32545" lon="-2.26665">
        <ele>45</ele>
        <time>2017-11-09T09:37:36Z</time>
      </trkpt>
      <trkpt lat="47.32535" lon="-2.26702">
        <ele>45</ele>
        <time>2017-11-09T09:37:42Z</time>
      </trkpt>
      <trkpt lat="47.32528" lon="-2.26738">
        <ele>45</ele>
        <time>2017-11-09T09:37:48Z</time>
      </trkpt>
      <trkpt lat="47.32523" lon="-2.26763">
        <ele>45</ele>
        <time>2017-11-09T09:37:54Z</time>
      </trkpt>
      <trkpt lat="47.3252" lon="-2.26791">
        <ele>45</ele>
        <time>2017-11-09T09:38:02Z</time>
      </trkpt>
      <trkpt lat="47.3252" lon="-2.26812">
        <ele>44</ele>
        <time>2017-11-09T09:38:07Z</time>
      </trkpt>
      <trkpt lat="47.32521" lon="-2.26829">
        <ele>44</ele>
        <time>2017-11-09T09:38:10Z</time>
      </trkpt>
      <trkpt lat="47.32526" lon="-2.26858">
        <ele>45</ele>
        <time>2017-11-09T09:38:16Z</time>
      </trkpt>
      <trkpt lat="47.32531" lon="-2.26882">
        <ele>45</ele>
        <time>2017-11-09T09:38:22Z</time>
      </trkpt>
      <trkpt lat="47.32547" lon="-2.26922">
        <ele>46</ele>
        <time>2017-11-09T09:38:30Z</time>
      </trkpt>
      <trkpt lat="47.32557" lon="-2.26943">
        <ele>46</ele>
        <time>2017-11-09T09:38:35Z</time>
      </trkpt>
      <trkpt lat="47.32574" lon="-2.2698">
        <ele>47</ele>
        <time>2017-11-09T09:38:42Z</time>
      </trkpt>
      <trkpt lat="47.32593" lon="-2.27009">
        <ele>46</ele>
        <time>2017-11-09T09:38:48Z</time>
      </trkpt>
      <trkpt lat="47.32608" lon="-2.27031">
        <ele>46</ele>
        <time>2017-11-09T09:38:53Z</time>
      </trkpt>
      <trkpt lat="47.32619" lon="-2.27048">
        <ele>46</ele>
        <time>2017-11-09T09:38:58Z</time>
      </trkpt>
      <trkpt lat="47.32619" lon="-2.27073">
        <ele>45</ele>
        <time>2017-11-09T09:39:06Z</time>
      </trkpt>
      <trkpt lat="47.32608" lon="-2.27102">
        <ele>44</ele>
        <time>2017-11-09T09:39:16Z</time>
      </trkpt>
      <trkpt lat="47.32601" lon="-2.27136">
        <ele>43</ele>
        <time>2017-11-09T09:39:29Z</time>
      </trkpt>
      <trkpt lat="47.32601" lon="-2.27158">
        <ele>43</ele>
        <time>2017-11-09T09:39:34Z</time>
      </trkpt>
      <trkpt lat="47.32606" lon="-2.27185">
        <ele>43</ele>
        <time>2017-11-09T09:39:40Z</time>
      </trkpt>
      <trkpt lat="47.32606" lon="-2.27211">
        <ele>43</ele>
        <time>2017-11-09T09:39:47Z</time>
      </trkpt>
      <trkpt lat="47.32602" lon="-2.27228">
        <ele>42</ele>
        <time>2017-11-09T09:39:53Z</time>
      </trkpt>
      <trkpt lat="47.326" lon="-2.27267">
        <ele>42</ele>
        <time>2017-11-09T09:40:03Z</time>
      </trkpt>
      <trkpt lat="47.32596" lon="-2.27292">
        <ele>41</ele>
        <time>2017-11-09T09:40:09Z</time>
      </trkpt>
      <trkpt lat="47.32593" lon="-2.2732">
        <ele>40</ele>
        <time>2017-11-09T09:40:16Z</time>
      </trkpt>
      <trkpt lat="47.32592" lon="-2.27358">
        <ele>39</ele>
        <time>2017-11-09T09:40:24Z</time>
      </trkpt>
      <trkpt lat="47.3259" lon="-2.27377">
        <ele>39</ele>
        <time>2017-11-09T09:40:27Z</time>
      </trkpt>
      <trkpt lat="47.32589" lon="-2.27419">
        <ele>39</ele>
        <time>2017-11-09T09:40:34Z</time>
      </trkpt>
      <trkpt lat="47.32585" lon="-2.27451">
        <ele>40</ele>
        <time>2017-11-09T09:40:39Z</time>
      </trkpt>
      <trkpt lat="47.3258" lon="-2.27475">
        <ele>41</ele>
        <time>2017-11-09T09:40:43Z</time>
      </trkpt>
      <trkpt lat="47.32566" lon="-2.27505">
        <ele>42</ele>
        <time>2017-11-09T09:40:48Z</time>
      </trkpt>
      <trkpt lat="47.32542" lon="-2.27532">
        <ele>42</ele>
        <time>2017-11-09T09:40:54Z</time>
      </trkpt>
      <trkpt lat="47.32521" lon="-2.27551">
        <ele>42</ele>
        <time>2017-11-09T09:40:59Z</time>
      </trkpt>
      <trkpt lat="47.32501" lon="-2.27568">
        <ele>44</ele>
        <time>2017-11-09T09:41:04Z</time>
      </trkpt>
      <trkpt lat="47.32471" lon="-2.27575">
        <ele>43</ele>
        <time>2017-11-09T09:41:11Z</time>
      </trkpt>
      <trkpt lat="47.32445" lon="-2.27562">
        <ele>42</ele>
        <time>2017-11-09T09:41:17Z</time>
      </trkpt>
      <trkpt lat="47.32423" lon="-2.2755">
        <ele>42</ele>
        <time>2017-11-09T09:41:22Z</time>
      </trkpt>
      <trkpt lat="47.32406" lon="-2.27567">
        <ele>42</ele>
        <time>2017-11-09T09:41:29Z</time>
      </trkpt>
      <trkpt lat="47.32409" lon="-2.27582">
        <ele>42</ele>
        <time>2017-11-09T09:41:35Z</time>
      </trkpt>
      <trkpt lat="47.32409" lon="-2.27582">
        <ele>1.3</ele>
        <time>2017-11-09T09:41:40Z</time>
      </trkpt>
      <trkpt lat="47.32409" lon="-2.27582">
        <ele>1.3</ele>
        <time>2017-11-09T09:43:15Z</time>
      </trkpt>
      <trkpt lat="47.32416" lon="-2.27607">
        <ele>47</ele>
        <time>2017-11-09T09:43:15Z</time>
      </trkpt>
      <trkpt lat="47.32432" lon="-2.27652">
        <ele>46</ele>
        <time>2017-11-09T09:43:28Z</time>
      </trkpt>
      <trkpt lat="47.32436" lon="-2.27693">
        <ele>46</ele>
        <time>2017-11-09T09:43:35Z</time>
      </trkpt>
      <trkpt lat="47.32435" lon="-2.27722">
        <ele>46</ele>
        <time>2017-11-09T09:43:40Z</time>
      </trkpt>
      <trkpt lat="47.32435" lon="-2.27742">
        <ele>46</ele>
        <time>2017-11-09T09:43:43Z</time>
      </trkpt>
      <trkpt lat="47.32444" lon="-2.27769">
        <ele>46</ele>
        <time>2017-11-09T09:43:49Z</time>
      </trkpt>
      <trkpt lat="47.32466" lon="-2.27758">
        <ele>46</ele>
        <time>2017-11-09T09:43:57Z</time>
      </trkpt>
      <trkpt lat="47.32484" lon="-2.27763">
        <ele>46</ele>
        <time>2017-11-09T09:44:02Z</time>
      </trkpt>
      <trkpt lat="47.32501" lon="-2.27785">
        <ele>46</ele>
        <time>2017-11-09T09:44:07Z</time>
      </trkpt>
      <trkpt lat="47.32512" lon="-2.27801">
        <ele>45</ele>
        <time>2017-11-09T09:44:10Z</time>
      </trkpt>
      <trkpt lat="47.32531" lon="-2.27837">
        <ele>45</ele>
        <time>2017-11-09T09:44:16Z</time>
      </trkpt>
      <trkpt lat="47.32543" lon="-2.27873">
        <ele>46</ele>
        <time>2017-11-09T09:44:22Z</time>
      </trkpt>
      <trkpt lat="47.3255" lon="-2.27903">
        <ele>46</ele>
        <time>2017-11-09T09:44:27Z</time>
      </trkpt>
      <trkpt lat="47.32553" lon="-2.27933">
        <ele>46</ele>
        <time>2017-11-09T09:44:32Z</time>
      </trkpt>
      <trkpt lat="47.32561" lon="-2.27959">
        <ele>46</ele>
        <time>2017-11-09T09:44:37Z</time>
      </trkpt>
      <trkpt lat="47.32566" lon="-2.2798">
        <ele>46</ele>
        <time>2017-11-09T09:44:41Z</time>
      </trkpt>
      <trkpt lat="47.32572" lon="-2.2802">
        <ele>47</ele>
        <time>2017-11-09T09:44:48Z</time>
      </trkpt>
      <trkpt lat="47.32579" lon="-2.28053">
        <ele>46</ele>
        <time>2017-11-09T09:44:54Z</time>
      </trkpt>
      <trkpt lat="47.32587" lon="-2.28091">
        <ele>46</ele>
        <time>2017-11-09T09:45:01Z</time>
      </trkpt>
      <trkpt lat="47.32593" lon="-2.28119">
        <ele>46</ele>
        <time>2017-11-09T09:45:06Z</time>
      </trkpt>
      <trkpt lat="47.32597" lon="-2.28135">
        <ele>46</ele>
        <time>2017-11-09T09:45:09Z</time>
      </trkpt>
      <trkpt lat="47.32604" lon="-2.28162">
        <ele>46</ele>
        <time>2017-11-09T09:45:14Z</time>
      </trkpt>
      <trkpt lat="47.32609" lon="-2.28189">
        <ele>46</ele>
        <time>2017-11-09T09:45:19Z</time>
      </trkpt>
      <trkpt lat="47.32616" lon="-2.28223">
        <ele>46</ele>
        <time>2017-11-09T09:45:25Z</time>
      </trkpt>
      <trkpt lat="47.32622" lon="-2.28247">
        <ele>46</ele>
        <time>2017-11-09T09:45:30Z</time>
      </trkpt>
      <trkpt lat="47.32636" lon="-2.28264">
        <ele>46</ele>
        <time>2017-11-09T09:45:37Z</time>
      </trkpt>
      <trkpt lat="47.32644" lon="-2.28245">
        <ele>45</ele>
        <time>2017-11-09T09:45:43Z</time>
      </trkpt>
      <trkpt lat="47.32652" lon="-2.28236">
        <ele>46</ele>
        <time>2017-11-09T09:45:51Z</time>
      </trkpt>
      <trkpt lat="47.32695" lon="-2.28284">
        <ele>44</ele>
        <time>2017-11-09T09:46:10Z</time>
      </trkpt>
      <trkpt lat="47.32699" lon="-2.2829">
        <ele>45</ele>
        <time>2017-11-09T09:46:13Z</time>
      </trkpt>
      <trkpt lat="47.32699" lon="-2.2829">
        <ele>3</ele>
        <time>2017-11-09T09:46:18Z</time>
      </trkpt>
      <trkpt lat="47.32699" lon="-2.2829">
        <ele>3</ele>
        <time>2017-11-09T09:47:16Z</time>
      </trkpt>
      <trkpt lat="47.32706" lon="-2.28324">
        <ele>46</ele>
        <time>2017-11-09T09:47:16Z</time>
      </trkpt>
      <trkpt lat="47.32709" lon="-2.28351">
        <ele>47</ele>
        <time>2017-11-09T09:47:21Z</time>
      </trkpt>
      <trkpt lat="47.32713" lon="-2.28395">
        <ele>49</ele>
        <time>2017-11-09T09:47:28Z</time>
      </trkpt>
      <trkpt lat="47.32717" lon="-2.28425">
        <ele>48</ele>
        <time>2017-11-09T09:47:33Z</time>
      </trkpt>
      <trkpt lat="47.32719" lon="-2.28455">
        <ele>49</ele>
        <time>2017-11-09T09:47:38Z</time>
      </trkpt>
      <trkpt lat="47.32721" lon="-2.28484">
        <ele>49</ele>
        <time>2017-11-09T09:47:43Z</time>
      </trkpt>
      <trkpt lat="47.32726" lon="-2.28528">
        <ele>49</ele>
        <time>2017-11-09T09:47:50Z</time>
      </trkpt>
      <trkpt lat="47.32735" lon="-2.28579">
        <ele>47</ele>
        <time>2017-11-09T09:47:57Z</time>
      </trkpt>
      <trkpt lat="47.32755" lon="-2.2862">
        <ele>47</ele>
        <time>2017-11-09T09:48:03Z</time>
      </trkpt>
      <trkpt lat="47.32772" lon="-2.28653">
        <ele>48</ele>
        <time>2017-11-09T09:48:08Z</time>
      </trkpt>
      <trkpt lat="47.32781" lon="-2.28673">
        <ele>48</ele>
        <time>2017-11-09T09:48:11Z</time>
      </trkpt>
      <trkpt lat="47.32788" lon="-2.28695">
        <ele>49</ele>
        <time>2017-11-09T09:48:14Z</time>
      </trkpt>
      <trkpt lat="47.32791" lon="-2.28719">
        <ele>49</ele>
        <time>2017-11-09T09:48:17Z</time>
      </trkpt>
      <trkpt lat="47.32794" lon="-2.28744">
        <ele>49</ele>
        <time>2017-11-09T09:48:20Z</time>
      </trkpt>
      <trkpt lat="47.32799" lon="-2.28796">
        <ele>50</ele>
        <time>2017-11-09T09:48:26Z</time>
      </trkpt>
      <trkpt lat="47.3279" lon="-2.28847">
        <ele>50</ele>
        <time>2017-11-09T09:48:32Z</time>
      </trkpt>
      <trkpt lat="47.32778" lon="-2.28888">
        <ele>51</ele>
        <time>2017-11-09T09:48:37Z</time>
      </trkpt>
      <trkpt lat="47.32769" lon="-2.2894">
        <ele>51</ele>
        <time>2017-11-09T09:48:43Z</time>
      </trkpt>
      <trkpt lat="47.32767" lon="-2.28968">
        <ele>51</ele>
        <time>2017-11-09T09:48:46Z</time>
      </trkpt>
      <trkpt lat="47.3277" lon="-2.29007">
        <ele>51</ele>
        <time>2017-11-09T09:48:52Z</time>
      </trkpt>
      <trkpt lat="47.32789" lon="-2.28994">
        <ele>52</ele>
        <time>2017-11-09T09:48:57Z</time>
      </trkpt>
      <trkpt lat="47.3282" lon="-2.28969">
        <ele>51</ele>
        <time>2017-11-09T09:49:04Z</time>
      </trkpt>
      <trkpt lat="47.32845" lon="-2.28947">
        <ele>51</ele>
        <time>2017-11-09T09:49:10Z</time>
      </trkpt>
      <trkpt lat="47.32876" lon="-2.28931">
        <ele>51</ele>
        <time>2017-11-09T09:49:17Z</time>
      </trkpt>
      <trkpt lat="47.32902" lon="-2.28933">
        <ele>50</ele>
        <time>2017-11-09T09:49:23Z</time>
      </trkpt>
      <trkpt lat="47.32927" lon="-2.28919">
        <ele>50</ele>
        <time>2017-11-09T09:49:29Z</time>
      </trkpt>
      <trkpt lat="47.32956" lon="-2.289">
        <ele>51</ele>
        <time>2017-11-09T09:49:34Z</time>
      </trkpt>
      <trkpt lat="47.32987" lon="-2.28875">
        <ele>52</ele>
        <time>2017-11-09T09:49:40Z</time>
      </trkpt>
      <trkpt lat="47.33008" lon="-2.28861">
        <ele>52</ele>
        <time>2017-11-09T09:49:44Z</time>
      </trkpt>
      <trkpt lat="47.3303" lon="-2.28842">
        <ele>53</ele>
        <time>2017-11-09T09:49:49Z</time>
      </trkpt>
      <trkpt lat="47.33059" lon="-2.28825">
        <ele>54</ele>
        <time>2017-11-09T09:49:55Z</time>
      </trkpt>
      <trkpt lat="47.33093" lon="-2.28812">
        <ele>55</ele>
        <time>2017-11-09T09:50:02Z</time>
      </trkpt>
      <trkpt lat="47.33106" lon="-2.28835">
        <ele>55</ele>
        <time>2017-11-09T09:50:07Z</time>
      </trkpt>
      <trkpt lat="47.3312" lon="-2.28874">
        <ele>56</ele>
        <time>2017-11-09T09:50:14Z</time>
      </trkpt>
      <trkpt lat="47.33122" lon="-2.28912">
        <ele>55</ele>
        <time>2017-11-09T09:50:19Z</time>
      </trkpt>
      <trkpt lat="47.33114" lon="-2.28957">
        <ele>56</ele>
        <time>2017-11-09T09:50:25Z</time>
      </trkpt>
      <trkpt lat="47.33103" lon="-2.29004">
        <ele>55</ele>
        <time>2017-11-09T09:50:31Z</time>
      </trkpt>
      <trkpt lat="47.33092" lon="-2.29049">
        <ele>55</ele>
        <time>2017-11-09T09:50:37Z</time>
      </trkpt>
      <trkpt lat="47.33116" lon="-2.29061">
        <ele>56</ele>
        <time>2017-11-09T09:50:43Z</time>
      </trkpt>
      <trkpt lat="47.33136" lon="-2.29054">
        <ele>56</ele>
        <time>2017-11-09T09:50:47Z</time>
      </trkpt>
      <trkpt lat="47.33159" lon="-2.29052">
        <ele>56</ele>
        <time>2017-11-09T09:50:54Z</time>
      </trkpt>
      <trkpt lat="47.33172" lon="-2.29054">
        <ele>57</ele>
        <time>2017-11-09T09:51:02Z</time>
      </trkpt>
      <trkpt lat="47.33188" lon="-2.29058">
        <ele>56</ele>
        <time>2017-11-09T09:51:09Z</time>
      </trkpt>
      <trkpt lat="47.33214" lon="-2.29064">
        <ele>55</ele>
        <time>2017-11-09T09:51:18Z</time>
      </trkpt>
      <trkpt lat="47.33236" lon="-2.2905">
        <ele>54</ele>
        <time>2017-11-09T09:51:26Z</time>
      </trkpt>
      <trkpt lat="47.33239" lon="-2.29005">
        <ele>54</ele>
        <time>2017-11-09T09:51:33Z</time>
      </trkpt>
      <trkpt lat="47.33248" lon="-2.28958">
        <ele>54</ele>
        <time>2017-11-09T09:51:40Z</time>
      </trkpt>
      <trkpt lat="47.33267" lon="-2.28935">
        <ele>54</ele>
        <time>2017-11-09T09:51:45Z</time>
      </trkpt>
      <trkpt lat="47.33288" lon="-2.2892">
        <ele>54</ele>
        <time>2017-11-09T09:51:49Z</time>
      </trkpt>
      <trkpt lat="47.33322" lon="-2.28902">
        <ele>52</ele>
        <time>2017-11-09T09:51:54Z</time>
      </trkpt>
      <trkpt lat="47.33363" lon="-2.28882">
        <ele>52</ele>
        <time>2017-11-09T09:52:00Z</time>
      </trkpt>
      <trkpt lat="47.33395" lon="-2.28869">
        <ele>52</ele>
        <time>2017-11-09T09:52:05Z</time>
      </trkpt>
      <trkpt lat="47.33423" lon="-2.28847">
        <ele>52</ele>
        <time>2017-11-09T09:52:10Z</time>
      </trkpt>
      <trkpt lat="47.33451" lon="-2.28808">
        <ele>52</ele>
        <time>2017-11-09T09:52:16Z</time>
      </trkpt>
      <trkpt lat="47.33471" lon="-2.28767">
        <ele>52</ele>
        <time>2017-11-09T09:52:21Z</time>
      </trkpt>
      <trkpt lat="47.33487" lon="-2.28727">
        <ele>52</ele>
        <time>2017-11-09T09:52:26Z</time>
      </trkpt>
      <trkpt lat="47.33507" lon="-2.28694">
        <ele>51</ele>
        <time>2017-11-09T09:52:31Z</time>
      </trkpt>
      <trkpt lat="47.33548" lon="-2.2867">
        <ele>50</ele>
        <time>2017-11-09T09:52:37Z</time>
      </trkpt>
      <trkpt lat="47.33589" lon="-2.28653">
        <ele>50</ele>
        <time>2017-11-09T09:52:43Z</time>
      </trkpt>
      <trkpt lat="47.33634" lon="-2.28634">
        <ele>56</ele>
        <time>2017-11-09T09:52:49Z</time>
      </trkpt>
      <trkpt lat="47.33665" lon="-2.28603">
        <ele>56</ele>
        <time>2017-11-09T09:52:54Z</time>
      </trkpt>
      <trkpt lat="47.33698" lon="-2.28557">
        <ele>55</ele>
        <time>2017-11-09T09:53:00Z</time>
      </trkpt>
      <trkpt lat="47.33728" lon="-2.28529">
        <ele>53</ele>
        <time>2017-11-09T09:53:06Z</time>
      </trkpt>
      <trkpt lat="47.33743" lon="-2.28516">
        <ele>51</ele>
        <time>2017-11-09T09:53:09Z</time>
      </trkpt>
      <trkpt lat="47.33758" lon="-2.28502">
        <ele>51</ele>
        <time>2017-11-09T09:53:12Z</time>
      </trkpt>
      <trkpt lat="47.33779" lon="-2.28489">
        <ele>51</ele>
        <time>2017-11-09T09:53:16Z</time>
      </trkpt>
      <trkpt lat="47.33809" lon="-2.2847">
        <ele>52</ele>
        <time>2017-11-09T09:53:22Z</time>
      </trkpt>
      <trkpt lat="47.33837" lon="-2.28457">
        <ele>51</ele>
        <time>2017-11-09T09:53:28Z</time>
      </trkpt>
      <trkpt lat="47.33858" lon="-2.28474">
        <ele>49</ele>
        <time>2017-11-09T09:53:34Z</time>
      </trkpt>
      <trkpt lat="47.33875" lon="-2.28502">
        <ele>47</ele>
        <time>2017-11-09T09:53:40Z</time>
      </trkpt>
      <trkpt lat="47.33903" lon="-2.28539">
        <ele>45</ele>
        <time>2017-11-09T09:53:46Z</time>
      </trkpt>
      <trkpt lat="47.33938" lon="-2.28585">
        <ele>46</ele>
        <time>2017-11-09T09:53:54Z</time>
      </trkpt>
      <trkpt lat="47.33957" lon="-2.28608">
        <ele>46</ele>
        <time>2017-11-09T09:53:59Z</time>
      </trkpt>
      <trkpt lat="47.33975" lon="-2.28631">
        <ele>46</ele>
        <time>2017-11-09T09:54:06Z</time>
      </trkpt>
      <trkpt lat="47.33986" lon="-2.28647">
        <ele>44</ele>
        <time>2017-11-09T09:54:13Z</time>
      </trkpt>
      <trkpt lat="47.33997" lon="-2.28644">
        <ele>46</ele>
        <time>2017-11-09T09:54:19Z</time>
      </trkpt>
      <trkpt lat="47.33997" lon="-2.28644">
        <ele>1.3</ele>
        <time>2017-11-09T09:54:27Z</time>
      </trkpt>
      <trkpt lat="47.33997" lon="-2.28644">
        <ele>1.3</ele>
        <time>2017-11-09T09:54:35Z</time>
      </trkpt>
      <trkpt lat="47.34001" lon="-2.28633">
        <ele>71</ele>
        <time>2017-11-09T09:54:35Z</time>
      </trkpt>
      <trkpt lat="47.34001" lon="-2.28633">
        <ele>71</ele>
        <time>2017-11-09T09:54:43Z</time>
      </trkpt>
      <trkpt lat="47.34001" lon="-2.28633">
        <ele>1</ele>
        <time>2017-11-09T09:54:43Z</time>
      </trkpt>
      <trkpt lat="47.34001" lon="-2.28633">
        <ele>1</ele>
        <time>2017-11-09T09:54:56Z</time>
      </trkpt>
      <trkpt lat="47.34005" lon="-2.28669">
        <ele>61</ele>
        <time>2017-11-09T09:55:03Z</time>
      </trkpt>
      <trkpt lat="47.34005" lon="-2.28669">
        <ele>61</ele>
        <time>2017-11-09T09:55:08Z</time>
      </trkpt>
      <trkpt lat="47.34005" lon="-2.28669">
        <ele>1.8</ele>
        <time>2017-11-09T09:55:09Z</time>
      </trkpt>
      <trkpt lat="47.34005" lon="-2.28669">
        <ele>1.8</ele>
        <time>2017-11-09T09:55:20Z</time>
      </trkpt>
      <trkpt lat="47.34004" lon="-2.28643">
        <ele>60</ele>
        <time>2017-11-09T09:55:20Z</time>
      </trkpt>
      <trkpt lat="47.34002" lon="-2.28635">
        <ele>60</ele>
        <time>2017-11-09T09:55:24Z</time>
      </trkpt>
      <trkpt lat="47.34002" lon="-2.28635">
        <ele>1</ele>
        <time>2017-11-09T09:55:30Z</time>
      </trkpt>
      <trkpt lat="47.34002" lon="-2.28635">
        <ele>1</ele>
        <time>2017-11-09T10:07:08Z</time>
      </trkpt>
      <trkpt lat="47.33989" lon="-2.28657">
        <ele>45</ele>
        <time>2017-11-09T10:07:08Z</time>
      </trkpt>
      <trkpt lat="47.33996" lon="-2.28699">
        <ele>45</ele>
        <time>2017-11-09T10:07:25Z</time>
      </trkpt>
      <trkpt lat="47.34011" lon="-2.28704">
        <ele>46</ele>
        <time>2017-11-09T10:07:34Z</time>
      </trkpt>
      <trkpt lat="47.34026" lon="-2.2871">
        <ele>45</ele>
        <time>2017-11-09T10:07:41Z</time>
      </trkpt>
      <trkpt lat="47.34045" lon="-2.28719">
        <ele>45</ele>
        <time>2017-11-09T10:07:52Z</time>
      </trkpt>
      <trkpt lat="47.3407" lon="-2.28726">
        <ele>46</ele>
        <time>2017-11-09T10:08:04Z</time>
      </trkpt>
      <trkpt lat="47.34093" lon="-2.28733">
        <ele>46</ele>
        <time>2017-11-09T10:08:13Z</time>
      </trkpt>
      <trkpt lat="47.34107" lon="-2.28712">
        <ele>46</ele>
        <time>2017-11-09T10:08:20Z</time>
      </trkpt>
      <trkpt lat="47.3413" lon="-2.28692">
        <ele>48</ele>
        <time>2017-11-09T10:08:28Z</time>
      </trkpt>
      <trkpt lat="47.34142" lon="-2.2869">
        <ele>47</ele>
        <time>2017-11-09T10:08:33Z</time>
      </trkpt>
      <trkpt lat="47.34168" lon="-2.28708">
        <ele>47</ele>
        <time>2017-11-09T10:08:41Z</time>
      </trkpt>
      <trkpt lat="47.34173" lon="-2.28738">
        <ele>46</ele>
        <time>2017-11-09T10:08:47Z</time>
      </trkpt>
      <trkpt lat="47.34178" lon="-2.28778">
        <ele>47</ele>
        <time>2017-11-09T10:08:52Z</time>
      </trkpt>
      <trkpt lat="47.34177" lon="-2.28808">
        <ele>48</ele>
        <time>2017-11-09T10:08:57Z</time>
      </trkpt>
      <trkpt lat="47.34179" lon="-2.28838">
        <ele>48</ele>
        <time>2017-11-09T10:09:02Z</time>
      </trkpt>
      <trkpt lat="47.34181" lon="-2.28874">
        <ele>48</ele>
        <time>2017-11-09T10:09:08Z</time>
      </trkpt>
      <trkpt lat="47.34198" lon="-2.28872">
        <ele>48</ele>
        <time>2017-11-09T10:09:14Z</time>
      </trkpt>
      <trkpt lat="47.34212" lon="-2.28863">
        <ele>48</ele>
        <time>2017-11-09T10:09:17Z</time>
      </trkpt>
      <trkpt lat="47.34237" lon="-2.28843">
        <ele>48</ele>
        <time>2017-11-09T10:09:23Z</time>
      </trkpt>
      <trkpt lat="47.3426" lon="-2.28843">
        <ele>48</ele>
        <time>2017-11-09T10:09:30Z</time>
      </trkpt>
      <trkpt lat="47.34278" lon="-2.28898">
        <ele>48</ele>
        <time>2017-11-09T10:09:38Z</time>
      </trkpt>
      <trkpt lat="47.34289" lon="-2.28934">
        <ele>47</ele>
        <time>2017-11-09T10:09:43Z</time>
      </trkpt>
      <trkpt lat="47.34299" lon="-2.28972">
        <ele>48</ele>
        <time>2017-11-09T10:09:49Z</time>
      </trkpt>
      <trkpt lat="47.34307" lon="-2.29007">
        <ele>49</ele>
        <time>2017-11-09T10:09:54Z</time>
      </trkpt>
      <trkpt lat="47.34313" lon="-2.29033">
        <ele>49</ele>
        <time>2017-11-09T10:09:58Z</time>
      </trkpt>
      <trkpt lat="47.34318" lon="-2.29062">
        <ele>49</ele>
        <time>2017-11-09T10:10:04Z</time>
      </trkpt>
      <trkpt lat="47.34277" lon="-2.29073">
        <ele>51</ele>
        <time>2017-11-09T10:10:13Z</time>
      </trkpt>
      <trkpt lat="47.3425" lon="-2.29077">
        <ele>51</ele>
        <time>2017-11-09T10:10:18Z</time>
      </trkpt>
      <trkpt lat="47.34234" lon="-2.29079">
        <ele>51</ele>
        <time>2017-11-09T10:10:21Z</time>
      </trkpt>
      <trkpt lat="47.34202" lon="-2.29091">
        <ele>51</ele>
        <time>2017-11-09T10:10:27Z</time>
      </trkpt>
      <trkpt lat="47.34171" lon="-2.29103">
        <ele>51</ele>
        <time>2017-11-09T10:10:33Z</time>
      </trkpt>
      <trkpt lat="47.34143" lon="-2.29118">
        <ele>52</ele>
        <time>2017-11-09T10:10:38Z</time>
      </trkpt>
      <trkpt lat="47.34117" lon="-2.29136">
        <ele>52</ele>
        <time>2017-11-09T10:10:43Z</time>
      </trkpt>
      <trkpt lat="47.34087" lon="-2.29159">
        <ele>53</ele>
        <time>2017-11-09T10:10:49Z</time>
      </trkpt>
      <trkpt lat="47.34062" lon="-2.29181">
        <ele>52</ele>
        <time>2017-11-09T10:10:54Z</time>
      </trkpt>
      <trkpt lat="47.3403" lon="-2.29205">
        <ele>51</ele>
        <time>2017-11-09T10:11:01Z</time>
      </trkpt>
      <trkpt lat="47.34006" lon="-2.29215">
        <ele>50</ele>
        <time>2017-11-09T10:11:06Z</time>
      </trkpt>
      <trkpt lat="47.33971" lon="-2.29224">
        <ele>49</ele>
        <time>2017-11-09T10:11:12Z</time>
      </trkpt>
      <trkpt lat="47.33954" lon="-2.29227">
        <ele>49</ele>
        <time>2017-11-09T10:11:15Z</time>
      </trkpt>
      <trkpt lat="47.33921" lon="-2.29235">
        <ele>49</ele>
        <time>2017-11-09T10:11:21Z</time>
      </trkpt>
      <trkpt lat="47.33887" lon="-2.29243">
        <ele>49</ele>
        <time>2017-11-09T10:11:27Z</time>
      </trkpt>
      <trkpt lat="47.33871" lon="-2.29247">
        <ele>50</ele>
        <time>2017-11-09T10:11:30Z</time>
      </trkpt>
      <trkpt lat="47.33855" lon="-2.29254">
        <ele>50</ele>
        <time>2017-11-09T10:11:33Z</time>
      </trkpt>
      <trkpt lat="47.33831" lon="-2.29267">
        <ele>51</ele>
        <time>2017-11-09T10:11:38Z</time>
      </trkpt>
      <trkpt lat="47.33804" lon="-2.29297">
        <ele>51</ele>
        <time>2017-11-09T10:11:46Z</time>
      </trkpt>
      <trkpt lat="47.33822" lon="-2.29314">
        <ele>50</ele>
        <time>2017-11-09T10:11:52Z</time>
      </trkpt>
      <trkpt lat="47.33855" lon="-2.29341">
        <ele>48</ele>
        <time>2017-11-09T10:11:59Z</time>
      </trkpt>
      <trkpt lat="47.33877" lon="-2.29361">
        <ele>47</ele>
        <time>2017-11-09T10:12:04Z</time>
      </trkpt>
      <trkpt lat="47.33905" lon="-2.29391">
        <ele>47</ele>
        <time>2017-11-09T10:12:10Z</time>
      </trkpt>
      <trkpt lat="47.33926" lon="-2.29417">
        <ele>47</ele>
        <time>2017-11-09T10:12:15Z</time>
      </trkpt>
      <trkpt lat="47.3394" lon="-2.29432">
        <ele>47</ele>
        <time>2017-11-09T10:12:18Z</time>
      </trkpt>
      <trkpt lat="47.33947" lon="-2.29453">
        <ele>46</ele>
        <time>2017-11-09T10:12:22Z</time>
      </trkpt>
      <trkpt lat="47.33931" lon="-2.29487">
        <ele>47</ele>
        <time>2017-11-09T10:12:28Z</time>
      </trkpt>
      <trkpt lat="47.33893" lon="-2.2951">
        <ele>49</ele>
        <time>2017-11-09T10:12:35Z</time>
      </trkpt>
      <trkpt lat="47.33866" lon="-2.29523">
        <ele>50</ele>
        <time>2017-11-09T10:12:40Z</time>
      </trkpt>
      <trkpt lat="47.3385" lon="-2.29531">
        <ele>50</ele>
        <time>2017-11-09T10:12:43Z</time>
      </trkpt>
      <trkpt lat="47.33833" lon="-2.29536">
        <ele>50</ele>
        <time>2017-11-09T10:12:46Z</time>
      </trkpt>
      <trkpt lat="47.338" lon="-2.29545">
        <ele>51</ele>
        <time>2017-11-09T10:12:52Z</time>
      </trkpt>
      <trkpt lat="47.33767" lon="-2.29549">
        <ele>51</ele>
        <time>2017-11-09T10:12:58Z</time>
      </trkpt>
      <trkpt lat="47.33751" lon="-2.29552">
        <ele>50</ele>
        <time>2017-11-09T10:13:01Z</time>
      </trkpt>
      <trkpt lat="47.33729" lon="-2.29555">
        <ele>50</ele>
        <time>2017-11-09T10:13:05Z</time>
      </trkpt>
      <trkpt lat="47.33712" lon="-2.29557">
        <ele>48</ele>
        <time>2017-11-09T10:13:08Z</time>
      </trkpt>
      <trkpt lat="47.33695" lon="-2.2956">
        <ele>48</ele>
        <time>2017-11-09T10:13:11Z</time>
      </trkpt>
      <trkpt lat="47.33676" lon="-2.29563">
        <ele>48</ele>
        <time>2017-11-09T10:13:14Z</time>
      </trkpt>
      <trkpt lat="47.33658" lon="-2.29563">
        <ele>49</ele>
        <time>2017-11-09T10:13:17Z</time>
      </trkpt>
      <trkpt lat="47.3364" lon="-2.29562">
        <ele>49</ele>
        <time>2017-11-09T10:13:20Z</time>
      </trkpt>
      <trkpt lat="47.33604" lon="-2.29559">
        <ele>50</ele>
        <time>2017-11-09T10:13:26Z</time>
      </trkpt>
      <trkpt lat="47.33569" lon="-2.29555">
        <ele>50</ele>
        <time>2017-11-09T10:13:32Z</time>
      </trkpt>
      <trkpt lat="47.33552" lon="-2.29553">
        <ele>49</ele>
        <time>2017-11-09T10:13:35Z</time>
      </trkpt>
      <trkpt lat="47.33536" lon="-2.29552">
        <ele>49</ele>
        <time>2017-11-09T10:13:38Z</time>
      </trkpt>
      <trkpt lat="47.33502" lon="-2.29548">
        <ele>49</ele>
        <time>2017-11-09T10:13:44Z</time>
      </trkpt>
      <trkpt lat="47.33476" lon="-2.29547">
        <ele>50</ele>
        <time>2017-11-09T10:13:49Z</time>
      </trkpt>
      <trkpt lat="47.33446" lon="-2.29546">
        <ele>49</ele>
        <time>2017-11-09T10:13:55Z</time>
      </trkpt>
      <trkpt lat="47.3342" lon="-2.29542">
        <ele>49</ele>
        <time>2017-11-09T10:14:00Z</time>
      </trkpt>
      <trkpt lat="47.3339" lon="-2.29532">
        <ele>48</ele>
        <time>2017-11-09T10:14:06Z</time>
      </trkpt>
      <trkpt lat="47.3336" lon="-2.29528">
        <ele>49</ele>
        <time>2017-11-09T10:14:12Z</time>
      </trkpt>
      <trkpt lat="47.33325" lon="-2.2954">
        <ele>50</ele>
        <time>2017-11-09T10:14:19Z</time>
      </trkpt>
      <trkpt lat="47.33297" lon="-2.29556">
        <ele>50</ele>
        <time>2017-11-09T10:14:25Z</time>
      </trkpt>
      <trkpt lat="47.33273" lon="-2.2957">
        <ele>51</ele>
        <time>2017-11-09T10:14:30Z</time>
      </trkpt>
      <trkpt lat="47.33251" lon="-2.29589">
        <ele>51</ele>
        <time>2017-11-09T10:14:35Z</time>
      </trkpt>
      <trkpt lat="47.33233" lon="-2.29628">
        <ele>51</ele>
        <time>2017-11-09T10:14:41Z</time>
      </trkpt>
      <trkpt lat="47.33211" lon="-2.29657">
        <ele>51</ele>
        <time>2017-11-09T10:14:46Z</time>
      </trkpt>
      <trkpt lat="47.33185" lon="-2.29677">
        <ele>51</ele>
        <time>2017-11-09T10:14:51Z</time>
      </trkpt>
      <trkpt lat="47.33148" lon="-2.29691">
        <ele>49</ele>
        <time>2017-11-09T10:14:57Z</time>
      </trkpt>
      <trkpt lat="47.33114" lon="-2.29699">
        <ele>49</ele>
        <time>2017-11-09T10:15:03Z</time>
      </trkpt>
      <trkpt lat="47.33098" lon="-2.29702">
        <ele>49</ele>
        <time>2017-11-09T10:15:06Z</time>
      </trkpt>
      <trkpt lat="47.33083" lon="-2.29706">
        <ele>49</ele>
        <time>2017-11-09T10:15:09Z</time>
      </trkpt>
      <trkpt lat="47.33067" lon="-2.2971">
        <ele>50</ele>
        <time>2017-11-09T10:15:12Z</time>
      </trkpt>
      <trkpt lat="47.33051" lon="-2.29713">
        <ele>52</ele>
        <time>2017-11-09T10:15:15Z</time>
      </trkpt>
      <trkpt lat="47.33028" lon="-2.29717">
        <ele>54</ele>
        <time>2017-11-09T10:15:20Z</time>
      </trkpt>
      <trkpt lat="47.33002" lon="-2.29725">
        <ele>54</ele>
        <time>2017-11-09T10:15:28Z</time>
      </trkpt>
      <trkpt lat="47.32977" lon="-2.29727">
        <ele>55</ele>
        <time>2017-11-09T10:15:33Z</time>
      </trkpt>
      <trkpt lat="47.32951" lon="-2.29727">
        <ele>57</ele>
        <time>2017-11-09T10:15:38Z</time>
      </trkpt>
      <trkpt lat="47.32918" lon="-2.29727">
        <ele>58</ele>
        <time>2017-11-09T10:15:45Z</time>
      </trkpt>
      <trkpt lat="47.32896" lon="-2.29727">
        <ele>58</ele>
        <time>2017-11-09T10:15:50Z</time>
      </trkpt>
      <trkpt lat="47.32879" lon="-2.29727">
        <ele>59</ele>
        <time>2017-11-09T10:15:54Z</time>
      </trkpt>
      <trkpt lat="47.32853" lon="-2.29728">
        <ele>58</ele>
        <time>2017-11-09T10:16:00Z</time>
      </trkpt>
      <trkpt lat="47.32828" lon="-2.29735">
        <ele>57</ele>
        <time>2017-11-09T10:16:05Z</time>
      </trkpt>
      <trkpt lat="47.32807" lon="-2.2975">
        <ele>58</ele>
        <time>2017-11-09T10:16:10Z</time>
      </trkpt>
      <trkpt lat="47.32781" lon="-2.29774">
        <ele>58</ele>
        <time>2017-11-09T10:16:16Z</time>
      </trkpt>
      <trkpt lat="47.32757" lon="-2.29805">
        <ele>58</ele>
        <time>2017-11-09T10:16:22Z</time>
      </trkpt>
      <trkpt lat="47.32728" lon="-2.29829">
        <ele>60</ele>
        <time>2017-11-09T10:16:28Z</time>
      </trkpt>
      <trkpt lat="47.32698" lon="-2.29846">
        <ele>60</ele>
        <time>2017-11-09T10:16:34Z</time>
      </trkpt>
      <trkpt lat="47.32682" lon="-2.29851">
        <ele>60</ele>
        <time>2017-11-09T10:16:37Z</time>
      </trkpt>
      <trkpt lat="47.32657" lon="-2.29857">
        <ele>61</ele>
        <time>2017-11-09T10:16:42Z</time>
      </trkpt>
      <trkpt lat="47.32627" lon="-2.29868">
        <ele>62</ele>
        <time>2017-11-09T10:16:48Z</time>
      </trkpt>
      <trkpt lat="47.32612" lon="-2.29876">
        <ele>61</ele>
        <time>2017-11-09T10:16:51Z</time>
      </trkpt>
      <trkpt lat="47.32591" lon="-2.29886">
        <ele>62</ele>
        <time>2017-11-09T10:16:55Z</time>
      </trkpt>
      <trkpt lat="47.32559" lon="-2.29894">
        <ele>62</ele>
        <time>2017-11-09T10:17:01Z</time>
      </trkpt>
      <trkpt lat="47.32523" lon="-2.29903">
        <ele>63</ele>
        <time>2017-11-09T10:17:08Z</time>
      </trkpt>
      <trkpt lat="47.32497" lon="-2.29911">
        <ele>63</ele>
        <time>2017-11-09T10:17:13Z</time>
      </trkpt>
      <trkpt lat="47.32483" lon="-2.29919">
        <ele>64</ele>
        <time>2017-11-09T10:17:16Z</time>
      </trkpt>
      <trkpt lat="47.32457" lon="-2.29937">
        <ele>64</ele>
        <time>2017-11-09T10:17:22Z</time>
      </trkpt>
      <trkpt lat="47.32442" lon="-2.29955">
        <ele>63</ele>
        <time>2017-11-09T10:17:28Z</time>
      </trkpt>
      <trkpt lat="47.32456" lon="-2.29977">
        <ele>62</ele>
        <time>2017-11-09T10:17:33Z</time>
      </trkpt>
      <trkpt lat="47.32474" lon="-2.30004">
        <ele>62</ele>
        <time>2017-11-09T10:17:38Z</time>
      </trkpt>
      <trkpt lat="47.32488" lon="-2.30042">
        <ele>63</ele>
        <time>2017-11-09T10:17:43Z</time>
      </trkpt>
      <trkpt lat="47.32495" lon="-2.30066">
        <ele>63</ele>
        <time>2017-11-09T10:17:46Z</time>
      </trkpt>
      <trkpt lat="47.32496" lon="-2.3009">
        <ele>64</ele>
        <time>2017-11-09T10:17:49Z</time>
      </trkpt>
      <trkpt lat="47.32501" lon="-2.30135">
        <ele>65</ele>
        <time>2017-11-09T10:17:54Z</time>
      </trkpt>
      <trkpt lat="47.32508" lon="-2.30182">
        <ele>65</ele>
        <time>2017-11-09T10:17:59Z</time>
      </trkpt>
      <trkpt lat="47.32512" lon="-2.3021">
        <ele>65</ele>
        <time>2017-11-09T10:18:02Z</time>
      </trkpt>
      <trkpt lat="47.32518" lon="-2.30257">
        <ele>65</ele>
        <time>2017-11-09T10:18:07Z</time>
      </trkpt>
      <trkpt lat="47.32529" lon="-2.30314">
        <ele>64</ele>
        <time>2017-11-09T10:18:13Z</time>
      </trkpt>
      <trkpt lat="47.32539" lon="-2.30366">
        <ele>64</ele>
        <time>2017-11-09T10:18:19Z</time>
      </trkpt>
      <trkpt lat="47.32535" lon="-2.30403">
        <ele>63</ele>
        <time>2017-11-09T10:18:25Z</time>
      </trkpt>
      <trkpt lat="47.32504" lon="-2.30416">
        <ele>63</ele>
        <time>2017-11-09T10:18:31Z</time>
      </trkpt>
      <trkpt lat="47.32503" lon="-2.30449">
        <ele>63</ele>
        <time>2017-11-09T10:18:36Z</time>
      </trkpt>
      <trkpt lat="47.32515" lon="-2.30497">
        <ele>63</ele>
        <time>2017-11-09T10:18:42Z</time>
      </trkpt>
      <trkpt lat="47.32519" lon="-2.30523">
        <ele>62</ele>
        <time>2017-11-09T10:18:45Z</time>
      </trkpt>
      <trkpt lat="47.32529" lon="-2.30585">
        <ele>63</ele>
        <time>2017-11-09T10:18:52Z</time>
      </trkpt>
      <trkpt lat="47.32537" lon="-2.30629">
        <ele>62</ele>
        <time>2017-11-09T10:18:57Z</time>
      </trkpt>
      <trkpt lat="47.32546" lon="-2.30672">
        <ele>62</ele>
        <time>2017-11-09T10:19:02Z</time>
      </trkpt>
      <trkpt lat="47.3255" lon="-2.30717">
        <ele>61</ele>
        <time>2017-11-09T10:19:07Z</time>
      </trkpt>
      <trkpt lat="47.32561" lon="-2.30773">
        <ele>61</ele>
        <time>2017-11-09T10:19:13Z</time>
      </trkpt>
      <trkpt lat="47.32569" lon="-2.30821">
        <ele>60</ele>
        <time>2017-11-09T10:19:18Z</time>
      </trkpt>
      <trkpt lat="47.32572" lon="-2.30883">
        <ele>61</ele>
        <time>2017-11-09T10:19:24Z</time>
      </trkpt>
      <trkpt lat="47.32571" lon="-2.30948">
        <ele>62</ele>
        <time>2017-11-09T10:19:31Z</time>
      </trkpt>
      <trkpt lat="47.32571" lon="-2.31003">
        <ele>63</ele>
        <time>2017-11-09T10:19:37Z</time>
      </trkpt>
      <trkpt lat="47.32575" lon="-2.3103">
        <ele>63</ele>
        <time>2017-11-09T10:19:40Z</time>
      </trkpt>
      <trkpt lat="47.32577" lon="-2.3109">
        <ele>63</ele>
        <time>2017-11-09T10:19:46Z</time>
      </trkpt>
      <trkpt lat="47.32572" lon="-2.31138">
        <ele>62</ele>
        <time>2017-11-09T10:19:51Z</time>
      </trkpt>
      <trkpt lat="47.32568" lon="-2.31188">
        <ele>60</ele>
        <time>2017-11-09T10:19:56Z</time>
      </trkpt>
      <trkpt lat="47.32578" lon="-2.3124">
        <ele>60</ele>
        <time>2017-11-09T10:20:02Z</time>
      </trkpt>
      <trkpt lat="47.32575" lon="-2.31286">
        <ele>60</ele>
        <time>2017-11-09T10:20:07Z</time>
      </trkpt>
      <trkpt lat="47.32563" lon="-2.31332">
        <ele>59</ele>
        <time>2017-11-09T10:20:13Z</time>
      </trkpt>
      <trkpt lat="47.32556" lon="-2.3137">
        <ele>60</ele>
        <time>2017-11-09T10:20:18Z</time>
      </trkpt>
      <trkpt lat="47.32555" lon="-2.31386">
        <ele>59</ele>
        <time>2017-11-09T10:20:22Z</time>
      </trkpt>
      <trkpt lat="47.32555" lon="-2.31386">
        <ele>11</ele>
        <time>2017-11-09T10:20:27Z</time>
      </trkpt>
      <trkpt lat="47.32555" lon="-2.31386">
        <ele>11</ele>
        <time>2017-11-09T10:20:54Z</time>
      </trkpt>
      <trkpt lat="47.32552" lon="-2.31414">
        <ele>60</ele>
        <time>2017-11-09T10:20:54Z</time>
      </trkpt>
      <trkpt lat="47.3256" lon="-2.31461">
        <ele>59</ele>
        <time>2017-11-09T10:21:04Z</time>
      </trkpt>
      <trkpt lat="47.3256" lon="-2.3151">
        <ele>60</ele>
        <time>2017-11-09T10:21:10Z</time>
      </trkpt>
      <trkpt lat="47.3256" lon="-2.31567">
        <ele>60</ele>
        <time>2017-11-09T10:21:17Z</time>
      </trkpt>
      <trkpt lat="47.32549" lon="-2.31596">
        <ele>59</ele>
        <time>2017-11-09T10:21:22Z</time>
      </trkpt>
      <trkpt lat="47.32525" lon="-2.31631">
        <ele>59</ele>
        <time>2017-11-09T10:21:28Z</time>
      </trkpt>
      <trkpt lat="47.3251" lon="-2.3168">
        <ele>59</ele>
        <time>2017-11-09T10:21:34Z</time>
      </trkpt>
      <trkpt lat="47.32514" lon="-2.31731">
        <ele>60</ele>
        <time>2017-11-09T10:21:39Z</time>
      </trkpt>
      <trkpt lat="47.32518" lon="-2.31796">
        <ele>61</ele>
        <time>2017-11-09T10:21:45Z</time>
      </trkpt>
      <trkpt lat="47.32519" lon="-2.31855">
        <ele>61</ele>
        <time>2017-11-09T10:21:50Z</time>
      </trkpt>
      <trkpt lat="47.32514" lon="-2.31912">
        <ele>61</ele>
        <time>2017-11-09T10:21:55Z</time>
      </trkpt>
      <trkpt lat="47.32508" lon="-2.31965">
        <ele>62</ele>
        <time>2017-11-09T10:22:00Z</time>
      </trkpt>
      <trkpt lat="47.32506" lon="-2.32025">
        <ele>62</ele>
        <time>2017-11-09T10:22:06Z</time>
      </trkpt>
      <trkpt lat="47.32504" lon="-2.32051">
        <ele>62</ele>
        <time>2017-11-09T10:22:09Z</time>
      </trkpt>
      <trkpt lat="47.32502" lon="-2.32077">
        <ele>61</ele>
        <time>2017-11-09T10:22:13Z</time>
      </trkpt>
      <trkpt lat="47.32492" lon="-2.32101">
        <ele>59</ele>
        <time>2017-11-09T10:22:20Z</time>
      </trkpt>
      <trkpt lat="47.32458" lon="-2.32105">
        <ele>58</ele>
        <time>2017-11-09T10:22:26Z</time>
      </trkpt>
      <trkpt lat="47.32427" lon="-2.32106">
        <ele>56</ele>
        <time>2017-11-09T10:22:32Z</time>
      </trkpt>
      <trkpt lat="47.32399" lon="-2.32111">
        <ele>56</ele>
        <time>2017-11-09T10:22:38Z</time>
      </trkpt>
      <trkpt lat="47.3237" lon="-2.32111">
        <ele>55</ele>
        <time>2017-11-09T10:22:44Z</time>
      </trkpt>
      <trkpt lat="47.32358" lon="-2.3211">
        <ele>54</ele>
        <time>2017-11-09T10:22:49Z</time>
      </trkpt>
      <trkpt lat="47.32329" lon="-2.32105">
        <ele>55</ele>
        <time>2017-11-09T10:23:00Z</time>
      </trkpt>
      <trkpt lat="47.32305" lon="-2.32102">
        <ele>55</ele>
        <time>2017-11-09T10:23:06Z</time>
      </trkpt>
      <trkpt lat="47.32278" lon="-2.32104">
        <ele>56</ele>
        <time>2017-11-09T10:23:12Z</time>
      </trkpt>
      <trkpt lat="47.32263" lon="-2.32105">
        <ele>56</ele>
        <time>2017-11-09T10:23:15Z</time>
      </trkpt>
      <trkpt lat="47.32243" lon="-2.32109">
        <ele>56</ele>
        <time>2017-11-09T10:23:19Z</time>
      </trkpt>
      <trkpt lat="47.32228" lon="-2.32112">
        <ele>56</ele>
        <time>2017-11-09T10:23:22Z</time>
      </trkpt>
      <trkpt lat="47.32211" lon="-2.32117">
        <ele>55</ele>
        <time>2017-11-09T10:23:28Z</time>
      </trkpt>
      <trkpt lat="47.32183" lon="-2.32128">
        <ele>55</ele>
        <time>2017-11-09T10:23:36Z</time>
      </trkpt>
      <trkpt lat="47.32154" lon="-2.32152">
        <ele>55</ele>
        <time>2017-11-09T10:23:42Z</time>
      </trkpt>
      <trkpt lat="47.32131" lon="-2.32174">
        <ele>54</ele>
        <time>2017-11-09T10:23:47Z</time>
      </trkpt>
      <trkpt lat="47.32107" lon="-2.32186">
        <ele>53</ele>
        <time>2017-11-09T10:23:52Z</time>
      </trkpt>
      <trkpt lat="47.32074" lon="-2.32187">
        <ele>54</ele>
        <time>2017-11-09T10:23:58Z</time>
      </trkpt>
      <trkpt lat="47.32044" lon="-2.32189">
        <ele>56</ele>
        <time>2017-11-09T10:24:04Z</time>
      </trkpt>
      <trkpt lat="47.32011" lon="-2.32198">
        <ele>56</ele>
        <time>2017-11-09T10:24:11Z</time>
      </trkpt>
      <trkpt lat="47.31965" lon="-2.32245">
        <ele>57</ele>
        <time>2017-11-09T10:24:23Z</time>
      </trkpt>
      <trkpt lat="47.31955" lon="-2.32262">
        <ele>57</ele>
        <time>2017-11-09T10:24:28Z</time>
      </trkpt>
      <trkpt lat="47.31955" lon="-2.32262">
        <ele>18</ele>
        <time>2017-11-09T10:24:33Z</time>
      </trkpt>
      <trkpt lat="47.31955" lon="-2.32262">
        <ele>18</ele>
        <time>2017-11-09T10:24:37Z</time>
      </trkpt>
      <trkpt lat="47.31953" lon="-2.32232">
        <ele>58</ele>
        <time>2017-11-09T10:24:37Z</time>
      </trkpt>
      <trkpt lat="47.31948" lon="-2.32216">
        <ele>60</ele>
        <time>2017-11-09T10:24:42Z</time>
      </trkpt>
      <trkpt lat="47.31929" lon="-2.32209">
        <ele>61</ele>
        <time>2017-11-09T10:24:48Z</time>
      </trkpt>
      <trkpt lat="47.31906" lon="-2.32205">
        <ele>63</ele>
        <time>2017-11-09T10:24:55Z</time>
      </trkpt>
      <trkpt lat="47.31892" lon="-2.32208">
        <ele>64</ele>
        <time>2017-11-09T10:24:59Z</time>
      </trkpt>
      <trkpt lat="47.31862" lon="-2.32218">
        <ele>68</ele>
        <time>2017-11-09T10:25:07Z</time>
      </trkpt>
      <trkpt lat="47.31837" lon="-2.32226">
        <ele>69</ele>
        <time>2017-11-09T10:25:15Z</time>
      </trkpt>
      <trkpt lat="47.31823" lon="-2.32225">
        <ele>70</ele>
        <time>2017-11-09T10:25:20Z</time>
      </trkpt>
      <trkpt lat="47.31796" lon="-2.32227">
        <ele>70</ele>
        <time>2017-11-09T10:25:27Z</time>
      </trkpt>
      <trkpt lat="47.31771" lon="-2.32231">
        <ele>71</ele>
        <time>2017-11-09T10:25:33Z</time>
      </trkpt>
      <trkpt lat="47.31757" lon="-2.32251">
        <ele>73</ele>
        <time>2017-11-09T10:25:39Z</time>
      </trkpt>
      <trkpt lat="47.31763" lon="-2.32286">
        <ele>75</ele>
        <time>2017-11-09T10:25:44Z</time>
      </trkpt>
      <trkpt lat="47.31773" lon="-2.32332">
        <ele>76</ele>
        <time>2017-11-09T10:25:50Z</time>
      </trkpt>
      <trkpt lat="47.31782" lon="-2.32379">
        <ele>77</ele>
        <time>2017-11-09T10:25:55Z</time>
      </trkpt>
      <trkpt lat="47.31787" lon="-2.32409">
        <ele>77</ele>
        <time>2017-11-09T10:25:58Z</time>
      </trkpt>
      <trkpt lat="47.31792" lon="-2.3244">
        <ele>75</ele>
        <time>2017-11-09T10:26:01Z</time>
      </trkpt>
      <trkpt lat="47.31808" lon="-2.325">
        <ele>75</ele>
        <time>2017-11-09T10:26:07Z</time>
      </trkpt>
      <trkpt lat="47.31822" lon="-2.3255">
        <ele>74</ele>
        <time>2017-11-09T10:26:12Z</time>
      </trkpt>
      <trkpt lat="47.31834" lon="-2.32607">
        <ele>73</ele>
        <time>2017-11-09T10:26:17Z</time>
      </trkpt>
      <trkpt lat="47.3184" lon="-2.32649">
        <ele>72</ele>
        <time>2017-11-09T10:26:21Z</time>
      </trkpt>
      <trkpt lat="47.31862" lon="-2.32708">
        <ele>70</ele>
        <time>2017-11-09T10:26:27Z</time>
      </trkpt>
      <trkpt lat="47.31881" lon="-2.32764">
        <ele>69</ele>
        <time>2017-11-09T10:26:33Z</time>
      </trkpt>
      <trkpt lat="47.31886" lon="-2.32822">
        <ele>65</ele>
        <time>2017-11-09T10:26:39Z</time>
      </trkpt>
      <trkpt lat="47.31884" lon="-2.32889">
        <ele>60</ele>
        <time>2017-11-09T10:26:45Z</time>
      </trkpt>
      <trkpt lat="47.31882" lon="-2.32944">
        <ele>58</ele>
        <time>2017-11-09T10:26:51Z</time>
      </trkpt>
      <trkpt lat="47.31879" lon="-2.32996">
        <ele>57</ele>
        <time>2017-11-09T10:26:56Z</time>
      </trkpt>
      <trkpt lat="47.31879" lon="-2.3306">
        <ele>57</ele>
        <time>2017-11-09T10:27:02Z</time>
      </trkpt>
      <trkpt lat="47.31882" lon="-2.33104">
        <ele>58</ele>
        <time>2017-11-09T10:27:07Z</time>
      </trkpt>
      <trkpt lat="47.31879" lon="-2.33142">
        <ele>58</ele>
        <time>2017-11-09T10:27:13Z</time>
      </trkpt>
      <trkpt lat="47.31874" lon="-2.33186">
        <ele>57</ele>
        <time>2017-11-09T10:27:19Z</time>
      </trkpt>
      <trkpt lat="47.31864" lon="-2.33232">
        <ele>58</ele>
        <time>2017-11-09T10:27:26Z</time>
      </trkpt>
      <trkpt lat="47.31847" lon="-2.33262">
        <ele>58</ele>
        <time>2017-11-09T10:27:32Z</time>
      </trkpt>
      <trkpt lat="47.3183" lon="-2.33287">
        <ele>57</ele>
        <time>2017-11-09T10:27:38Z</time>
      </trkpt>
      <trkpt lat="47.3181" lon="-2.33308">
        <ele>57</ele>
        <time>2017-11-09T10:27:43Z</time>
      </trkpt>
      <trkpt lat="47.31798" lon="-2.33316">
        <ele>58</ele>
        <time>2017-11-09T10:27:47Z</time>
      </trkpt>
      <trkpt lat="47.31773" lon="-2.33327">
        <ele>60</ele>
        <time>2017-11-09T10:27:57Z</time>
      </trkpt>
      <trkpt lat="47.31759" lon="-2.33304">
        <ele>59</ele>
        <time>2017-11-09T10:28:06Z</time>
      </trkpt>
      <trkpt lat="47.31751" lon="-2.33278">
        <ele>58</ele>
        <time>2017-11-09T10:28:13Z</time>
      </trkpt>
      <trkpt lat="47.31736" lon="-2.33273">
        <ele>57</ele>
        <time>2017-11-09T10:28:18Z</time>
      </trkpt>
      <trkpt lat="47.31719" lon="-2.33275">
        <ele>58</ele>
        <time>2017-11-09T10:28:24Z</time>
      </trkpt>
      <trkpt lat="47.31692" lon="-2.33279">
        <ele>59</ele>
        <time>2017-11-09T10:28:32Z</time>
      </trkpt>
      <trkpt lat="47.31657" lon="-2.33284">
        <ele>72</ele>
        <time>2017-11-09T10:28:38Z</time>
      </trkpt>
      <trkpt lat="47.31636" lon="-2.33297">
        <ele>74</ele>
        <time>2017-11-09T10:28:43Z</time>
      </trkpt>
      <trkpt lat="47.31616" lon="-2.33307">
        <ele>76</ele>
        <time>2017-11-09T10:28:48Z</time>
      </trkpt>
      <trkpt lat="47.3159" lon="-2.3332">
        <ele>78</ele>
        <time>2017-11-09T10:28:54Z</time>
      </trkpt>
      <trkpt lat="47.31567" lon="-2.33332">
        <ele>78</ele>
        <time>2017-11-09T10:28:59Z</time>
      </trkpt>
      <trkpt lat="47.31539" lon="-2.33346">
        <ele>77</ele>
        <time>2017-11-09T10:29:05Z</time>
      </trkpt>
      <trkpt lat="47.31518" lon="-2.33356">
        <ele>79</ele>
        <time>2017-11-09T10:29:10Z</time>
      </trkpt>
      <trkpt lat="47.31493" lon="-2.33371">
        <ele>79</ele>
        <time>2017-11-09T10:29:17Z</time>
      </trkpt>
      <trkpt lat="47.31485" lon="-2.33377">
        <ele>79</ele>
        <time>2017-11-09T10:29:20Z</time>
      </trkpt>
      <trkpt lat="47.31485" lon="-2.33377">
        <ele>32</ele>
        <time>2017-11-09T10:29:27Z</time>
      </trkpt>
      <trkpt lat="47.31485" lon="-2.33377">
        <ele>32</ele>
        <time>2017-11-09T10:32:12Z</time>
      </trkpt>
      <trkpt lat="47.31471" lon="-2.33355">
        <ele>77</ele>
        <time>2017-11-09T10:32:12Z</time>
      </trkpt>
      <trkpt lat="47.31449" lon="-2.33313">
        <ele>76</ele>
        <time>2017-11-09T10:32:21Z</time>
      </trkpt>
      <trkpt lat="47.31425" lon="-2.33281">
        <ele>76</ele>
        <time>2017-11-09T10:32:27Z</time>
      </trkpt>
      <trkpt lat="47.31401" lon="-2.3326">
        <ele>76</ele>
        <time>2017-11-09T10:32:32Z</time>
      </trkpt>
      <trkpt lat="47.31372" lon="-2.33244">
        <ele>75</ele>
        <time>2017-11-09T10:32:38Z</time>
      </trkpt>
      <trkpt lat="47.31338" lon="-2.33215">
        <ele>76</ele>
        <time>2017-11-09T10:32:45Z</time>
      </trkpt>
      <trkpt lat="47.31315" lon="-2.33196">
        <ele>77</ele>
        <time>2017-11-09T10:32:50Z</time>
      </trkpt>
      <trkpt lat="47.31295" lon="-2.33178">
        <ele>77</ele>
        <time>2017-11-09T10:32:54Z</time>
      </trkpt>
      <trkpt lat="47.31267" lon="-2.33159">
        <ele>75</ele>
        <time>2017-11-09T10:32:59Z</time>
      </trkpt>
      <trkpt lat="47.31245" lon="-2.33152">
        <ele>75</ele>
        <time>2017-11-09T10:33:03Z</time>
      </trkpt>
      <trkpt lat="47.31212" lon="-2.33153">
        <ele>75</ele>
        <time>2017-11-09T10:33:09Z</time>
      </trkpt>
      <trkpt lat="47.31188" lon="-2.33165">
        <ele>76</ele>
        <time>2017-11-09T10:33:14Z</time>
      </trkpt>
      <trkpt lat="47.31161" lon="-2.33185">
        <ele>77</ele>
        <time>2017-11-09T10:33:20Z</time>
      </trkpt>
      <trkpt lat="47.31147" lon="-2.33193">
        <ele>77</ele>
        <time>2017-11-09T10:33:23Z</time>
      </trkpt>
      <trkpt lat="47.3113" lon="-2.33203">
        <ele>76</ele>
        <time>2017-11-09T10:33:28Z</time>
      </trkpt>
      <trkpt lat="47.31109" lon="-2.33227">
        <ele>76</ele>
        <time>2017-11-09T10:33:36Z</time>
      </trkpt>
      <trkpt lat="47.31102" lon="-2.33272">
        <ele>77</ele>
        <time>2017-11-09T10:33:42Z</time>
      </trkpt>
      <trkpt lat="47.31102" lon="-2.33311">
        <ele>78</ele>
        <time>2017-11-09T10:33:47Z</time>
      </trkpt>
      <trkpt lat="47.31102" lon="-2.33357">
        <ele>78</ele>
        <time>2017-11-09T10:33:53Z</time>
      </trkpt>
      <trkpt lat="47.31101" lon="-2.33381">
        <ele>78</ele>
        <time>2017-11-09T10:33:56Z</time>
      </trkpt>
      <trkpt lat="47.31102" lon="-2.33428">
        <ele>79</ele>
        <time>2017-11-09T10:34:02Z</time>
      </trkpt>
      <trkpt lat="47.31104" lon="-2.33463">
        <ele>79</ele>
        <time>2017-11-09T10:34:07Z</time>
      </trkpt>
      <trkpt lat="47.31107" lon="-2.33502">
        <ele>81</ele>
        <time>2017-11-09T10:34:13Z</time>
      </trkpt>
      <trkpt lat="47.31111" lon="-2.33532">
        <ele>81</ele>
        <time>2017-11-09T10:34:18Z</time>
      </trkpt>
      <trkpt lat="47.31115" lon="-2.33567">
        <ele>80</ele>
        <time>2017-11-09T10:34:24Z</time>
      </trkpt>
      <trkpt lat="47.31112" lon="-2.33622">
        <ele>79</ele>
        <time>2017-11-09T10:34:30Z</time>
      </trkpt>
      <trkpt lat="47.31105" lon="-2.33674">
        <ele>79</ele>
        <time>2017-11-09T10:34:36Z</time>
      </trkpt>
      <trkpt lat="47.31103" lon="-2.3371">
        <ele>80</ele>
        <time>2017-11-09T10:34:41Z</time>
      </trkpt>
      <trkpt lat="47.31095" lon="-2.33753">
        <ele>81</ele>
        <time>2017-11-09T10:34:47Z</time>
      </trkpt>
      <trkpt lat="47.31085" lon="-2.3378">
        <ele>81</ele>
        <time>2017-11-09T10:34:51Z</time>
      </trkpt>
      <trkpt lat="47.31074" lon="-2.33809">
        <ele>81</ele>
        <time>2017-11-09T10:34:55Z</time>
      </trkpt>
      <trkpt lat="47.31069" lon="-2.33833">
        <ele>81</ele>
        <time>2017-11-09T10:34:58Z</time>
      </trkpt>
      <trkpt lat="47.31064" lon="-2.33874">
        <ele>82</ele>
        <time>2017-11-09T10:35:03Z</time>
      </trkpt>
      <trkpt lat="47.31061" lon="-2.33921">
        <ele>82</ele>
        <time>2017-11-09T10:35:09Z</time>
      </trkpt>
      <trkpt lat="47.31042" lon="-2.33951">
        <ele>82</ele>
        <time>2017-11-09T10:35:15Z</time>
      </trkpt>
      <trkpt lat="47.31025" lon="-2.33953">
        <ele>82</ele>
        <time>2017-11-09T10:35:18Z</time>
      </trkpt>
      <trkpt lat="47.30998" lon="-2.33955">
        <ele>82</ele>
        <time>2017-11-09T10:35:23Z</time>
      </trkpt>
      <trkpt lat="47.30965" lon="-2.33957">
        <ele>82</ele>
        <time>2017-11-09T10:35:29Z</time>
      </trkpt>
      <trkpt lat="47.30938" lon="-2.33954">
        <ele>82</ele>
        <time>2017-11-09T10:35:34Z</time>
      </trkpt>
      <trkpt lat="47.3092" lon="-2.33951">
        <ele>82</ele>
        <time>2017-11-09T10:35:37Z</time>
      </trkpt>
      <trkpt lat="47.30896" lon="-2.33948">
        <ele>83</ele>
        <time>2017-11-09T10:35:41Z</time>
      </trkpt>
      <trkpt lat="47.30862" lon="-2.33953">
        <ele>84</ele>
        <time>2017-11-09T10:35:47Z</time>
      </trkpt>
      <trkpt lat="47.30826" lon="-2.33959">
        <ele>84</ele>
        <time>2017-11-09T10:35:53Z</time>
      </trkpt>
      <trkpt lat="47.30809" lon="-2.33963">
        <ele>84</ele>
        <time>2017-11-09T10:35:56Z</time>
      </trkpt>
      <trkpt lat="47.30781" lon="-2.33977">
        <ele>84</ele>
        <time>2017-11-09T10:36:02Z</time>
      </trkpt>
      <trkpt lat="47.30779" lon="-2.34002">
        <ele>84</ele>
        <time>2017-11-09T10:36:07Z</time>
      </trkpt>
      <trkpt lat="47.3078" lon="-2.34026">
        <ele>83</ele>
        <time>2017-11-09T10:36:11Z</time>
      </trkpt>
      <trkpt lat="47.30779" lon="-2.34076">
        <ele>84</ele>
        <time>2017-11-09T10:36:17Z</time>
      </trkpt>
      <trkpt lat="47.30777" lon="-2.34126">
        <ele>85</ele>
        <time>2017-11-09T10:36:23Z</time>
      </trkpt>
      <trkpt lat="47.30775" lon="-2.34153">
        <ele>86</ele>
        <time>2017-11-09T10:36:26Z</time>
      </trkpt>
      <trkpt lat="47.30773" lon="-2.34188">
        <ele>86</ele>
        <time>2017-11-09T10:36:30Z</time>
      </trkpt>
      <trkpt lat="47.30766" lon="-2.3421">
        <ele>86</ele>
        <time>2017-11-09T10:36:33Z</time>
      </trkpt>
      <trkpt lat="47.30748" lon="-2.34221">
        <ele>86</ele>
        <time>2017-11-09T10:36:36Z</time>
      </trkpt>
      <trkpt lat="47.3073" lon="-2.34235">
        <ele>85</ele>
        <time>2017-11-09T10:36:41Z</time>
      </trkpt>
      <trkpt lat="47.30723" lon="-2.34282">
        <ele>85</ele>
        <time>2017-11-09T10:36:49Z</time>
      </trkpt>
      <trkpt lat="47.30704" lon="-2.34325">
        <ele>84</ele>
        <time>2017-11-09T10:36:56Z</time>
      </trkpt>
      <trkpt lat="47.3069" lon="-2.34354">
        <ele>84</ele>
        <time>2017-11-09T10:37:01Z</time>
      </trkpt>
      <trkpt lat="47.3068" lon="-2.34372">
        <ele>84</ele>
        <time>2017-11-09T10:37:04Z</time>
      </trkpt>
      <trkpt lat="47.30658" lon="-2.344">
        <ele>81</ele>
        <time>2017-11-09T10:37:09Z</time>
      </trkpt>
      <trkpt lat="47.30634" lon="-2.34437">
        <ele>80</ele>
        <time>2017-11-09T10:37:15Z</time>
      </trkpt>
      <trkpt lat="47.30608" lon="-2.34473">
        <ele>81</ele>
        <time>2017-11-09T10:37:21Z</time>
      </trkpt>
      <trkpt lat="47.3058" lon="-2.34521">
        <ele>82</ele>
        <time>2017-11-09T10:37:27Z</time>
      </trkpt>
      <trkpt lat="47.3055" lon="-2.34567">
        <ele>82</ele>
        <time>2017-11-09T10:37:32Z</time>
      </trkpt>
      <trkpt lat="47.30518" lon="-2.34607">
        <ele>80</ele>
        <time>2017-11-09T10:37:38Z</time>
      </trkpt>
      <trkpt lat="47.30496" lon="-2.34641">
        <ele>80</ele>
        <time>2017-11-09T10:37:43Z</time>
      </trkpt>
      <trkpt lat="47.30473" lon="-2.34673">
        <ele>79</ele>
        <time>2017-11-09T10:37:48Z</time>
      </trkpt>
      <trkpt lat="47.30438" lon="-2.3471">
        <ele>80</ele>
        <time>2017-11-09T10:37:56Z</time>
      </trkpt>
      <trkpt lat="47.30428" lon="-2.3472">
        <ele>81</ele>
        <time>2017-11-09T10:38:01Z</time>
      </trkpt>
      <trkpt lat="47.30399" lon="-2.34739">
        <ele>80</ele>
        <time>2017-11-09T10:38:09Z</time>
      </trkpt>
      <trkpt lat="47.30373" lon="-2.34757">
        <ele>79</ele>
        <time>2017-11-09T10:38:14Z</time>
      </trkpt>
      <trkpt lat="47.30347" lon="-2.3478">
        <ele>79</ele>
        <time>2017-11-09T10:38:19Z</time>
      </trkpt>
      <trkpt lat="47.30321" lon="-2.34817">
        <ele>80</ele>
        <time>2017-11-09T10:38:24Z</time>
      </trkpt>
      <trkpt lat="47.30302" lon="-2.34839">
        <ele>81</ele>
        <time>2017-11-09T10:38:27Z</time>
      </trkpt>
      <trkpt lat="47.30285" lon="-2.34851">
        <ele>80</ele>
        <time>2017-11-09T10:38:30Z</time>
      </trkpt>
      <trkpt lat="47.30254" lon="-2.34871">
        <ele>80</ele>
        <time>2017-11-09T10:38:35Z</time>
      </trkpt>
      <trkpt lat="47.30213" lon="-2.34927">
        <ele>81</ele>
        <time>2017-11-09T10:38:43Z</time>
      </trkpt>
      <trkpt lat="47.30211" lon="-2.34981">
        <ele>84</ele>
        <time>2017-11-09T10:38:48Z</time>
      </trkpt>
      <trkpt lat="47.3021" lon="-2.35017">
        <ele>85</ele>
        <time>2017-11-09T10:38:51Z</time>
      </trkpt>
      <trkpt lat="47.3021" lon="-2.35082">
        <ele>86</ele>
        <time>2017-11-09T10:38:57Z</time>
      </trkpt>
      <trkpt lat="47.30208" lon="-2.35127">
        <ele>86</ele>
        <time>2017-11-09T10:39:02Z</time>
      </trkpt>
      <trkpt lat="47.30207" lon="-2.35161">
        <ele>85</ele>
        <time>2017-11-09T10:39:06Z</time>
      </trkpt>
      <trkpt lat="47.30187" lon="-2.35177">
        <ele>84</ele>
        <time>2017-11-09T10:39:11Z</time>
      </trkpt>
      <trkpt lat="47.30152" lon="-2.35196">
        <ele>82</ele>
        <time>2017-11-09T10:39:18Z</time>
      </trkpt>
      <trkpt lat="47.30124" lon="-2.35201">
        <ele>80</ele>
        <time>2017-11-09T10:39:23Z</time>
      </trkpt>
      <trkpt lat="47.30081" lon="-2.35216">
        <ele>79</ele>
        <time>2017-11-09T10:39:30Z</time>
      </trkpt>
      <trkpt lat="47.30056" lon="-2.3523">
        <ele>78</ele>
        <time>2017-11-09T10:39:35Z</time>
      </trkpt>
      <trkpt lat="47.30033" lon="-2.35246">
        <ele>78</ele>
        <time>2017-11-09T10:39:41Z</time>
      </trkpt>
      <trkpt lat="47.30023" lon="-2.35251">
        <ele>77</ele>
        <time>2017-11-09T10:39:47Z</time>
      </trkpt>
      <trkpt lat="47.30005" lon="-2.35258">
        <ele>78</ele>
        <time>2017-11-09T10:39:57Z</time>
      </trkpt>
      <trkpt lat="47.30005" lon="-2.35258">
        <ele>78</ele>
        <time>2017-11-09T10:40:03Z</time>
      </trkpt>
      <trkpt lat="47.30005" lon="-2.35258">
        <ele>31</ele>
        <time>2017-11-09T10:40:03Z</time>
      </trkpt>
      <trkpt lat="47.30005" lon="-2.35258">
        <ele>31</ele>
        <time>2017-11-09T10:42:42Z</time>
      </trkpt>
      <trkpt lat="47.29993" lon="-2.35267">
        <ele>78</ele>
        <time>2017-11-09T10:42:42Z</time>
      </trkpt>
      <trkpt lat="47.29964" lon="-2.35299">
        <ele>80</ele>
        <time>2017-11-09T10:42:52Z</time>
      </trkpt>
      <trkpt lat="47.29951" lon="-2.35317">
        <ele>80</ele>
        <time>2017-11-09T10:42:57Z</time>
      </trkpt>
      <trkpt lat="47.29925" lon="-2.35351">
        <ele>79</ele>
        <time>2017-11-09T10:43:05Z</time>
      </trkpt>
      <trkpt lat="47.29905" lon="-2.35375">
        <ele>80</ele>
        <time>2017-11-09T10:43:10Z</time>
      </trkpt>
      <trkpt lat="47.29883" lon="-2.35399">
        <ele>79</ele>
        <time>2017-11-09T10:43:16Z</time>
      </trkpt>
      <trkpt lat="47.29861" lon="-2.35422">
        <ele>80</ele>
        <time>2017-11-09T10:43:22Z</time>
      </trkpt>
      <trkpt lat="47.29837" lon="-2.35449">
        <ele>80</ele>
        <time>2017-11-09T10:43:29Z</time>
      </trkpt>
      <trkpt lat="47.29833" lon="-2.3548">
        <ele>80</ele>
        <time>2017-11-09T10:43:35Z</time>
      </trkpt>
      <trkpt lat="47.29841" lon="-2.35513">
        <ele>81</ele>
        <time>2017-11-09T10:43:40Z</time>
      </trkpt>
      <trkpt lat="47.29846" lon="-2.35531">
        <ele>81</ele>
        <time>2017-11-09T10:43:43Z</time>
      </trkpt>
      <trkpt lat="47.29856" lon="-2.35565">
        <ele>80</ele>
        <time>2017-11-09T10:43:49Z</time>
      </trkpt>
      <trkpt lat="47.29865" lon="-2.35604">
        <ele>80</ele>
        <time>2017-11-09T10:43:56Z</time>
      </trkpt>
      <trkpt lat="47.29871" lon="-2.35638">
        <ele>80</ele>
        <time>2017-11-09T10:44:02Z</time>
      </trkpt>
      <trkpt lat="47.29878" lon="-2.3567">
        <ele>83</ele>
        <time>2017-11-09T10:44:07Z</time>
      </trkpt>
      <trkpt lat="47.29882" lon="-2.35689">
        <ele>84</ele>
        <time>2017-11-09T10:44:10Z</time>
      </trkpt>
      <trkpt lat="47.29889" lon="-2.35721">
        <ele>85</ele>
        <time>2017-11-09T10:44:15Z</time>
      </trkpt>
      <trkpt lat="47.29895" lon="-2.35748">
        <ele>86</ele>
        <time>2017-11-09T10:44:20Z</time>
      </trkpt>
      <trkpt lat="47.29888" lon="-2.35761">
        <ele>85</ele>
        <time>2017-11-09T10:44:27Z</time>
      </trkpt>
      <trkpt lat="47.29853" lon="-2.35779">
        <ele>83</ele>
        <time>2017-11-09T10:44:36Z</time>
      </trkpt>
      <trkpt lat="47.29831" lon="-2.35785">
        <ele>83</ele>
        <time>2017-11-09T10:44:41Z</time>
      </trkpt>
      <trkpt lat="47.29803" lon="-2.35794">
        <ele>84</ele>
        <time>2017-11-09T10:44:47Z</time>
      </trkpt>
      <trkpt lat="47.29779" lon="-2.35802">
        <ele>85</ele>
        <time>2017-11-09T10:44:52Z</time>
      </trkpt>
      <trkpt lat="47.29764" lon="-2.35807">
        <ele>85</ele>
        <time>2017-11-09T10:44:55Z</time>
      </trkpt>
      <trkpt lat="47.29733" lon="-2.35821">
        <ele>84</ele>
        <time>2017-11-09T10:45:01Z</time>
      </trkpt>
      <trkpt lat="47.29701" lon="-2.35839">
        <ele>83</ele>
        <time>2017-11-09T10:45:06Z</time>
      </trkpt>
      <trkpt lat="47.29667" lon="-2.35854">
        <ele>82</ele>
        <time>2017-11-09T10:45:12Z</time>
      </trkpt>
      <trkpt lat="47.29632" lon="-2.35878">
        <ele>82</ele>
        <time>2017-11-09T10:45:18Z</time>
      </trkpt>
      <trkpt lat="47.29596" lon="-2.359">
        <ele>82</ele>
        <time>2017-11-09T10:45:24Z</time>
      </trkpt>
      <trkpt lat="47.29562" lon="-2.35919">
        <ele>82</ele>
        <time>2017-11-09T10:45:30Z</time>
      </trkpt>
      <trkpt lat="47.2953" lon="-2.35937">
        <ele>83</ele>
        <time>2017-11-09T10:45:36Z</time>
      </trkpt>
      <trkpt lat="47.29508" lon="-2.35934">
        <ele>83</ele>
        <time>2017-11-09T10:45:42Z</time>
      </trkpt>
      <trkpt lat="47.29487" lon="-2.35899">
        <ele>83</ele>
        <time>2017-11-09T10:45:49Z</time>
      </trkpt>
      <trkpt lat="47.29458" lon="-2.35903">
        <ele>86</ele>
        <time>2017-11-09T10:45:55Z</time>
      </trkpt>
      <trkpt lat="47.29435" lon="-2.35917">
        <ele>85</ele>
        <time>2017-11-09T10:46:02Z</time>
      </trkpt>
      <trkpt lat="47.29412" lon="-2.35877">
        <ele>84</ele>
        <time>2017-11-09T10:46:10Z</time>
      </trkpt>
      <trkpt lat="47.29388" lon="-2.3585">
        <ele>83</ele>
        <time>2017-11-09T10:46:16Z</time>
      </trkpt>
      <trkpt lat="47.29364" lon="-2.35827">
        <ele>84</ele>
        <time>2017-11-09T10:46:22Z</time>
      </trkpt>
      <trkpt lat="47.29352" lon="-2.35816">
        <ele>83</ele>
        <time>2017-11-09T10:46:31Z</time>
      </trkpt>
      <trkpt lat="47.29324" lon="-2.35792">
        <ele>81</ele>
        <time>2017-11-09T10:46:41Z</time>
      </trkpt>
      <trkpt lat="47.29298" lon="-2.3577">
        <ele>81</ele>
        <time>2017-11-09T10:46:47Z</time>
      </trkpt>
      <trkpt lat="47.29278" lon="-2.3575">
        <ele>81</ele>
        <time>2017-11-09T10:46:52Z</time>
      </trkpt>
      <trkpt lat="47.29262" lon="-2.35737">
        <ele>82</ele>
        <time>2017-11-09T10:46:56Z</time>
      </trkpt>
      <trkpt lat="47.29238" lon="-2.3576">
        <ele>82</ele>
        <time>2017-11-09T10:47:02Z</time>
      </trkpt>
      <trkpt lat="47.29226" lon="-2.35775">
        <ele>82</ele>
        <time>2017-11-09T10:47:05Z</time>
      </trkpt>
      <trkpt lat="47.29212" lon="-2.35789">
        <ele>83</ele>
        <time>2017-11-09T10:47:08Z</time>
      </trkpt>
      <trkpt lat="47.29181" lon="-2.35814">
        <ele>83</ele>
        <time>2017-11-09T10:47:14Z</time>
      </trkpt>
      <trkpt lat="47.29154" lon="-2.35831">
        <ele>82</ele>
        <time>2017-11-09T10:47:19Z</time>
      </trkpt>
      <trkpt lat="47.2913" lon="-2.35851">
        <ele>81</ele>
        <time>2017-11-09T10:47:24Z</time>
      </trkpt>
      <trkpt lat="47.29107" lon="-2.35876">
        <ele>81</ele>
        <time>2017-11-09T10:47:29Z</time>
      </trkpt>
      <trkpt lat="47.29081" lon="-2.35907">
        <ele>82</ele>
        <time>2017-11-09T10:47:35Z</time>
      </trkpt>
      <trkpt lat="47.29059" lon="-2.35935">
        <ele>83</ele>
        <time>2017-11-09T10:47:40Z</time>
      </trkpt>
      <trkpt lat="47.29045" lon="-2.35951">
        <ele>83</ele>
        <time>2017-11-09T10:47:43Z</time>
      </trkpt>
      <trkpt lat="47.29032" lon="-2.35966">
        <ele>83</ele>
        <time>2017-11-09T10:47:46Z</time>
      </trkpt>
      <trkpt lat="47.2901" lon="-2.35989">
        <ele>84</ele>
        <time>2017-11-09T10:47:51Z</time>
      </trkpt>
      <trkpt lat="47.28984" lon="-2.36018">
        <ele>84</ele>
        <time>2017-11-09T10:47:56Z</time>
      </trkpt>
      <trkpt lat="47.28953" lon="-2.36044">
        <ele>83</ele>
        <time>2017-11-09T10:48:02Z</time>
      </trkpt>
      <trkpt lat="47.28925" lon="-2.36062">
        <ele>82</ele>
        <time>2017-11-09T10:48:07Z</time>
      </trkpt>
      <trkpt lat="47.28898" lon="-2.36084">
        <ele>82</ele>
        <time>2017-11-09T10:48:12Z</time>
      </trkpt>
      <trkpt lat="47.28875" lon="-2.36109">
        <ele>82</ele>
        <time>2017-11-09T10:48:17Z</time>
      </trkpt>
      <trkpt lat="47.28859" lon="-2.36122">
        <ele>82</ele>
        <time>2017-11-09T10:48:20Z</time>
      </trkpt>
      <trkpt lat="47.28836" lon="-2.36151">
        <ele>83</ele>
        <time>2017-11-09T10:48:25Z</time>
      </trkpt>
      <trkpt lat="47.28823" lon="-2.36169">
        <ele>82</ele>
        <time>2017-11-09T10:48:28Z</time>
      </trkpt>
      <trkpt lat="47.28798" lon="-2.36193">
        <ele>82</ele>
        <time>2017-11-09T10:48:33Z</time>
      </trkpt>
      <trkpt lat="47.28772" lon="-2.36212">
        <ele>82</ele>
        <time>2017-11-09T10:48:39Z</time>
      </trkpt>
      <trkpt lat="47.28752" lon="-2.36222">
        <ele>81</ele>
        <time>2017-11-09T10:48:45Z</time>
      </trkpt>
      <trkpt lat="47.28752" lon="-2.36222">
        <ele>81</ele>
        <time>2017-11-09T10:48:51Z</time>
      </trkpt>
      <trkpt lat="47.28752" lon="-2.36222">
        <ele>36</ele>
        <time>2017-11-09T10:48:52Z</time>
      </trkpt>
      <trkpt lat="47.28752" lon="-2.36222">
        <ele>36</ele>
        <time>2017-11-09T10:50:42Z</time>
      </trkpt>
      <trkpt lat="47.28739" lon="-2.36234">
        <ele>80</ele>
        <time>2017-11-09T10:50:42Z</time>
      </trkpt>
      <trkpt lat="47.2872" lon="-2.36258">
        <ele>78</ele>
        <time>2017-11-09T10:50:54Z</time>
      </trkpt>
      <trkpt lat="47.28696" lon="-2.36277">
        <ele>74</ele>
        <time>2017-11-09T10:51:03Z</time>
      </trkpt>
      <trkpt lat="47.28684" lon="-2.36281">
        <ele>72</ele>
        <time>2017-11-09T10:51:09Z</time>
      </trkpt>
      <trkpt lat="47.28676" lon="-2.36257">
        <ele>70</ele>
        <time>2017-11-09T10:51:19Z</time>
      </trkpt>
      <trkpt lat="47.28674" lon="-2.36221">
        <ele>69</ele>
        <time>2017-11-09T10:51:30Z</time>
      </trkpt>
      <trkpt lat="47.28651" lon="-2.36193">
        <ele>66</ele>
        <time>2017-11-09T10:51:41Z</time>
      </trkpt>
      <trkpt lat="47.28636" lon="-2.36173">
        <ele>65</ele>
        <time>2017-11-09T10:51:49Z</time>
      </trkpt>
      <trkpt lat="47.28621" lon="-2.36178">
        <ele>64</ele>
        <time>2017-11-09T10:51:56Z</time>
      </trkpt>
      <trkpt lat="47.2859" lon="-2.36177">
        <ele>61</ele>
        <time>2017-11-09T10:52:05Z</time>
      </trkpt>
      <trkpt lat="47.28573" lon="-2.36176">
        <ele>58</ele>
        <time>2017-11-09T10:52:11Z</time>
      </trkpt>
      <trkpt lat="47.28554" lon="-2.3616">
        <ele>55</ele>
        <time>2017-11-09T10:52:17Z</time>
      </trkpt>
      <trkpt lat="47.28544" lon="-2.36142">
        <ele>56</ele>
        <time>2017-11-09T10:52:23Z</time>
      </trkpt>
      <trkpt lat="47.28515" lon="-2.36108">
        <ele>55</ele>
        <time>2017-11-09T10:52:31Z</time>
      </trkpt>
      <trkpt lat="47.28494" lon="-2.36098">
        <ele>54</ele>
        <time>2017-11-09T10:52:36Z</time>
      </trkpt>
      <trkpt lat="47.28474" lon="-2.36074">
        <ele>56</ele>
        <time>2017-11-09T10:52:41Z</time>
      </trkpt>
      <trkpt lat="47.28452" lon="-2.36052">
        <ele>57</ele>
        <time>2017-11-09T10:52:48Z</time>
      </trkpt>
      <trkpt lat="47.28437" lon="-2.36049">
        <ele>57</ele>
        <time>2017-11-09T10:52:54Z</time>
      </trkpt>
      <trkpt lat="47.28408" lon="-2.36044">
        <ele>55</ele>
        <time>2017-11-09T10:53:01Z</time>
      </trkpt>
      <trkpt lat="47.28367" lon="-2.36051">
        <ele>53</ele>
        <time>2017-11-09T10:53:07Z</time>
      </trkpt>
      <trkpt lat="47.28331" lon="-2.36066">
        <ele>48</ele>
        <time>2017-11-09T10:53:13Z</time>
      </trkpt>
      <trkpt lat="47.28304" lon="-2.36057">
        <ele>46</ele>
        <time>2017-11-09T10:53:19Z</time>
      </trkpt>
      <trkpt lat="47.28291" lon="-2.36037">
        <ele>46</ele>
        <time>2017-11-09T10:53:24Z</time>
      </trkpt>
      <trkpt lat="47.28267" lon="-2.36037">
        <ele>45</ele>
        <time>2017-11-09T10:53:30Z</time>
      </trkpt>
      <trkpt lat="47.28244" lon="-2.36043">
        <ele>42</ele>
        <time>2017-11-09T10:53:35Z</time>
      </trkpt>
      <trkpt lat="47.28225" lon="-2.36032">
        <ele>42</ele>
        <time>2017-11-09T10:53:40Z</time>
      </trkpt>
      <trkpt lat="47.28203" lon="-2.36006">
        <ele>43</ele>
        <time>2017-11-09T10:53:46Z</time>
      </trkpt>
      <trkpt lat="47.28191" lon="-2.3599">
        <ele>43</ele>
        <time>2017-11-09T10:53:51Z</time>
      </trkpt>
      <trkpt lat="47.28179" lon="-2.35957">
        <ele>43</ele>
        <time>2017-11-09T10:53:59Z</time>
      </trkpt>
      <trkpt lat="47.28176" lon="-2.35934">
        <ele>42</ele>
        <time>2017-11-09T10:54:04Z</time>
      </trkpt>
      <trkpt lat="47.28169" lon="-2.3591">
        <ele>42</ele>
        <time>2017-11-09T10:54:11Z</time>
      </trkpt>
      <trkpt lat="47.28144" lon="-2.35885">
        <ele>40</ele>
        <time>2017-11-09T10:54:20Z</time>
      </trkpt>
      <trkpt lat="47.28136" lon="-2.35845">
        <ele>38</ele>
        <time>2017-11-09T10:54:27Z</time>
      </trkpt>
      <trkpt lat="47.28123" lon="-2.35828">
        <ele>37</ele>
        <time>2017-11-09T10:54:32Z</time>
      </trkpt>
      <trkpt lat="47.28111" lon="-2.35833">
        <ele>36</ele>
        <time>2017-11-09T10:54:37Z</time>
      </trkpt>
      <trkpt lat="47.28095" lon="-2.35825">
        <ele>35</ele>
        <time>2017-11-09T10:54:48Z</time>
      </trkpt>
      <trkpt lat="47.28096" lon="-2.35773">
        <ele>38</ele>
        <time>2017-11-09T10:54:59Z</time>
      </trkpt>
      <trkpt lat="47.28098" lon="-2.35741">
        <ele>41</ele>
        <time>2017-11-09T10:55:05Z</time>
      </trkpt>
      <trkpt lat="47.28089" lon="-2.35695">
        <ele>44</ele>
        <time>2017-11-09T10:55:12Z</time>
      </trkpt>
      <trkpt lat="47.28082" lon="-2.35639">
        <ele>49</ele>
        <time>2017-11-09T10:55:18Z</time>
      </trkpt>
      <trkpt lat="47.28064" lon="-2.35618">
        <ele>52</ele>
        <time>2017-11-09T10:55:24Z</time>
      </trkpt>
      <trkpt lat="47.28049" lon="-2.35612">
        <ele>57</ele>
        <time>2017-11-09T10:55:27Z</time>
      </trkpt>
      <trkpt lat="47.28034" lon="-2.35585">
        <ele>60</ele>
        <time>2017-11-09T10:55:32Z</time>
      </trkpt>
      <trkpt lat="47.28029" lon="-2.35573">
        <ele>61</ele>
        <time>2017-11-09T10:55:37Z</time>
      </trkpt>
      <trkpt lat="47.28029" lon="-2.35573">
        <ele>20.6</ele>
        <time>2017-11-09T10:55:43Z</time>
      </trkpt>
      <trkpt lat="47.28029" lon="-2.35573">
        <ele>20.6</ele>
        <time>2017-11-09T11:02:12Z</time>
      </trkpt>
      <trkpt lat="47.28009" lon="-2.35561">
        <ele>64</ele>
        <time>2017-11-09T11:02:12Z</time>
      </trkpt>
      <trkpt lat="47.27994" lon="-2.35565">
        <ele>63</ele>
        <time>2017-11-09T11:02:18Z</time>
      </trkpt>
      <trkpt lat="47.27977" lon="-2.35569">
        <ele>63</ele>
        <time>2017-11-09T11:02:25Z</time>
      </trkpt>
      <trkpt lat="47.27953" lon="-2.35582">
        <ele>64</ele>
        <time>2017-11-09T11:02:33Z</time>
      </trkpt>
      <trkpt lat="47.27925" lon="-2.35591">
        <ele>62</ele>
        <time>2017-11-09T11:02:41Z</time>
      </trkpt>
      <trkpt lat="47.27891" lon="-2.35595">
        <ele>65</ele>
        <time>2017-11-09T11:02:49Z</time>
      </trkpt>
      <trkpt lat="47.27861" lon="-2.35604">
        <ele>65</ele>
        <time>2017-11-09T11:02:55Z</time>
      </trkpt>
      <trkpt lat="47.27835" lon="-2.35612">
        <ele>64</ele>
        <time>2017-11-09T11:03:00Z</time>
      </trkpt>
      <trkpt lat="47.27818" lon="-2.35615">
        <ele>63</ele>
        <time>2017-11-09T11:03:03Z</time>
      </trkpt>
      <trkpt lat="47.27802" lon="-2.35622">
        <ele>64</ele>
        <time>2017-11-09T11:03:06Z</time>
      </trkpt>
      <trkpt lat="47.27785" lon="-2.3563">
        <ele>62</ele>
        <time>2017-11-09T11:03:09Z</time>
      </trkpt>
      <trkpt lat="47.27761" lon="-2.35652">
        <ele>61</ele>
        <time>2017-11-09T11:03:14Z</time>
      </trkpt>
      <trkpt lat="47.27742" lon="-2.35678">
        <ele>60</ele>
        <time>2017-11-09T11:03:19Z</time>
      </trkpt>
      <trkpt lat="47.27721" lon="-2.35708">
        <ele>60</ele>
        <time>2017-11-09T11:03:24Z</time>
      </trkpt>
      <trkpt lat="47.27707" lon="-2.35723">
        <ele>60</ele>
        <time>2017-11-09T11:03:27Z</time>
      </trkpt>
      <trkpt lat="47.2768" lon="-2.35749">
        <ele>58</ele>
        <time>2017-11-09T11:03:33Z</time>
      </trkpt>
      <trkpt lat="47.27656" lon="-2.35731">
        <ele>57</ele>
        <time>2017-11-09T11:03:39Z</time>
      </trkpt>
      <trkpt lat="47.27632" lon="-2.35721">
        <ele>55</ele>
        <time>2017-11-09T11:03:44Z</time>
      </trkpt>
      <trkpt lat="47.27595" lon="-2.35713">
        <ele>55</ele>
        <time>2017-11-09T11:03:50Z</time>
      </trkpt>
      <trkpt lat="47.27564" lon="-2.35702">
        <ele>56</ele>
        <time>2017-11-09T11:03:55Z</time>
      </trkpt>
      <trkpt lat="47.27529" lon="-2.35692">
        <ele>57</ele>
        <time>2017-11-09T11:04:01Z</time>
      </trkpt>
      <trkpt lat="47.2751" lon="-2.35688">
        <ele>56</ele>
        <time>2017-11-09T11:04:04Z</time>
      </trkpt>
      <trkpt lat="47.2748" lon="-2.35681">
        <ele>55</ele>
        <time>2017-11-09T11:04:09Z</time>
      </trkpt>
      <trkpt lat="47.27451" lon="-2.35678">
        <ele>54</ele>
        <time>2017-11-09T11:04:14Z</time>
      </trkpt>
      <trkpt lat="47.27422" lon="-2.35674">
        <ele>54</ele>
        <time>2017-11-09T11:04:19Z</time>
      </trkpt>
      <trkpt lat="47.27404" lon="-2.35675">
        <ele>54</ele>
        <time>2017-11-09T11:04:22Z</time>
      </trkpt>
      <trkpt lat="47.27388" lon="-2.35682">
        <ele>54</ele>
        <time>2017-11-09T11:04:25Z</time>
      </trkpt>
      <trkpt lat="47.27373" lon="-2.35691">
        <ele>53</ele>
        <time>2017-11-09T11:04:28Z</time>
      </trkpt>
      <trkpt lat="47.27343" lon="-2.35712">
        <ele>53</ele>
        <time>2017-11-09T11:04:34Z</time>
      </trkpt>
      <trkpt lat="47.27325" lon="-2.3573">
        <ele>54</ele>
        <time>2017-11-09T11:04:41Z</time>
      </trkpt>
      <trkpt lat="47.27316" lon="-2.35743">
        <ele>54</ele>
        <time>2017-11-09T11:04:50Z</time>
      </trkpt>
      <trkpt lat="47.27303" lon="-2.35722">
        <ele>55</ele>
        <time>2017-11-09T11:04:56Z</time>
      </trkpt>
      <trkpt lat="47.27286" lon="-2.35677">
        <ele>57</ele>
        <time>2017-11-09T11:05:04Z</time>
      </trkpt>
      <trkpt lat="47.27269" lon="-2.35646">
        <ele>58</ele>
        <time>2017-11-09T11:05:11Z</time>
      </trkpt>
      <trkpt lat="47.27256" lon="-2.35618">
        <ele>58</ele>
        <time>2017-11-09T11:05:17Z</time>
      </trkpt>
      <trkpt lat="47.27243" lon="-2.35588">
        <ele>57</ele>
        <time>2017-11-09T11:05:23Z</time>
      </trkpt>
      <trkpt lat="47.27227" lon="-2.35554">
        <ele>59</ele>
        <time>2017-11-09T11:05:30Z</time>
      </trkpt>
      <trkpt lat="47.27215" lon="-2.35524">
        <ele>61</ele>
        <time>2017-11-09T11:05:36Z</time>
      </trkpt>
      <trkpt lat="47.27203" lon="-2.35495">
        <ele>61</ele>
        <time>2017-11-09T11:05:41Z</time>
      </trkpt>
      <trkpt lat="47.27185" lon="-2.35466">
        <ele>62</ele>
        <time>2017-11-09T11:05:47Z</time>
      </trkpt>
      <trkpt lat="47.27167" lon="-2.35433">
        <ele>63</ele>
        <time>2017-11-09T11:05:53Z</time>
      </trkpt>
      <trkpt lat="47.27148" lon="-2.35396">
        <ele>62</ele>
        <time>2017-11-09T11:05:59Z</time>
      </trkpt>
      <trkpt lat="47.27127" lon="-2.3536">
        <ele>60</ele>
        <time>2017-11-09T11:06:05Z</time>
      </trkpt>
      <trkpt lat="47.27109" lon="-2.35331">
        <ele>59</ele>
        <time>2017-11-09T11:06:11Z</time>
      </trkpt>
      <trkpt lat="47.27091" lon="-2.35301">
        <ele>59</ele>
        <time>2017-11-09T11:06:17Z</time>
      </trkpt>
      <trkpt lat="47.27072" lon="-2.35273">
        <ele>60</ele>
        <time>2017-11-09T11:06:22Z</time>
      </trkpt>
      <trkpt lat="47.27045" lon="-2.35231">
        <ele>59</ele>
        <time>2017-11-09T11:06:28Z</time>
      </trkpt>
      <trkpt lat="47.27011" lon="-2.35181">
        <ele>59</ele>
        <time>2017-11-09T11:06:34Z</time>
      </trkpt>
      <trkpt lat="47.26982" lon="-2.35136">
        <ele>59</ele>
        <time>2017-11-09T11:06:39Z</time>
      </trkpt>
      <trkpt lat="47.26945" lon="-2.35079">
        <ele>59</ele>
        <time>2017-11-09T11:06:45Z</time>
      </trkpt>
      <trkpt lat="47.26905" lon="-2.35018">
        <ele>59</ele>
        <time>2017-11-09T11:06:51Z</time>
      </trkpt>
      <trkpt lat="47.26873" lon="-2.34969">
        <ele>58</ele>
        <time>2017-11-09T11:06:56Z</time>
      </trkpt>
      <trkpt lat="47.26834" lon="-2.34909">
        <ele>59</ele>
        <time>2017-11-09T11:07:02Z</time>
      </trkpt>
      <trkpt lat="47.26795" lon="-2.34852">
        <ele>60</ele>
        <time>2017-11-09T11:07:08Z</time>
      </trkpt>
      <trkpt lat="47.26756" lon="-2.34801">
        <ele>58</ele>
        <time>2017-11-09T11:07:14Z</time>
      </trkpt>
      <trkpt lat="47.26725" lon="-2.34758">
        <ele>58</ele>
        <time>2017-11-09T11:07:19Z</time>
      </trkpt>
      <trkpt lat="47.26694" lon="-2.34721">
        <ele>58</ele>
        <time>2017-11-09T11:07:24Z</time>
      </trkpt>
      <trkpt lat="47.26676" lon="-2.34701">
        <ele>58</ele>
        <time>2017-11-09T11:07:27Z</time>
      </trkpt>
      <trkpt lat="47.26644" lon="-2.34662">
        <ele>57</ele>
        <time>2017-11-09T11:07:32Z</time>
      </trkpt>
      <trkpt lat="47.26614" lon="-2.34624">
        <ele>57</ele>
        <time>2017-11-09T11:07:37Z</time>
      </trkpt>
      <trkpt lat="47.26584" lon="-2.34588">
        <ele>56</ele>
        <time>2017-11-09T11:07:42Z</time>
      </trkpt>
      <trkpt lat="47.26546" lon="-2.34549">
        <ele>57</ele>
        <time>2017-11-09T11:07:48Z</time>
      </trkpt>
      <trkpt lat="47.26519" lon="-2.34525">
        <ele>57</ele>
        <time>2017-11-09T11:07:52Z</time>
      </trkpt>
      <trkpt lat="47.26474" lon="-2.34493">
        <ele>58</ele>
        <time>2017-11-09T11:07:58Z</time>
      </trkpt>
      <trkpt lat="47.2643" lon="-2.34461">
        <ele>57</ele>
        <time>2017-11-09T11:08:04Z</time>
      </trkpt>
      <trkpt lat="47.26393" lon="-2.34431">
        <ele>57</ele>
        <time>2017-11-09T11:08:09Z</time>
      </trkpt>
      <trkpt lat="47.26359" lon="-2.344">
        <ele>57</ele>
        <time>2017-11-09T11:08:14Z</time>
      </trkpt>
      <trkpt lat="47.26322" lon="-2.34374">
        <ele>57</ele>
        <time>2017-11-09T11:08:19Z</time>
      </trkpt>
      <trkpt lat="47.26291" lon="-2.34338">
        <ele>56</ele>
        <time>2017-11-09T11:08:24Z</time>
      </trkpt>
      <trkpt lat="47.26253" lon="-2.34297">
        <ele>55</ele>
        <time>2017-11-09T11:08:30Z</time>
      </trkpt>
      <trkpt lat="47.26214" lon="-2.34256">
        <ele>56</ele>
        <time>2017-11-09T11:08:36Z</time>
      </trkpt>
      <trkpt lat="47.26174" lon="-2.34214">
        <ele>56</ele>
        <time>2017-11-09T11:08:42Z</time>
      </trkpt>
      <trkpt lat="47.26133" lon="-2.34179">
        <ele>56</ele>
        <time>2017-11-09T11:08:48Z</time>
      </trkpt>
      <trkpt lat="47.2609" lon="-2.34149">
        <ele>56</ele>
        <time>2017-11-09T11:08:54Z</time>
      </trkpt>
      <trkpt lat="47.26044" lon="-2.34126">
        <ele>55</ele>
        <time>2017-11-09T11:09:00Z</time>
      </trkpt>
      <trkpt lat="47.26006" lon="-2.34107">
        <ele>54</ele>
        <time>2017-11-09T11:09:05Z</time>
      </trkpt>
      <trkpt lat="47.25964" lon="-2.34086">
        <ele>52</ele>
        <time>2017-11-09T11:09:11Z</time>
      </trkpt>
      <trkpt lat="47.25923" lon="-2.34074">
        <ele>52</ele>
        <time>2017-11-09T11:09:17Z</time>
      </trkpt>
      <trkpt lat="47.25897" lon="-2.34044">
        <ele>52</ele>
        <time>2017-11-09T11:09:23Z</time>
      </trkpt>
      <trkpt lat="47.25913" lon="-2.33985">
        <ele>52</ele>
        <time>2017-11-09T11:09:29Z</time>
      </trkpt>
      <trkpt lat="47.25936" lon="-2.33932">
        <ele>52</ele>
        <time>2017-11-09T11:09:35Z</time>
      </trkpt>
      <trkpt lat="47.25956" lon="-2.33882">
        <ele>54</ele>
        <time>2017-11-09T11:09:42Z</time>
      </trkpt>
      <trkpt lat="47.25969" lon="-2.33843">
        <ele>54</ele>
        <time>2017-11-09T11:09:47Z</time>
      </trkpt>
      <trkpt lat="47.25984" lon="-2.33796">
        <ele>54</ele>
        <time>2017-11-09T11:09:53Z</time>
      </trkpt>
      <trkpt lat="47.25999" lon="-2.33749">
        <ele>54</ele>
        <time>2017-11-09T11:09:59Z</time>
      </trkpt>
      <trkpt lat="47.26015" lon="-2.33703">
        <ele>54</ele>
        <time>2017-11-09T11:10:05Z</time>
      </trkpt>
      <trkpt lat="47.26024" lon="-2.33648">
        <ele>53</ele>
        <time>2017-11-09T11:10:12Z</time>
      </trkpt>
      <trkpt lat="47.26016" lon="-2.336">
        <ele>53</ele>
        <time>2017-11-09T11:10:18Z</time>
      </trkpt>
      <trkpt lat="47.25996" lon="-2.33559">
        <ele>53</ele>
        <time>2017-11-09T11:10:24Z</time>
      </trkpt>
      <trkpt lat="47.25977" lon="-2.33523">
        <ele>53</ele>
        <time>2017-11-09T11:10:30Z</time>
      </trkpt>
      <trkpt lat="47.25959" lon="-2.33509">
        <ele>51</ele>
        <time>2017-11-09T11:10:36Z</time>
      </trkpt>
      <trkpt lat="47.2594" lon="-2.33524">
        <ele>51</ele>
        <time>2017-11-09T11:10:43Z</time>
      </trkpt>
      <trkpt lat="47.25922" lon="-2.3354">
        <ele>51</ele>
        <time>2017-11-09T11:10:49Z</time>
      </trkpt>
      <trkpt lat="47.25913" lon="-2.33549">
        <ele>51</ele>
        <time>2017-11-09T11:10:52Z</time>
      </trkpt>
      <trkpt lat="47.25897" lon="-2.33562">
        <ele>52</ele>
        <time>2017-11-09T11:10:57Z</time>
      </trkpt>
      <trkpt lat="47.25887" lon="-2.3357">
        <ele>51</ele>
        <time>2017-11-09T11:11:00Z</time>
      </trkpt>
      <trkpt lat="47.25854" lon="-2.33581">
        <ele>56</ele>
        <time>2017-11-09T11:11:08Z</time>
      </trkpt>
      <trkpt lat="47.25831" lon="-2.33582">
        <ele>56</ele>
        <time>2017-11-09T11:11:14Z</time>
      </trkpt>
      <trkpt lat="47.25811" lon="-2.3356">
        <ele>55</ele>
        <time>2017-11-09T11:11:22Z</time>
      </trkpt>
      <trkpt lat="47.25806" lon="-2.33527">
        <ele>55</ele>
        <time>2017-11-09T11:11:27Z</time>
      </trkpt>
      <trkpt lat="47.25799" lon="-2.33493">
        <ele>56</ele>
        <time>2017-11-09T11:11:32Z</time>
      </trkpt>
      <trkpt lat="47.2579" lon="-2.33452">
        <ele>56</ele>
        <time>2017-11-09T11:11:38Z</time>
      </trkpt>
      <trkpt lat="47.25786" lon="-2.33432">
        <ele>56</ele>
        <time>2017-11-09T11:11:41Z</time>
      </trkpt>
      <trkpt lat="47.25776" lon="-2.33394">
        <ele>56</ele>
        <time>2017-11-09T11:11:47Z</time>
      </trkpt>
      <trkpt lat="47.25765" lon="-2.33357">
        <ele>55</ele>
        <time>2017-11-09T11:11:53Z</time>
      </trkpt>
      <trkpt lat="47.25741" lon="-2.33327">
        <ele>58</ele>
        <time>2017-11-09T11:11:59Z</time>
      </trkpt>
      <trkpt lat="47.25725" lon="-2.33289">
        <ele>59</ele>
        <time>2017-11-09T11:12:05Z</time>
      </trkpt>
      <trkpt lat="47.25714" lon="-2.33248">
        <ele>60</ele>
        <time>2017-11-09T11:12:11Z</time>
      </trkpt>
      <trkpt lat="47.25703" lon="-2.33209">
        <ele>60</ele>
        <time>2017-11-09T11:12:17Z</time>
      </trkpt>
      <trkpt lat="47.2569" lon="-2.33172">
        <ele>61</ele>
        <time>2017-11-09T11:12:23Z</time>
      </trkpt>
      <trkpt lat="47.25676" lon="-2.33138">
        <ele>61</ele>
        <time>2017-11-09T11:12:29Z</time>
      </trkpt>
      <trkpt lat="47.25659" lon="-2.33107">
        <ele>61</ele>
        <time>2017-11-09T11:12:35Z</time>
      </trkpt>
      <trkpt lat="47.25644" lon="-2.33072">
        <ele>60</ele>
        <time>2017-11-09T11:12:41Z</time>
      </trkpt>
      <trkpt lat="47.25626" lon="-2.33036">
        <ele>59</ele>
        <time>2017-11-09T11:12:47Z</time>
      </trkpt>
      <trkpt lat="47.2561" lon="-2.32989">
        <ele>60</ele>
        <time>2017-11-09T11:12:54Z</time>
      </trkpt>
      <trkpt lat="47.25604" lon="-2.32949">
        <ele>62</ele>
        <time>2017-11-09T11:13:00Z</time>
      </trkpt>
      <trkpt lat="47.256" lon="-2.32914">
        <ele>62</ele>
        <time>2017-11-09T11:13:05Z</time>
      </trkpt>
      <trkpt lat="47.25593" lon="-2.32865">
        <ele>62</ele>
        <time>2017-11-09T11:13:12Z</time>
      </trkpt>
      <trkpt lat="47.25588" lon="-2.32829">
        <ele>63</ele>
        <time>2017-11-09T11:13:17Z</time>
      </trkpt>
      <trkpt lat="47.25596" lon="-2.32784">
        <ele>62</ele>
        <time>2017-11-09T11:13:24Z</time>
      </trkpt>
      <trkpt lat="47.256" lon="-2.32743">
        <ele>62</ele>
        <time>2017-11-09T11:13:30Z</time>
      </trkpt>
      <trkpt lat="47.25601" lon="-2.3271">
        <ele>62</ele>
        <time>2017-11-09T11:13:35Z</time>
      </trkpt>
      <trkpt lat="47.25601" lon="-2.32672">
        <ele>62</ele>
        <time>2017-11-09T11:13:42Z</time>
      </trkpt>
      <trkpt lat="47.25588" lon="-2.32671">
        <ele>62</ele>
        <time>2017-11-09T11:13:47Z</time>
      </trkpt>
      <trkpt lat="47.25561" lon="-2.32684">
        <ele>61</ele>
        <time>2017-11-09T11:13:53Z</time>
      </trkpt>
      <trkpt lat="47.2554" lon="-2.32695">
        <ele>60</ele>
        <time>2017-11-09T11:13:58Z</time>
      </trkpt>
      <trkpt lat="47.25509" lon="-2.32704">
        <ele>60</ele>
        <time>2017-11-09T11:14:04Z</time>
      </trkpt>
      <trkpt lat="47.25494" lon="-2.32704">
        <ele>60</ele>
        <time>2017-11-09T11:14:07Z</time>
      </trkpt>
      <trkpt lat="47.25486" lon="-2.32674">
        <ele>60</ele>
        <time>2017-11-09T11:14:12Z</time>
      </trkpt>
      <trkpt lat="47.25481" lon="-2.32632">
        <ele>59</ele>
        <time>2017-11-09T11:14:18Z</time>
      </trkpt>
      <trkpt lat="47.25474" lon="-2.32591">
        <ele>57</ele>
        <time>2017-11-09T11:14:24Z</time>
      </trkpt>
      <trkpt lat="47.25463" lon="-2.32558">
        <ele>58</ele>
        <time>2017-11-09T11:14:29Z</time>
      </trkpt>
      <trkpt lat="47.25451" lon="-2.32519">
        <ele>59</ele>
        <time>2017-11-09T11:14:35Z</time>
      </trkpt>
      <trkpt lat="47.2544" lon="-2.32474">
        <ele>59</ele>
        <time>2017-11-09T11:14:41Z</time>
      </trkpt>
      <trkpt lat="47.25427" lon="-2.32423">
        <ele>61</ele>
        <time>2017-11-09T11:14:47Z</time>
      </trkpt>
      <trkpt lat="47.25416" lon="-2.32379">
        <ele>61</ele>
        <time>2017-11-09T11:14:52Z</time>
      </trkpt>
      <trkpt lat="47.25405" lon="-2.32337">
        <ele>61</ele>
        <time>2017-11-09T11:14:57Z</time>
      </trkpt>
      <trkpt lat="47.25388" lon="-2.32285">
        <ele>61</ele>
        <time>2017-11-09T11:15:03Z</time>
      </trkpt>
      <trkpt lat="47.2537" lon="-2.32233">
        <ele>62</ele>
        <time>2017-11-09T11:15:09Z</time>
      </trkpt>
      <trkpt lat="47.25354" lon="-2.32186">
        <ele>62</ele>
        <time>2017-11-09T11:15:15Z</time>
      </trkpt>
      <trkpt lat="47.25342" lon="-2.32146">
        <ele>63</ele>
        <time>2017-11-09T11:15:21Z</time>
      </trkpt>
      <trkpt lat="47.25335" lon="-2.32114">
        <ele>64</ele>
        <time>2017-11-09T11:15:26Z</time>
      </trkpt>
      <trkpt lat="47.25353" lon="-2.32073">
        <ele>63</ele>
        <time>2017-11-09T11:15:33Z</time>
      </trkpt>
      <trkpt lat="47.25363" lon="-2.32048">
        <ele>63</ele>
        <time>2017-11-09T11:15:39Z</time>
      </trkpt>
      <trkpt lat="47.25383" lon="-2.32023">
        <ele>63</ele>
        <time>2017-11-09T11:15:45Z</time>
      </trkpt>
      <trkpt lat="47.25403" lon="-2.31996">
        <ele>63</ele>
        <time>2017-11-09T11:15:51Z</time>
      </trkpt>
      <trkpt lat="47.25419" lon="-2.31975">
        <ele>64</ele>
        <time>2017-11-09T11:15:56Z</time>
      </trkpt>
      <trkpt lat="47.25436" lon="-2.31954">
        <ele>65</ele>
        <time>2017-11-09T11:16:01Z</time>
      </trkpt>
      <trkpt lat="47.25445" lon="-2.31937">
        <ele>65</ele>
        <time>2017-11-09T11:16:04Z</time>
      </trkpt>
      <trkpt lat="47.25451" lon="-2.31918">
        <ele>65</ele>
        <time>2017-11-09T11:16:07Z</time>
      </trkpt>
      <trkpt lat="47.25456" lon="-2.31877">
        <ele>67</ele>
        <time>2017-11-09T11:16:13Z</time>
      </trkpt>
      <trkpt lat="47.25455" lon="-2.31846">
        <ele>68</ele>
        <time>2017-11-09T11:16:18Z</time>
      </trkpt>
      <trkpt lat="47.25473" lon="-2.31827">
        <ele>68</ele>
        <time>2017-11-09T11:16:24Z</time>
      </trkpt>
      <trkpt lat="47.25495" lon="-2.31821">
        <ele>67</ele>
        <time>2017-11-09T11:16:29Z</time>
      </trkpt>
      <trkpt lat="47.25509" lon="-2.31841">
        <ele>67</ele>
        <time>2017-11-09T11:16:36Z</time>
      </trkpt>
      <trkpt lat="47.25514" lon="-2.31852">
        <ele>66</ele>
        <time>2017-11-09T11:16:40Z</time>
      </trkpt>
      <trkpt lat="47.25514" lon="-2.31852">
        <ele>18.7</ele>
        <time>2017-11-09T11:16:45Z</time>
      </trkpt>
      <trkpt lat="47.25514" lon="-2.31852">
        <ele>18.7</ele>
        <time>2017-11-09T11:28:10Z</time>
      </trkpt>
      <trkpt lat="47.25505" lon="-2.31836">
        <ele>65</ele>
        <time>2017-11-09T11:28:10Z</time>
      </trkpt>
      <trkpt lat="47.25523" lon="-2.31809">
        <ele>65</ele>
        <time>2017-11-09T11:28:21Z</time>
      </trkpt>
      <trkpt lat="47.25541" lon="-2.31803">
        <ele>65</ele>
        <time>2017-11-09T11:28:26Z</time>
      </trkpt>
      <trkpt lat="47.25555" lon="-2.31796">
        <ele>65</ele>
        <time>2017-11-09T11:28:29Z</time>
      </trkpt>
      <trkpt lat="47.25575" lon="-2.31765">
        <ele>65</ele>
        <time>2017-11-09T11:28:35Z</time>
      </trkpt>
      <trkpt lat="47.25592" lon="-2.31731">
        <ele>63</ele>
        <time>2017-11-09T11:28:40Z</time>
      </trkpt>
      <trkpt lat="47.25602" lon="-2.31713">
        <ele>63</ele>
        <time>2017-11-09T11:28:43Z</time>
      </trkpt>
      <trkpt lat="47.25634" lon="-2.31699">
        <ele>63</ele>
        <time>2017-11-09T11:28:49Z</time>
      </trkpt>
      <trkpt lat="47.25652" lon="-2.31682">
        <ele>61</ele>
        <time>2017-11-09T11:28:52Z</time>
      </trkpt>
      <trkpt lat="47.25668" lon="-2.31661">
        <ele>61</ele>
        <time>2017-11-09T11:28:57Z</time>
      </trkpt>
      <trkpt lat="47.25703" lon="-2.31683">
        <ele>60</ele>
        <time>2017-11-09T11:29:04Z</time>
      </trkpt>
      <trkpt lat="47.25734" lon="-2.31695">
        <ele>59</ele>
        <time>2017-11-09T11:29:09Z</time>
      </trkpt>
      <trkpt lat="47.25765" lon="-2.31667">
        <ele>60</ele>
        <time>2017-11-09T11:29:15Z</time>
      </trkpt>
      <trkpt lat="47.25795" lon="-2.31645">
        <ele>62</ele>
        <time>2017-11-09T11:29:21Z</time>
      </trkpt>
      <trkpt lat="47.2582" lon="-2.31627">
        <ele>61</ele>
        <time>2017-11-09T11:29:26Z</time>
      </trkpt>
      <trkpt lat="47.25847" lon="-2.31604">
        <ele>59</ele>
        <time>2017-11-09T11:29:32Z</time>
      </trkpt>
      <trkpt lat="47.25873" lon="-2.31578">
        <ele>58</ele>
        <time>2017-11-09T11:29:37Z</time>
      </trkpt>
      <trkpt lat="47.25894" lon="-2.31541">
        <ele>56</ele>
        <time>2017-11-09T11:29:42Z</time>
      </trkpt>
      <trkpt lat="47.25912" lon="-2.31511">
        <ele>56</ele>
        <time>2017-11-09T11:29:49Z</time>
      </trkpt>
      <trkpt lat="47.25914" lon="-2.31496">
        <ele>55</ele>
        <time>2017-11-09T11:29:57Z</time>
      </trkpt>
      <trkpt lat="47.25933" lon="-2.31455">
        <ele>54</ele>
        <time>2017-11-09T11:30:05Z</time>
      </trkpt>
      <trkpt lat="47.25967" lon="-2.31493">
        <ele>53</ele>
        <time>2017-11-09T11:30:13Z</time>
      </trkpt>
      <trkpt lat="47.25986" lon="-2.31533">
        <ele>53</ele>
        <time>2017-11-09T11:30:19Z</time>
      </trkpt>
      <trkpt lat="47.26003" lon="-2.31559">
        <ele>52</ele>
        <time>2017-11-09T11:30:24Z</time>
      </trkpt>
      <trkpt lat="47.26016" lon="-2.31562">
        <ele>52</ele>
        <time>2017-11-09T11:30:27Z</time>
      </trkpt>
      <trkpt lat="47.26032" lon="-2.31521">
        <ele>52</ele>
        <time>2017-11-09T11:30:34Z</time>
      </trkpt>
      <trkpt lat="47.26054" lon="-2.31532">
        <ele>51</ele>
        <time>2017-11-09T11:30:40Z</time>
      </trkpt>
      <trkpt lat="47.26071" lon="-2.31559">
        <ele>52</ele>
        <time>2017-11-09T11:30:45Z</time>
      </trkpt>
      <trkpt lat="47.26084" lon="-2.31581">
        <ele>52</ele>
        <time>2017-11-09T11:30:50Z</time>
      </trkpt>
      <trkpt lat="47.2611" lon="-2.31616">
        <ele>51</ele>
        <time>2017-11-09T11:30:58Z</time>
      </trkpt>
      <trkpt lat="47.26147" lon="-2.31613">
        <ele>49</ele>
        <time>2017-11-09T11:31:05Z</time>
      </trkpt>
      <trkpt lat="47.26176" lon="-2.31597">
        <ele>49</ele>
        <time>2017-11-09T11:31:11Z</time>
      </trkpt>
      <trkpt lat="47.26201" lon="-2.31591">
        <ele>48</ele>
        <time>2017-11-09T11:31:16Z</time>
      </trkpt>
      <trkpt lat="47.26229" lon="-2.31602">
        <ele>47</ele>
        <time>2017-11-09T11:31:22Z</time>
      </trkpt>
      <trkpt lat="47.26255" lon="-2.31627">
        <ele>46</ele>
        <time>2017-11-09T11:31:28Z</time>
      </trkpt>
      <trkpt lat="47.26278" lon="-2.31669">
        <ele>46</ele>
        <time>2017-11-09T11:31:35Z</time>
      </trkpt>
      <trkpt lat="47.26297" lon="-2.31706">
        <ele>47</ele>
        <time>2017-11-09T11:31:41Z</time>
      </trkpt>
      <trkpt lat="47.2632" lon="-2.31707">
        <ele>48</ele>
        <time>2017-11-09T11:31:47Z</time>
      </trkpt>
      <trkpt lat="47.26338" lon="-2.31695">
        <ele>50</ele>
        <time>2017-11-09T11:31:52Z</time>
      </trkpt>
      <trkpt lat="47.26349" lon="-2.31689">
        <ele>49</ele>
        <time>2017-11-09T11:31:55Z</time>
      </trkpt>
      <trkpt lat="47.26372" lon="-2.31675">
        <ele>48</ele>
        <time>2017-11-09T11:32:01Z</time>
      </trkpt>
      <trkpt lat="47.26391" lon="-2.31664">
        <ele>48</ele>
        <time>2017-11-09T11:32:06Z</time>
      </trkpt>
      <trkpt lat="47.26408" lon="-2.31632">
        <ele>49</ele>
        <time>2017-11-09T11:32:12Z</time>
      </trkpt>
      <trkpt lat="47.26408" lon="-2.31603">
        <ele>49</ele>
        <time>2017-11-09T11:32:17Z</time>
      </trkpt>
      <trkpt lat="47.26409" lon="-2.31568">
        <ele>51</ele>
        <time>2017-11-09T11:32:23Z</time>
      </trkpt>
      <trkpt lat="47.26412" lon="-2.31553">
        <ele>52</ele>
        <time>2017-11-09T11:32:29Z</time>
      </trkpt>
      <trkpt lat="47.26412" lon="-2.31553">
        <ele>9.9</ele>
        <time>2017-11-09T11:32:34Z</time>
      </trkpt>
      <trkpt lat="47.26412" lon="-2.31553">
        <ele>9.9</ele>
        <time>2017-11-09T11:41:12Z</time>
      </trkpt>
      <trkpt lat="47.26412" lon="-2.31553">
        <ele>9.9</ele>
        <time>2017-11-09T11:41:15Z</time>
      </trkpt>
    </trkseg>
  </trk>
</gpx>